Home > Products > Valid Products > OSO

000
SXUS55 KMSO 291603
OSOMSO
MONTANA AWOS SUMMARY
NATIONAL WEATHER SERVICE MISSOULA MT
902 AM MST SUN MAR 29 2015

Montana AWOS Reports

LAUREL      |K6S8 291555Z AUTO 00000KT 40SM 10/M06 A3017 RMK AO1 T01001055
ROUNDUP     |KRPX 291555Z AUTO 26017G22KT 40SM 11/M07 A3007 RMK AO1 T01111066
MALTA       |KM75 291555Z AUTO 00000KT 40SM 07/03 A3006 RMK AO1 T00720028
SCOBEY      |K9S2 291555Z AUTO 23009KT 25SM 06/02 A3005 RMK AO1 T00610022
EKALAKA     |K97M 291555Z AUTO 26009G14KT 40SM 06/03 A3012 RMK AO1 T00610028
TWIN BRIDGES|K7S1 291555Z AUTO 18007KT 40SM 03/M07 A3026 RMK AO1 T00331071






000
SXUS55 KMSO 291543
OSOMSO
MONTANA AWOS SUMMARY
NATIONAL WEATHER SERVICE MISSOULA MT
843 AM MST SUN MAR 29 2015

Montana AWOS Reports

LAUREL      |K6S8 291535Z AUTO 00000KT 40SM 09/M04 A3017 RMK AO1 T00941043
ROUNDUP     |KRPX 291535Z AUTO 26021KT 40SM 11/M06 A3008 RMK AO1 T01061060
MALTA       |KM75 291535Z AUTO 24008KT 40SM 06/03 A3006 RMK AO1 T00610028
TWIN BRIDGES|K7S1 291535Z AUTO 20007KT 40SM 02/M08 A3026 RMK AO1 T00221077






000
SXUS55 KMSO 291533
OSOMSO
MONTANA AWOS SUMMARY
NATIONAL WEATHER SERVICE MISSOULA MT
833 AM MST SUN MAR 29 2015

Montana AWOS Reports

TWIN BRIDGES|K7S1 291515Z AUTO 17006KT 40SM 02/M07 A3025 RMK AO1 T00221071






000
SXUS55 KMSO 291524
OSOMSO
MONTANA AWOS SUMMARY
NATIONAL WEATHER SERVICE MISSOULA MT
823 AM MST SUN MAR 29 2015

Montana AWOS Reports

LAUREL      |K6S8 291515Z AUTO 00000KT 40SM 08/M06 A3018 RMK AO1 T00831055
ROUNDUP     |KRPX 291515Z AUTO 25014G19KT 40SM 10/M06 A3009 RMK AO1 T01001055
MALTA       |KM75 291515Z AUTO 40SM 06/03 A3006 RMK AO1 T00560028






000
SXUS55 KMSO 291503
OSOMSO
MONTANA AWOS SUMMARY
NATIONAL WEATHER SERVICE MISSOULA MT
803 AM MST SUN MAR 29 2015

Montana AWOS Reports

MALTA       |KM75 291455Z AUTO 23009KT 40SM 04/02 A3007 RMK AO1 T00440022
SCOBEY      |K9S2 291455Z AUTO 27008KT 25SM 03/00 A3004 RMK AO1 T00330000
EKALAKA     |K97M 291455Z AUTO 26007KT 40SM 04/02 A3011 RMK AO1 T00440017
LAUREL      |K6S8 291455Z AUTO 00000KT 40SM 08/M06 A3018 RMK AO1 T00831055
TWIN BRIDGES|K7S1 291455Z AUTO 15005KT 40SM 01/M07 A3026 RMK AO1 T00061066
ROUNDUP     |KRPX 291455Z AUTO 24005KT 40SM 08/M04 A3009 RMK AO1 T00781043






000
SXUS55 KMSO 291503
OSOMSO
MONTANA AWOS SUMMARY
NATIONAL WEATHER SERVICE MISSOULA MT
803 AM MST SUN MAR 29 2015

Montana AWOS Reports

MALTA       |KM75 291455Z AUTO 23009KT 40SM 04/02 A3007 RMK AO1 T00440022
SCOBEY      |K9S2 291455Z AUTO 27008KT 25SM 03/00 A3004 RMK AO1 T00330000
EKALAKA     |K97M 291455Z AUTO 26007KT 40SM 04/02 A3011 RMK AO1 T00440017
LAUREL      |K6S8 291455Z AUTO 00000KT 40SM 08/M06 A3018 RMK AO1 T00831055
TWIN BRIDGES|K7S1 291455Z AUTO 15005KT 40SM 01/M07 A3026 RMK AO1 T00061066
ROUNDUP     |KRPX 291455Z AUTO 24005KT 40SM 08/M04 A3009 RMK AO1 T00781043






000
SXUS55 KMSO 291444
OSOMSO
MONTANA AWOS SUMMARY
NATIONAL WEATHER SERVICE MISSOULA MT
743 AM MST SUN MAR 29 2015

Montana AWOS Reports

LAUREL      |K6S8 291435Z AUTO 00000KT 40SM 08/M06 A3019 RMK AO1 T00831055
ROUNDUP     |KRPX 291435Z AUTO 22009KT 40SM 07/M04 A3009 RMK AO1 T00671043
MALTA       |KM75 291435Z AUTO 22006KT 40SM 03/01 A3007 RMK AO1 T00330011
TWIN BRIDGES|K7S1 291435Z AUTO 12006KT 40SM M01/M08 A3026 RMK AO1 T10101077






000
SXUS55 KMSO 291444
OSOMSO
MONTANA AWOS SUMMARY
NATIONAL WEATHER SERVICE MISSOULA MT
743 AM MST SUN MAR 29 2015

Montana AWOS Reports

LAUREL      |K6S8 291435Z AUTO 00000KT 40SM 08/M06 A3019 RMK AO1 T00831055
ROUNDUP     |KRPX 291435Z AUTO 22009KT 40SM 07/M04 A3009 RMK AO1 T00671043
MALTA       |KM75 291435Z AUTO 22006KT 40SM 03/01 A3007 RMK AO1 T00330011
TWIN BRIDGES|K7S1 291435Z AUTO 12006KT 40SM M01/M08 A3026 RMK AO1 T10101077






000
SXUS55 KMSO 291423
OSOMSO
MONTANA AWOS SUMMARY
NATIONAL WEATHER SERVICE MISSOULA MT
723 AM MST SUN MAR 29 2015

Montana AWOS Reports

LAUREL      |K6S8 291415Z AUTO 00000KT 40SM 07/M06 A3019 RMK AO1 T00671060
ROUNDUP     |KRPX 291415Z AUTO 19006KT 40SM 06/M04 A3009 RMK AO1 T00561043
MALTA       |KM75 291415Z AUTO 23005KT 40SM 02/00 A3007 RMK AO1 T00220000
TWIN BRIDGES|K7S1 291415Z AUTO 13009KT 40SM M01/M08 A3026 RMK AO1 T10051077






000
SXUS55 KMSO 291423
OSOMSO
MONTANA AWOS SUMMARY
NATIONAL WEATHER SERVICE MISSOULA MT
723 AM MST SUN MAR 29 2015

Montana AWOS Reports

LAUREL      |K6S8 291415Z AUTO 00000KT 40SM 07/M06 A3019 RMK AO1 T00671060
ROUNDUP     |KRPX 291415Z AUTO 19006KT 40SM 06/M04 A3009 RMK AO1 T00561043
MALTA       |KM75 291415Z AUTO 23005KT 40SM 02/00 A3007 RMK AO1 T00220000
TWIN BRIDGES|K7S1 291415Z AUTO 13009KT 40SM M01/M08 A3026 RMK AO1 T10051077






000
SXUS55 KMSO 291403
OSOMSO
MONTANA AWOS SUMMARY
NATIONAL WEATHER SERVICE MISSOULA MT
702 AM MST SUN MAR 29 2015

Montana AWOS Reports

LAUREL      |K6S8 291355Z AUTO 00000KT 40SM 06/M06 A3019 RMK AO1 T00611055
TWIN BRIDGES|K7S1 291355Z AUTO 13010KT 40SM M02/M08 A3026 RMK AO1 T10161077
ROUNDUP     |KRPX 291355Z AUTO 21004KT 40SM 05/M04 A3009 RMK AO1 T00501043
MALTA       |KM75 291355Z AUTO 23006KT 40SM 02/M01 A3007 RMK AO1 T00171005
SCOBEY      |K9S2 291355Z AUTO 27007KT 15SM 01/M02 A3004 RMK AO1 T00111021






000
SXUS55 KMSO 291343
OSOMSO
MONTANA AWOS SUMMARY
NATIONAL WEATHER SERVICE MISSOULA MT
643 AM MST SUN MAR 29 2015

Montana AWOS Reports

LAUREL      |K6S8 291335Z AUTO 00000KT 40SM 06/M06 A3018 RMK AO1 T00611060
ROUNDUP     |KRPX 291335Z AUTO 22004KT 40SM 04/M04 A3009 RMK AO1 T00391043
MALTA       |KM75 291335Z AUTO 26006KT 40SM 01/M01 A3006 RMK AO1 T00111010
TWIN BRIDGES|K7S1 291335Z AUTO 13004KT 40SM M03/M09 A3026 RMK AO1 T10321088






000
SXUS55 KMSO 291323
OSOMSO
MONTANA AWOS SUMMARY
NATIONAL WEATHER SERVICE MISSOULA MT
623 AM MST SUN MAR 29 2015

Montana AWOS Reports

LAUREL      |K6S8 291315Z AUTO 27006KT 40SM 06/M07 A3018 RMK AO1 T00561066
ROUNDUP     |KRPX 291315Z AUTO 00000KT 40SM 04/M05 A3008 RMK AO1 T00441049
MALTA       |KM75 291315Z AUTO 00000KT 40SM 01/M01 A3005 RMK AO1 T00111010
TWIN BRIDGES|K7S1 291315Z AUTO 14004KT 40SM M03/M09 A3026 RMK AO1 T10321088






000
SXUS55 KMSO 291323
OSOMSO
MONTANA AWOS SUMMARY
NATIONAL WEATHER SERVICE MISSOULA MT
623 AM MST SUN MAR 29 2015

Montana AWOS Reports

LAUREL      |K6S8 291315Z AUTO 27006KT 40SM 06/M07 A3018 RMK AO1 T00561066
ROUNDUP     |KRPX 291315Z AUTO 00000KT 40SM 04/M05 A3008 RMK AO1 T00441049
MALTA       |KM75 291315Z AUTO 00000KT 40SM 01/M01 A3005 RMK AO1 T00111010
TWIN BRIDGES|K7S1 291315Z AUTO 14004KT 40SM M03/M09 A3026 RMK AO1 T10321088






000
SXUS55 KMSO 291303
OSOMSO
MONTANA AWOS SUMMARY
NATIONAL WEATHER SERVICE MISSOULA MT
603 AM MST SUN MAR 29 2015

Montana AWOS Reports

LAUREL      |K6S8 291255Z AUTO 29005KT 40SM 06/M07 A3018 RMK AO1 T00561066
TWIN BRIDGES|K7S1 291255Z AUTO 11004KT 40SM M04/M09 A3026 RMK AO1 T10381093
ROUNDUP     |KRPX 291255Z AUTO 00000KT 40SM 02/M05 A3009 RMK AO1 T00221049
MALTA       |KM75 291255Z AUTO 00000KT 40SM 01/M02 A3006 RMK AO1 T00061016
SCOBEY      |K9S2 291255Z AUTO 27005KT 15SM 01/M03 A3004 RMK AO1 T00061027
EKALAKA     |K97M 291255Z AUTO 27006KT 40SM 01/M01 A3011 RMK AO1 T00061010






000
SXUS55 KMSO 291303
OSOMSO
MONTANA AWOS SUMMARY
NATIONAL WEATHER SERVICE MISSOULA MT
603 AM MST SUN MAR 29 2015

Montana AWOS Reports

LAUREL      |K6S8 291255Z AUTO 29005KT 40SM 06/M07 A3018 RMK AO1 T00561066
TWIN BRIDGES|K7S1 291255Z AUTO 11004KT 40SM M04/M09 A3026 RMK AO1 T10381093
ROUNDUP     |KRPX 291255Z AUTO 00000KT 40SM 02/M05 A3009 RMK AO1 T00221049
MALTA       |KM75 291255Z AUTO 00000KT 40SM 01/M02 A3006 RMK AO1 T00061016
SCOBEY      |K9S2 291255Z AUTO 27005KT 15SM 01/M03 A3004 RMK AO1 T00061027
EKALAKA     |K97M 291255Z AUTO 27006KT 40SM 01/M01 A3011 RMK AO1 T00061010






000
SXUS55 KMSO 291243
OSOMSO
MONTANA AWOS SUMMARY
NATIONAL WEATHER SERVICE MISSOULA MT
543 AM MST SUN MAR 29 2015

Montana AWOS Reports

LAUREL      |K6S8 291235Z AUTO 30014KT 40SM 07/M07 A3017 RMK AO1 T00671066
TWIN BRIDGES|K7S1 291235Z AUTO 00000KT 40SM M04/M10 A3026 RMK AO1 T10431099
ROUNDUP     |KRPX 291235Z AUTO 28004KT 40SM 03/M05 A3008 RMK AO1 T00331049
MALTA       |KM75 291235Z AUTO 00000KT 25SM 01/M01 A3006 RMK AO1 T00111010






000
SXUS55 KMSO 291243
OSOMSO
MONTANA AWOS SUMMARY
NATIONAL WEATHER SERVICE MISSOULA MT
543 AM MST SUN MAR 29 2015

Montana AWOS Reports

LAUREL      |K6S8 291235Z AUTO 30014KT 40SM 07/M07 A3017 RMK AO1 T00671066
TWIN BRIDGES|K7S1 291235Z AUTO 00000KT 40SM M04/M10 A3026 RMK AO1 T10431099
ROUNDUP     |KRPX 291235Z AUTO 28004KT 40SM 03/M05 A3008 RMK AO1 T00331049
MALTA       |KM75 291235Z AUTO 00000KT 25SM 01/M01 A3006 RMK AO1 T00111010






000
SXUS55 KMSO 291223
OSOMSO
MONTANA AWOS SUMMARY
NATIONAL WEATHER SERVICE MISSOULA MT
522 AM MST SUN MAR 29 2015

Montana AWOS Reports

LAUREL      |K6S8 291215Z AUTO 29016G23KT 40SM 07/M06 A3017 RMK AO1 T00721060
TWIN BRIDGES|K7S1 291215Z AUTO 00000KT 40SM M04/M09 A3027 RMK AO1 T10431093
ROUNDUP     |KRPX 291215Z AUTO 26007KT 40SM 04/M05 A3008 RMK AO1 T00391049
MALTA       |KM75 291215Z AUTO 00000KT 25SM 02/M01 A3006 RMK AO1 T00171010






000
SXUS55 KMSO 291223
OSOMSO
MONTANA AWOS SUMMARY
NATIONAL WEATHER SERVICE MISSOULA MT
522 AM MST SUN MAR 29 2015

Montana AWOS Reports

LAUREL      |K6S8 291215Z AUTO 29016G23KT 40SM 07/M06 A3017 RMK AO1 T00721060
TWIN BRIDGES|K7S1 291215Z AUTO 00000KT 40SM M04/M09 A3027 RMK AO1 T10431093
ROUNDUP     |KRPX 291215Z AUTO 26007KT 40SM 04/M05 A3008 RMK AO1 T00391049
MALTA       |KM75 291215Z AUTO 00000KT 25SM 02/M01 A3006 RMK AO1 T00171010






000
SXUS55 KMSO 291204
OSOMSO
MONTANA AWOS SUMMARY
NATIONAL WEATHER SERVICE MISSOULA MT
503 AM MST SUN MAR 29 2015

Montana AWOS Reports

ROUNDUP     |KRPX 291155Z AUTO 26006KT 40SM 04/M05 A3009 RMK AO1 T00391049
MALTA       |KM75 291155Z AUTO 27004KT 40SM 02/00 A3006 RMK AO1 T00220000
EKALAKA     |K97M 291155Z AUTO 29008KT 40SM 02/M01 A3010 RMK AO1 T00171010
LAUREL      |K6S8 291155Z AUTO 29010G19KT 40SM 07/M07 A3017 RMK AO1 T00671066
TWIN BRIDGES|K7S1 291155Z AUTO 00000KT 40SM M04/M10 A3026 RMK AO1 T10431099
SCOBEY      |K9S2 291155Z AUTO 27004KT 15SM 01/M02 A3003 RMK AO1 T00111021






000
SXUS55 KMSO 291204
OSOMSO
MONTANA AWOS SUMMARY
NATIONAL WEATHER SERVICE MISSOULA MT
503 AM MST SUN MAR 29 2015

Montana AWOS Reports

ROUNDUP     |KRPX 291155Z AUTO 26006KT 40SM 04/M05 A3009 RMK AO1 T00391049
MALTA       |KM75 291155Z AUTO 27004KT 40SM 02/00 A3006 RMK AO1 T00220000
EKALAKA     |K97M 291155Z AUTO 29008KT 40SM 02/M01 A3010 RMK AO1 T00171010
LAUREL      |K6S8 291155Z AUTO 29010G19KT 40SM 07/M07 A3017 RMK AO1 T00671066
TWIN BRIDGES|K7S1 291155Z AUTO 00000KT 40SM M04/M10 A3026 RMK AO1 T10431099
SCOBEY      |K9S2 291155Z AUTO 27004KT 15SM 01/M02 A3003 RMK AO1 T00111021






000
SXUS55 KMSO 291143
OSOMSO
MONTANA AWOS SUMMARY
NATIONAL WEATHER SERVICE MISSOULA MT
443 AM MST SUN MAR 29 2015

Montana AWOS Reports

MALTA       |KM75 291135Z AUTO 26006KT 40SM 02/M01 A3006 RMK AO1 T00171005
LAUREL      |K6S8 291135Z AUTO 28010G14KT 40SM 06/M06 A3018 RMK AO1 T00611060
TWIN BRIDGES|K7S1 291135Z AUTO 00000KT 40SM M04/M10 A3026 RMK AO1 T10431099
ROUNDUP     |KRPX 291135Z AUTO 27006KT 40SM 06/M04 A3008 RMK AO1 T00561043






000
SXUS55 KMSO 291143
OSOMSO
MONTANA AWOS SUMMARY
NATIONAL WEATHER SERVICE MISSOULA MT
443 AM MST SUN MAR 29 2015

Montana AWOS Reports

MALTA       |KM75 291135Z AUTO 26006KT 40SM 02/M01 A3006 RMK AO1 T00171005
LAUREL      |K6S8 291135Z AUTO 28010G14KT 40SM 06/M06 A3018 RMK AO1 T00611060
TWIN BRIDGES|K7S1 291135Z AUTO 00000KT 40SM M04/M10 A3026 RMK AO1 T10431099
ROUNDUP     |KRPX 291135Z AUTO 27006KT 40SM 06/M04 A3008 RMK AO1 T00561043






000
SXUS55 KMSO 291123
OSOMSO
MONTANA AWOS SUMMARY
NATIONAL WEATHER SERVICE MISSOULA MT
423 AM MST SUN MAR 29 2015

Montana AWOS Reports

MALTA       |KM75 291115Z AUTO 26004KT 25SM 03/00 A3006 RMK AO1 T00280000
LAUREL      |K6S8 291115Z AUTO 27011G18KT 40SM 07/M06 A3018 RMK AO1 T00721060
TWIN BRIDGES|K7S1 291115Z AUTO 14004KT 40SM M04/M09 A3025 RMK AO1 T10381093
ROUNDUP     |KRPX 291115Z AUTO 25013G17KT 40SM 06/M04 A3008 RMK AO1 T00611043






000
SXUS55 KMSO 291123
OSOMSO
MONTANA AWOS SUMMARY
NATIONAL WEATHER SERVICE MISSOULA MT
423 AM MST SUN MAR 29 2015

Montana AWOS Reports

MALTA       |KM75 291115Z AUTO 26004KT 25SM 03/00 A3006 RMK AO1 T00280000
LAUREL      |K6S8 291115Z AUTO 27011G18KT 40SM 07/M06 A3018 RMK AO1 T00721060
TWIN BRIDGES|K7S1 291115Z AUTO 14004KT 40SM M04/M09 A3025 RMK AO1 T10381093
ROUNDUP     |KRPX 291115Z AUTO 25013G17KT 40SM 06/M04 A3008 RMK AO1 T00611043






000
SXUS55 KMSO 291114
OSOMSO
MONTANA AWOS SUMMARY
NATIONAL WEATHER SERVICE MISSOULA MT
413 AM MST SUN MAR 29 2015

Montana AWOS Reports

SCOBEY      |K9S2 291055Z AUTO 00000KT 15SM 01/M02 A3001 RMK AO1 T00111021






000
SXUS55 KMSO 291114
OSOMSO
MONTANA AWOS SUMMARY
NATIONAL WEATHER SERVICE MISSOULA MT
413 AM MST SUN MAR 29 2015

Montana AWOS Reports

SCOBEY      |K9S2 291055Z AUTO 00000KT 15SM 01/M02 A3001 RMK AO1 T00111021






000
SXUS55 KMSO 291103
OSOMSO
MONTANA AWOS SUMMARY
NATIONAL WEATHER SERVICE MISSOULA MT
403 AM MST SUN MAR 29 2015

Montana AWOS Reports

ROUNDUP     |KRPX 291055Z AUTO 24008KT 40SM 06/M04 A3007 RMK AO1 T00611038
MALTA       |KM75 291055Z AUTO 00000KT 25SM 02/M01 A3006 RMK AO1 T00171005
LAUREL      |K6S8 291055Z AUTO 27014G24KT 40SM 08/M07 A3017 RMK AO1 T00781066
TWIN BRIDGES|K7S1 291055Z AUTO 00000KT 40SM M03/M09 A3025 RMK AO1 T10321093
EKALAKA     |K97M 291055Z AUTO 30011G20KT 40SM 03/01 A3008 RMK AO1 T00280006






000
SXUS55 KMSO 291103
OSOMSO
MONTANA AWOS SUMMARY
NATIONAL WEATHER SERVICE MISSOULA MT
403 AM MST SUN MAR 29 2015

Montana AWOS Reports

ROUNDUP     |KRPX 291055Z AUTO 24008KT 40SM 06/M04 A3007 RMK AO1 T00611038
MALTA       |KM75 291055Z AUTO 00000KT 25SM 02/M01 A3006 RMK AO1 T00171005
LAUREL      |K6S8 291055Z AUTO 27014G24KT 40SM 08/M07 A3017 RMK AO1 T00781066
TWIN BRIDGES|K7S1 291055Z AUTO 00000KT 40SM M03/M09 A3025 RMK AO1 T10321093
EKALAKA     |K97M 291055Z AUTO 30011G20KT 40SM 03/01 A3008 RMK AO1 T00280006






000
SXUS55 KMSO 291043
OSOMSO
MONTANA AWOS SUMMARY
NATIONAL WEATHER SERVICE MISSOULA MT
343 AM MST SUN MAR 29 2015

Montana AWOS Reports

ROUNDUP     |KRPX 291035Z AUTO 25009G16KT 40SM 06/M04 A3007 RMK AO1 T00611038
MALTA       |KM75 291035Z AUTO 00000KT 10SM 01/M02 A3005 RMK AO1 T00111016
LAUREL      |K6S8 291035Z AUTO 26018G22KT 40SM 08/M07 A3017 RMK AO1 T00781066
TWIN BRIDGES|K7S1 291035Z AUTO 00000KT 40SM M03/M09 A3026 RMK AO1 T10271088






000
SXUS55 KMSO 291043
OSOMSO
MONTANA AWOS SUMMARY
NATIONAL WEATHER SERVICE MISSOULA MT
343 AM MST SUN MAR 29 2015

Montana AWOS Reports

ROUNDUP     |KRPX 291035Z AUTO 25009G16KT 40SM 06/M04 A3007 RMK AO1 T00611038
MALTA       |KM75 291035Z AUTO 00000KT 10SM 01/M02 A3005 RMK AO1 T00111016
LAUREL      |K6S8 291035Z AUTO 26018G22KT 40SM 08/M07 A3017 RMK AO1 T00781066
TWIN BRIDGES|K7S1 291035Z AUTO 00000KT 40SM M03/M09 A3026 RMK AO1 T10271088






000
SXUS55 KMSO 291033
OSOMSO
MONTANA AWOS SUMMARY
NATIONAL WEATHER SERVICE MISSOULA MT
332 AM MST SUN MAR 29 2015

Montana AWOS Reports

LAUREL      |K6S8 291015Z AUTO 26015G22KT 40SM 08/M07 A3017 RMK AO1 T00781066
TWIN BRIDGES|K7S1 291015Z AUTO 00000KT 40SM M03/M09 A3026 RMK AO1 T10321088






000
SXUS55 KMSO 291023
OSOMSO
MONTANA AWOS SUMMARY
NATIONAL WEATHER SERVICE MISSOULA MT
322 AM MST SUN MAR 29 2015

Montana AWOS Reports

ROUNDUP     |KRPX 291015Z AUTO 25009G14KT 40SM 06/M04 A3008 RMK AO1 T00561038
MALTA       |KM75 291015Z AUTO 00000KT 15SM 02/M01 A3005 RMK AO1 T00221005






000
SXUS55 KMSO 291003
OSOMSO
MONTANA AWOS SUMMARY
NATIONAL WEATHER SERVICE MISSOULA MT
303 AM MST SUN MAR 29 2015

Montana AWOS Reports

LAUREL      |K6S8 290955Z AUTO 26014G21KT 40SM 08/M07 A3017 RMK AO1 T00831066
ROUNDUP     |KRPX 290955Z AUTO 26010G17KT 40SM 06/M04 A3008 RMK AO1 T00561038
MALTA       |KM75 290955Z AUTO 00000KT 25SM 03/01 A3005 RMK AO1 T00330006
SCOBEY      |K9S2 290955Z AUTO 27013KT 15SM 02/M02 A3000 RMK AO1 T00171021
EKALAKA     |K97M 290955Z AUTO 29016G25KT 25SM 03/01 A3002 RMK AO1 T00330011
TWIN BRIDGES|K7S1 290955Z AUTO 10005KT 40SM M04/M09 A3025 RMK AO1 T10381093






000
SXUS55 KMSO 290943
OSOMSO
MONTANA AWOS SUMMARY
NATIONAL WEATHER SERVICE MISSOULA MT
243 AM MST SUN MAR 29 2015

Montana AWOS Reports

LAUREL      |K6S8 290935Z AUTO 25014G20KT 40SM 08/M07 A3018 RMK AO1 T00831066
ROUNDUP     |KRPX 290935Z AUTO 24008KT 40SM 04/M04 A3008 RMK AO1 T00441038
MALTA       |KM75 290935Z AUTO 00000KT 25SM 03/01 A3005 RMK AO1 T00330006
TWIN BRIDGES|K7S1 290935Z AUTO 11005KT 40SM M04/M09 A3025 RMK AO1 T10381093






000
SXUS55 KMSO 290923
OSOMSO
MONTANA AWOS SUMMARY
NATIONAL WEATHER SERVICE MISSOULA MT
222 AM MST SUN MAR 29 2015

Montana AWOS Reports

ROUNDUP     |KRPX 290915Z AUTO 26009G13KT 40SM 06/M03 A3007 RMK AO1 T00611032
MALTA       |KM75 290915Z AUTO 00000KT 25SM 04/01 A3005 RMK AO1 T00390006
LAUREL      |K6S8 290915Z AUTO 26011G16KT 40SM 08/M07 A3018 RMK AO1 T00781066
TWIN BRIDGES|K7S1 290915Z AUTO 00000KT 40SM M04/M10 A3026 RMK AO1 T10381099






000
SXUS55 KMSO 290923
OSOMSO
MONTANA AWOS SUMMARY
NATIONAL WEATHER SERVICE MISSOULA MT
222 AM MST SUN MAR 29 2015

Montana AWOS Reports

ROUNDUP     |KRPX 290915Z AUTO 26009G13KT 40SM 06/M03 A3007 RMK AO1 T00611032
MALTA       |KM75 290915Z AUTO 00000KT 25SM 04/01 A3005 RMK AO1 T00390006
LAUREL      |K6S8 290915Z AUTO 26011G16KT 40SM 08/M07 A3018 RMK AO1 T00781066
TWIN BRIDGES|K7S1 290915Z AUTO 00000KT 40SM M04/M10 A3026 RMK AO1 T10381099






000
SXUS55 KMSO 290913
OSOMSO
MONTANA AWOS SUMMARY
NATIONAL WEATHER SERVICE MISSOULA MT
213 AM MST SUN MAR 29 2015

Montana AWOS Reports

EKALAKA     |K97M 290855Z AUTO 29025G33KT 40SM 04/02 A2998 RMK AO1 T00440017






000
SXUS55 KMSO 290904
OSOMSO
MONTANA AWOS SUMMARY
NATIONAL WEATHER SERVICE MISSOULA MT
203 AM MST SUN MAR 29 2015

Montana AWOS Reports

LAUREL      |K6S8 290855Z AUTO 26012G16KT 40SM 08/M06 A3017 RMK AO1 T00831060
ROUNDUP     |KRPX 290855Z AUTO 23011KT 40SM 06/M03 A3007 RMK AO1 T00611027
MALTA       |KM75 290855Z AUTO 26006KT 40SM 05/02 A3005 RMK AO1 T00500017
TWIN BRIDGES|K7S1 290855Z AUTO 00000KT 40SM M04/M09 A3025 RMK AO1 T10381093
SCOBEY      |K9S2 290855Z AUTO 28013G17KT 15SM 02/M02 A2997 RMK AO1 T00221016






000
SXUS55 KMSO 290843
OSOMSO
MONTANA AWOS SUMMARY
NATIONAL WEATHER SERVICE MISSOULA MT
143 AM MST SUN MAR 29 2015

Montana AWOS Reports

ROUNDUP     |KRPX 290835Z AUTO 24009KT 40SM 06/M03 A3006 RMK AO1 T00611032
MALTA       |KM75 290835Z AUTO 28005KT 40SM 06/01 A3005 RMK AO1 T00560011
LAUREL      |K6S8 290835Z AUTO 26013G17KT 40SM 08/M07 A3016 RMK AO1 T00831066
TWIN BRIDGES|K7S1 290835Z AUTO VRB05KT 40SM M01/M09 A3025 RMK AO1 T10101088






000
SXUS55 KMSO 290823
OSOMSO
MONTANA AWOS SUMMARY
NATIONAL WEATHER SERVICE MISSOULA MT
123 AM MST SUN MAR 29 2015

Montana AWOS Reports

MALTA       |KM75 290815Z AUTO 29008KT 40SM 07/02 A3005 RMK AO1 T00670017
LAUREL      |K6S8 290815Z AUTO 26012G17KT 40SM 08/M07 A3016 RMK AO1 T00831066
TWIN BRIDGES|K7S1 290815Z AUTO 00000KT 40SM 00/M08 A3025 RMK AO1 T00001082
ROUNDUP     |KRPX 290815Z AUTO 24006KT 40SM 07/M03 A3006 RMK AO1 T00671027






000
SXUS55 KMSO 290803
OSOMSO
MONTANA AWOS SUMMARY
NATIONAL WEATHER SERVICE MISSOULA MT
103 AM MST SUN MAR 29 2015

Montana AWOS Reports

ROUNDUP     |KRPX 290755Z AUTO 26013G20KT 40SM 07/M03 A3005 RMK AO1 T00721027
MALTA       |KM75 290755Z AUTO 29010G14KT 40SM 06/02 A3005 RMK AO1 T00610017
LAUREL      |K6S8 290755Z AUTO 27011G17KT 40SM 09/M06 A3015 RMK AO1 T00891060
TWIN BRIDGES|K7S1 290755Z AUTO 08005KT 40SM M01/M09 A3025 RMK AO1 T10101088
SCOBEY      |K9S2 290755Z AUTO 29016G20KT 15SM 03/M01 A2994 RMK AO1 T00281010
EKALAKA     |K97M 290755Z AUTO 29021G28KT 4SM 04/02 A2994 RMK AO1 T00390022






000
SXUS55 KMSO 290803
OSOMSO
MONTANA AWOS SUMMARY
NATIONAL WEATHER SERVICE MISSOULA MT
103 AM MST SUN MAR 29 2015

Montana AWOS Reports

ROUNDUP     |KRPX 290755Z AUTO 26013G20KT 40SM 07/M03 A3005 RMK AO1 T00721027
MALTA       |KM75 290755Z AUTO 29010G14KT 40SM 06/02 A3005 RMK AO1 T00610017
LAUREL      |K6S8 290755Z AUTO 27011G17KT 40SM 09/M06 A3015 RMK AO1 T00891060
TWIN BRIDGES|K7S1 290755Z AUTO 08005KT 40SM M01/M09 A3025 RMK AO1 T10101088
SCOBEY      |K9S2 290755Z AUTO 29016G20KT 15SM 03/M01 A2994 RMK AO1 T00281010
EKALAKA     |K97M 290755Z AUTO 29021G28KT 4SM 04/02 A2994 RMK AO1 T00390022






000
SXUS55 KMSO 290744
OSOMSO
MONTANA AWOS SUMMARY
NATIONAL WEATHER SERVICE MISSOULA MT
1243 AM MST SUN MAR 29 2015

Montana AWOS Reports

MALTA       |KM75 290735Z AUTO 27009KT 40SM 07/03 A3004 RMK AO1 T00670028
LAUREL      |K6S8 290735Z AUTO 25008KT 40SM 09/M06 A3015 RMK AO1 T00891060
TWIN BRIDGES|K7S1 290735Z AUTO 11004KT 40SM 01/M09 A3026 RMK AO1 T00061088
ROUNDUP     |KRPX 290735Z AUTO 24011G15KT 40SM 07/M03 A3005 RMK AO1 T00671032






000
SXUS55 KMSO 290733
OSOMSO
MONTANA AWOS SUMMARY
NATIONAL WEATHER SERVICE MISSOULA MT
1233 AM MST SUN MAR 29 2015

Montana AWOS Reports

TWIN BRIDGES|K7S1 290715Z AUTO 08004KT 40SM 00/M08 A3026 RMK AO1 T00001082






000
SXUS55 KMSO 290723
OSOMSO
MONTANA AWOS SUMMARY
NATIONAL WEATHER SERVICE MISSOULA MT
1223 AM MST SUN MAR 29 2015

Montana AWOS Reports

SCOBEY      |K9S2 290655Z AUTO 30016G22KT 25SM 03/00 A2989 RMK AO1 T00330000
LAUREL      |K6S8 290715Z AUTO 00000KT 40SM 07/M06 A3015 RMK AO1 T00721055
ROUNDUP     |KRPX 290715Z AUTO 24010G17KT 40SM 09/M03 A3005 RMK AO1 T00891027
MALTA       |KM75 290715Z AUTO 27011KT 40SM 07/03 A3003 RMK AO1 T00670028






000
SXUS55 KMSO 290723
OSOMSO
MONTANA AWOS SUMMARY
NATIONAL WEATHER SERVICE MISSOULA MT
1223 AM MST SUN MAR 29 2015

Montana AWOS Reports

SCOBEY      |K9S2 290655Z AUTO 30016G22KT 25SM 03/00 A2989 RMK AO1 T00330000
LAUREL      |K6S8 290715Z AUTO 00000KT 40SM 07/M06 A3015 RMK AO1 T00721055
ROUNDUP     |KRPX 290715Z AUTO 24010G17KT 40SM 09/M03 A3005 RMK AO1 T00891027
MALTA       |KM75 290715Z AUTO 27011KT 40SM 07/03 A3003 RMK AO1 T00670028






000
SXUS55 KMSO 290703
OSOMSO
MONTANA AWOS SUMMARY
NATIONAL WEATHER SERVICE MISSOULA MT
1203 AM MST SUN MAR 29 2015

Montana AWOS Reports

ROUNDUP     |KRPX 290655Z AUTO 29014KT 40SM 08/M03 A3003 RMK AO1 T00831027
MALTA       |KM75 290655Z AUTO 25008KT 40SM 07/03 A3003 RMK AO1 T00670033
LAUREL      |K6S8 290655Z AUTO 00000KT 40SM 07/M04 A3015 RMK AO1 T00721043
TWIN BRIDGES|K7S1 290655Z AUTO 06004KT 40SM 02/M08 A3025 RMK AO1 T00171082
EKALAKA     |K97M 290655Z AUTO 28022G32KT 5SM 02/00 A2989 RMK AO1 T00170000






000
SXUS55 KMSO 290644
OSOMSO
MONTANA AWOS SUMMARY
NATIONAL WEATHER SERVICE MISSOULA MT
1143 PM MST SAT MAR 28 2015

Montana AWOS Reports

TWIN BRIDGES|K7S1 290635Z AUTO 00000KT 40SM 03/M08 A3025 RMK AO1 T00331082
LAUREL      |K6S8 290635Z AUTO 26005KT 40SM 08/M04 A3014 RMK AO1 T00781038
ROUNDUP     |KRPX 290635Z AUTO 26013G18KT 40SM 08/M02 A3003 RMK AO1 T00781021
MALTA       |KM75 290635Z AUTO 26006KT 40SM 07/03 A3002 RMK AO1 T00670028






000
SXUS55 KMSO 290644
OSOMSO
MONTANA AWOS SUMMARY
NATIONAL WEATHER SERVICE MISSOULA MT
1143 PM MST SAT MAR 28 2015

Montana AWOS Reports

TWIN BRIDGES|K7S1 290635Z AUTO 00000KT 40SM 03/M08 A3025 RMK AO1 T00331082
LAUREL      |K6S8 290635Z AUTO 26005KT 40SM 08/M04 A3014 RMK AO1 T00781038
ROUNDUP     |KRPX 290635Z AUTO 26013G18KT 40SM 08/M02 A3003 RMK AO1 T00781021
MALTA       |KM75 290635Z AUTO 26006KT 40SM 07/03 A3002 RMK AO1 T00670028






000
SXUS55 KMSO 290623
OSOMSO
MONTANA AWOS SUMMARY
NATIONAL WEATHER SERVICE MISSOULA MT
1123 PM MST SAT MAR 28 2015

Montana AWOS Reports

LAUREL      |K6S8 290615Z AUTO 27005KT 40SM 08/M04 A3013 RMK AO1 T00831043
ROUNDUP     |KRPX 290615Z AUTO 26009G13KT 40SM 07/M01 A3002 RMK AO1 T00671010
MALTA       |KM75 290615Z AUTO 25004KT 40SM 07/03 A3001 RMK AO1 T00720028
TWIN BRIDGES|K7S1 290615Z AUTO 24005KT 40SM 03/M08 A3025 RMK AO1 T00331077






000
SXUS55 KMSO 290623
OSOMSO
MONTANA AWOS SUMMARY
NATIONAL WEATHER SERVICE MISSOULA MT
1123 PM MST SAT MAR 28 2015

Montana AWOS Reports

LAUREL      |K6S8 290615Z AUTO 27005KT 40SM 08/M04 A3013 RMK AO1 T00831043
ROUNDUP     |KRPX 290615Z AUTO 26009G13KT 40SM 07/M01 A3002 RMK AO1 T00671010
MALTA       |KM75 290615Z AUTO 25004KT 40SM 07/03 A3001 RMK AO1 T00720028
TWIN BRIDGES|K7S1 290615Z AUTO 24005KT 40SM 03/M08 A3025 RMK AO1 T00331077






000
SXUS55 KMSO 290603
OSOMSO
MONTANA AWOS SUMMARY
NATIONAL WEATHER SERVICE MISSOULA MT
1103 PM MST SAT MAR 28 2015

Montana AWOS Reports

TWIN BRIDGES|K7S1 290555Z AUTO 00000KT 40SM 03/M08 A3024 RMK AO1 T00281082
ROUNDUP     |KRPX 290555Z AUTO 24010G16KT 40SM 07/M01 A3002 RMK AO1 T00671010
MALTA       |KM75 290555Z AUTO 26009G16KT 40SM 08/02 A3000 RMK AO1 T00780022
SCOBEY      |K9S2 290555Z AUTO 32022G31KT 25SM 04/01 A2983 RMK AO1 T00440011
PLAINS      |KS34 290555Z AUTO 00000KT 40SM 08/01 A3028 RMK AO1 T00830006
LAUREL      |K6S8 290555Z AUTO 30006KT 40SM 09/M04 A3013 RMK AO1 T00941038
EKALAKA     |K97M 290555Z AUTO 28030G43KT 10SM 06/02 A2984 RMK AO1 T00560022






000
SXUS55 KMSO 290603
OSOMSO
MONTANA AWOS SUMMARY
NATIONAL WEATHER SERVICE MISSOULA MT
1103 PM MST SAT MAR 28 2015

Montana AWOS Reports

TWIN BRIDGES|K7S1 290555Z AUTO 00000KT 40SM 03/M08 A3024 RMK AO1 T00281082
ROUNDUP     |KRPX 290555Z AUTO 24010G16KT 40SM 07/M01 A3002 RMK AO1 T00671010
MALTA       |KM75 290555Z AUTO 26009G16KT 40SM 08/02 A3000 RMK AO1 T00780022
SCOBEY      |K9S2 290555Z AUTO 32022G31KT 25SM 04/01 A2983 RMK AO1 T00440011
PLAINS      |KS34 290555Z AUTO 00000KT 40SM 08/01 A3028 RMK AO1 T00830006
LAUREL      |K6S8 290555Z AUTO 30006KT 40SM 09/M04 A3013 RMK AO1 T00941038
EKALAKA     |K97M 290555Z AUTO 28030G43KT 10SM 06/02 A2984 RMK AO1 T00560022






000
SXUS55 KMSO 290543
OSOMSO
MONTANA AWOS SUMMARY
NATIONAL WEATHER SERVICE MISSOULA MT
1043 PM MST SAT MAR 28 2015

Montana AWOS Reports

TWIN BRIDGES|K7S1 290535Z AUTO 00000KT 40SM 04/M09 A3024 RMK AO1 T00391088
ROUNDUP     |KRPX 290535Z AUTO 27014G19KT 40SM 07/M01 A3002 RMK AO1 T00721010
MALTA       |KM75 290535Z AUTO 28014G18KT 40SM 07/02 A2998 RMK AO1 T00720022
LAUREL      |K6S8 290535Z AUTO 29007KT 40SM 09/M04 A3013 RMK AO1 T00941043






000
SXUS55 KMSO 290543
OSOMSO
MONTANA AWOS SUMMARY
NATIONAL WEATHER SERVICE MISSOULA MT
1043 PM MST SAT MAR 28 2015

Montana AWOS Reports

TWIN BRIDGES|K7S1 290535Z AUTO 00000KT 40SM 04/M09 A3024 RMK AO1 T00391088
ROUNDUP     |KRPX 290535Z AUTO 27014G19KT 40SM 07/M01 A3002 RMK AO1 T00721010
MALTA       |KM75 290535Z AUTO 28014G18KT 40SM 07/02 A2998 RMK AO1 T00720022
LAUREL      |K6S8 290535Z AUTO 29007KT 40SM 09/M04 A3013 RMK AO1 T00941043






000
SXUS55 KMSO 290533
OSOMSO
MONTANA AWOS SUMMARY
NATIONAL WEATHER SERVICE MISSOULA MT
1032 PM MST SAT MAR 28 2015

Montana AWOS Reports

LAUREL      |K6S8 290515Z AUTO 29008KT 40SM 09/M04 A3012 RMK AO1 T00941043






000
SXUS55 KMSO 290533
OSOMSO
MONTANA AWOS SUMMARY
NATIONAL WEATHER SERVICE MISSOULA MT
1032 PM MST SAT MAR 28 2015

Montana AWOS Reports

LAUREL      |K6S8 290515Z AUTO 29008KT 40SM 09/M04 A3012 RMK AO1 T00941043






000
SXUS55 KMSO 290523
OSOMSO
MONTANA AWOS SUMMARY
NATIONAL WEATHER SERVICE MISSOULA MT
1022 PM MST SAT MAR 28 2015

Montana AWOS Reports

TWIN BRIDGES|K7S1 290515Z AUTO 00000KT 40SM 04/M09 A3024 RMK AO1 T00391088
ROUNDUP     |KRPX 290515Z AUTO 27017G22KT 40SM 07/M01 A3000 RMK AO1 T00721005
MALTA       |KM75 290515Z AUTO 27010G17KT 40SM 07/03 A2997 RMK AO1 T00720028






000
SXUS55 KMSO 290523
OSOMSO
MONTANA AWOS SUMMARY
NATIONAL WEATHER SERVICE MISSOULA MT
1022 PM MST SAT MAR 28 2015

Montana AWOS Reports

TWIN BRIDGES|K7S1 290515Z AUTO 00000KT 40SM 04/M09 A3024 RMK AO1 T00391088
ROUNDUP     |KRPX 290515Z AUTO 27017G22KT 40SM 07/M01 A3000 RMK AO1 T00721005
MALTA       |KM75 290515Z AUTO 27010G17KT 40SM 07/03 A2997 RMK AO1 T00720028






000
SXUS55 KMSO 290513
OSOMSO
MONTANA AWOS SUMMARY
NATIONAL WEATHER SERVICE MISSOULA MT
1013 PM MST SAT MAR 28 2015

Montana AWOS Reports

EKALAKA     |K97M 290455Z AUTO 28026G39KT 40SM 08/M02 A2983 RMK AO1 T00831021






000
SXUS55 KMSO 290513
OSOMSO
MONTANA AWOS SUMMARY
NATIONAL WEATHER SERVICE MISSOULA MT
1013 PM MST SAT MAR 28 2015

Montana AWOS Reports

EKALAKA     |K97M 290455Z AUTO 28026G39KT 40SM 08/M02 A2983 RMK AO1 T00831021






000
SXUS55 KMSO 290503
OSOMSO
MONTANA AWOS SUMMARY
NATIONAL WEATHER SERVICE MISSOULA MT
1002 PM MST SAT MAR 28 2015

Montana AWOS Reports

LAUREL      |K6S8 290455Z AUTO 28015G23KT 40SM 10/M05 A3010 RMK AO1 T01001049
TWIN BRIDGES|K7S1 290455Z AUTO 00000KT 40SM 04/M08 A3024 RMK AO1 T00441082
ROUNDUP     |KRPX 290455Z AUTO 25017G21KT 40SM 07/M01 A3000 RMK AO1 T00721010
MALTA       |KM75 290455Z AUTO 26012G19KT 40SM 07/03 A2996 RMK AO1 T00720028
SCOBEY      |K9S2 290455Z AUTO 32024G31KT 5SM 04/02 A2979 RMK AO1 T00440017
PLAINS      |KS34 290455Z AUTO 00000KT 40SM 09/01 A3028 RMK AO1 T00890011






000
SXUS55 KMSO 290503
OSOMSO
MONTANA AWOS SUMMARY
NATIONAL WEATHER SERVICE MISSOULA MT
1002 PM MST SAT MAR 28 2015

Montana AWOS Reports

LAUREL      |K6S8 290455Z AUTO 28015G23KT 40SM 10/M05 A3010 RMK AO1 T01001049
TWIN BRIDGES|K7S1 290455Z AUTO 00000KT 40SM 04/M08 A3024 RMK AO1 T00441082
ROUNDUP     |KRPX 290455Z AUTO 25017G21KT 40SM 07/M01 A3000 RMK AO1 T00721010
MALTA       |KM75 290455Z AUTO 26012G19KT 40SM 07/03 A2996 RMK AO1 T00720028
SCOBEY      |K9S2 290455Z AUTO 32024G31KT 5SM 04/02 A2979 RMK AO1 T00440017
PLAINS      |KS34 290455Z AUTO 00000KT 40SM 09/01 A3028 RMK AO1 T00890011






000
SXUS55 KMSO 290443
OSOMSO
MONTANA AWOS SUMMARY
NATIONAL WEATHER SERVICE MISSOULA MT
943 PM MST SAT MAR 28 2015

Montana AWOS Reports

TWIN BRIDGES|K7S1 290435Z AUTO 00000KT 40SM 05/M08 A3023 RMK AO1 T00501077
ROUNDUP     |KRPX 290435Z AUTO 26018G24KT 40SM 07/M01 A3000 RMK AO1 T00671010
MALTA       |KM75 290435Z AUTO 27015G19KT 40SM 07/03 A2995 RMK AO1 T00720028
LAUREL      |K6S8 290435Z AUTO 28014G22KT 40SM 11/M06 A3008 RMK AO1 T01061060






000
SXUS55 KMSO 290433
OSOMSO
MONTANA AWOS SUMMARY
NATIONAL WEATHER SERVICE MISSOULA MT
933 PM MST SAT MAR 28 2015

Montana AWOS Reports

EKALAKA     |K97M 290355Z AUTO 28016G23KT 40SM 08/M03 A2981 RMK AO1 T00781027






000
SXUS55 KMSO 290423
OSOMSO
MONTANA AWOS SUMMARY
NATIONAL WEATHER SERVICE MISSOULA MT
923 PM MST SAT MAR 28 2015

Montana AWOS Reports

TWIN BRIDGES|K7S1 290415Z AUTO 26008KT 40SM 06/M08 A3022 RMK AO1 T00611082






000
SXUS55 KMSO 290423
OSOMSO
MONTANA AWOS SUMMARY
NATIONAL WEATHER SERVICE MISSOULA MT
923 PM MST SAT MAR 28 2015

Montana AWOS Reports

TWIN BRIDGES|K7S1 290415Z AUTO 26008KT 40SM 06/M08 A3022 RMK AO1 T00611082






000
SXUS55 KMSO 290014
OSOMSO
MONTANA AWOS SUMMARY
NATIONAL WEATHER SERVICE MISSOULA MT
513 PM MST SAT MAR 28 2015

Montana AWOS Reports

EKALAKA     |K97M 282355Z AUTO 30025G36KT 40SM 15/06 A2973 RMK AO1 T01500056






000
SXUS55 KMSO 290014
OSOMSO
MONTANA AWOS SUMMARY
NATIONAL WEATHER SERVICE MISSOULA MT
513 PM MST SAT MAR 28 2015

Montana AWOS Reports

EKALAKA     |K97M 282355Z AUTO 30025G36KT 40SM 15/06 A2973 RMK AO1 T01500056






000
SXUS55 KMSO 290003
OSOMSO
MONTANA AWOS SUMMARY
NATIONAL WEATHER SERVICE MISSOULA MT
502 PM MST SAT MAR 28 2015

Montana AWOS Reports

TWIN BRIDGES|K7S1 282355Z AUTO 26017G25KT 40SM 11/M11 A3011 RMK AO1 T01111105
LAUREL      |K6S8 282355Z AUTO 25030G44KT 25SM 16/M11 A2989 RMK AO1 T01561105
ROUNDUP     |KRPX 282355Z AUTO 25032G43KT 40SM 14/M09 A2977 RMK AO1 T01441093
MALTA       |KM75 282355Z AUTO 25029G38KT 40SM 13/M01 A2967 RMK AO1 T01331010
SCOBEY      |K9S2 282355Z AUTO 26027G35KT 40SM 13/03 A2959 RMK AO1 T01280028
PLAINS      |KS34 282355Z AUTO 00000KT 40SM 10/03 A3019 RMK AO1 T01000028






000
SXUS55 KMSO 290003
OSOMSO
MONTANA AWOS SUMMARY
NATIONAL WEATHER SERVICE MISSOULA MT
502 PM MST SAT MAR 28 2015

Montana AWOS Reports

TWIN BRIDGES|K7S1 282355Z AUTO 26017G25KT 40SM 11/M11 A3011 RMK AO1 T01111105
LAUREL      |K6S8 282355Z AUTO 25030G44KT 25SM 16/M11 A2989 RMK AO1 T01561105
ROUNDUP     |KRPX 282355Z AUTO 25032G43KT 40SM 14/M09 A2977 RMK AO1 T01441093
MALTA       |KM75 282355Z AUTO 25029G38KT 40SM 13/M01 A2967 RMK AO1 T01331010
SCOBEY      |K9S2 282355Z AUTO 26027G35KT 40SM 13/03 A2959 RMK AO1 T01280028
PLAINS      |KS34 282355Z AUTO 00000KT 40SM 10/03 A3019 RMK AO1 T01000028






000
SXUS55 KMSO 282343
OSOMSO
MONTANA AWOS SUMMARY
NATIONAL WEATHER SERVICE MISSOULA MT
443 PM MST SAT MAR 28 2015

Montana AWOS Reports

LAUREL      |K6S8 282335Z AUTO 26032G39KT 40SM 16/M11 A2987 RMK AO1 T01561110
TWIN BRIDGES|K7S1 282335Z AUTO 25016G24KT 40SM 12/M11 A3010 RMK AO1 T01171105
ROUNDUP     |KRPX 282335Z AUTO 25032G46KT 40SM 14/M10 A2976 RMK AO1 T01441099
MALTA       |KM75 282335Z AUTO 25030G41KT 40SM 13/M02 A2966 RMK AO1 T01331021






000
SXUS55 KMSO 282343
OSOMSO
MONTANA AWOS SUMMARY
NATIONAL WEATHER SERVICE MISSOULA MT
443 PM MST SAT MAR 28 2015

Montana AWOS Reports

LAUREL      |K6S8 282335Z AUTO 26032G39KT 40SM 16/M11 A2987 RMK AO1 T01561110
TWIN BRIDGES|K7S1 282335Z AUTO 25016G24KT 40SM 12/M11 A3010 RMK AO1 T01171105
ROUNDUP     |KRPX 282335Z AUTO 25032G46KT 40SM 14/M10 A2976 RMK AO1 T01441099
MALTA       |KM75 282335Z AUTO 25030G41KT 40SM 13/M02 A2966 RMK AO1 T01331021






000
SXUS55 KMSO 282324
OSOMSO
MONTANA AWOS SUMMARY
NATIONAL WEATHER SERVICE MISSOULA MT
423 PM MST SAT MAR 28 2015

Montana AWOS Reports

LAUREL      |K6S8 282315Z AUTO 26026G41KT 25SM 16/M08 A2986 RMK AO1 T01611082
TWIN BRIDGES|K7S1 282315Z AUTO 25024G29KT 40SM 12/M12 A3008 RMK AO1 T01171116
ROUNDUP     |KRPX 282315Z AUTO 24030G46KT 40SM 14/M10 A2975 RMK AO1 T01441099
MALTA       |KM75 282315Z AUTO 25025G38KT 40SM 13/M02 A2966 RMK AO1 T01331016






000
SXUS55 KMSO 282303
OSOMSO
MONTANA AWOS SUMMARY
NATIONAL WEATHER SERVICE MISSOULA MT
403 PM MST SAT MAR 28 2015

Montana AWOS Reports

TWIN BRIDGES|K7S1 282255Z AUTO 24030G36KT 40SM 12/M11 A3007 RMK AO1 T01221110
ROUNDUP     |KRPX 282255Z AUTO 26031G48KT 40SM 15/M09 A2975 RMK AO1 T01501093
MALTA       |KM75 282255Z AUTO 25029G34KT 40SM 13/M02 A2964 RMK AO1 T01331016
SCOBEY      |K9S2 282255Z AUTO 27023G27KT 40SM 14/04 A2959 RMK AO1 T01440044
PLAINS      |KS34 282255Z AUTO 18008KT 25SM 12/02 A3015 RMK AO1 T01170022
LAUREL      |K6S8 282255Z AUTO 26027G42KT 40SM 16/M08 A2985 RMK AO1 T01611082
EKALAKA     |K97M 282255Z AUTO 29031G40KT 25SM 19/02 A2964 RMK AO1 T01940022






000
SXUS55 KMSO 282303
OSOMSO
MONTANA AWOS SUMMARY
NATIONAL WEATHER SERVICE MISSOULA MT
403 PM MST SAT MAR 28 2015

Montana AWOS Reports

TWIN BRIDGES|K7S1 282255Z AUTO 24030G36KT 40SM 12/M11 A3007 RMK AO1 T01221110
ROUNDUP     |KRPX 282255Z AUTO 26031G48KT 40SM 15/M09 A2975 RMK AO1 T01501093
MALTA       |KM75 282255Z AUTO 25029G34KT 40SM 13/M02 A2964 RMK AO1 T01331016
SCOBEY      |K9S2 282255Z AUTO 27023G27KT 40SM 14/04 A2959 RMK AO1 T01440044
PLAINS      |KS34 282255Z AUTO 18008KT 25SM 12/02 A3015 RMK AO1 T01170022
LAUREL      |K6S8 282255Z AUTO 26027G42KT 40SM 16/M08 A2985 RMK AO1 T01611082
EKALAKA     |K97M 282255Z AUTO 29031G40KT 25SM 19/02 A2964 RMK AO1 T01940022






000
SXUS55 KMSO 282243
OSOMSO
MONTANA AWOS SUMMARY
NATIONAL WEATHER SERVICE MISSOULA MT
343 PM MST SAT MAR 28 2015

Montana AWOS Reports

TWIN BRIDGES|K7S1 282235Z AUTO 26018G28KT 40SM 12/M11 A3007 RMK AO1 T01221105
ROUNDUP     |KRPX 282235Z AUTO 25031G51KT 40SM 15/M09 A2975 RMK AO1 T01501088
MALTA       |KM75 282235Z AUTO 24023G36KT 40SM 14/01 A2965 RMK AO1 T01390011
LAUREL      |K6S8 282235Z AUTO 27034G46KT 25SM 16/M08 A2984 RMK AO1 T01611082






000
SXUS55 KMSO 282243
OSOMSO
MONTANA AWOS SUMMARY
NATIONAL WEATHER SERVICE MISSOULA MT
343 PM MST SAT MAR 28 2015

Montana AWOS Reports

TWIN BRIDGES|K7S1 282235Z AUTO 26018G28KT 40SM 12/M11 A3007 RMK AO1 T01221105
ROUNDUP     |KRPX 282235Z AUTO 25031G51KT 40SM 15/M09 A2975 RMK AO1 T01501088
MALTA       |KM75 282235Z AUTO 24023G36KT 40SM 14/01 A2965 RMK AO1 T01390011
LAUREL      |K6S8 282235Z AUTO 27034G46KT 25SM 16/M08 A2984 RMK AO1 T01611082






000
SXUS55 KMSO 282223
OSOMSO
MONTANA AWOS SUMMARY
NATIONAL WEATHER SERVICE MISSOULA MT
323 PM MST SAT MAR 28 2015

Montana AWOS Reports

TWIN BRIDGES|K7S1 282215Z AUTO 25024G34KT 40SM 12/M12 A3006 RMK AO1 T01171116
LAUREL      |K6S8 282215Z AUTO 26032G51KT 15SM 16/M06 A2982 RMK AO1 T01611060
ROUNDUP     |KRPX 282215Z AUTO 24036G52KT 40SM 15/M08 A2974 RMK AO1 T01501077
MALTA       |KM75 282215Z AUTO 24027G39KT 40SM 13/01 A2965 RMK AO1 T01330011






000
SXUS55 KMSO 282203
OSOMSO
MONTANA AWOS SUMMARY
NATIONAL WEATHER SERVICE MISSOULA MT
303 PM MST SAT MAR 28 2015

Montana AWOS Reports

LAUREL      |K6S8 282155Z AUTO 26038G52KT 15SM 16/M03 A2979 RMK AO1 T01561027
TWIN BRIDGES|K7S1 282155Z AUTO 24026G34KT 40SM 12/M12 A3006 RMK AO1 T01221116
ROUNDUP     |KRPX 282155Z AUTO 25044G55KT 40SM 15/M10 A2972 RMK AO1 T01501099
MALTA       |KM75 282155Z AUTO 25026G36KT 40SM 13/03 A2964 RMK AO1 T01330033
EKALAKA     |K97M 282155Z AUTO 22009G21KT 160V280 40SM 25/M02 A2959 RMK AO1 T02501021
PLAINS      |KS34 282155Z AUTO 21008KT 40SM 12/02 A3013 RMK AO1 T01170022
SCOBEY      |K9S2 282155Z AUTO 26030G35KT 40SM 18/06 A2953 RMK AO1 T01780056






000
SXUS55 KMSO 282143
OSOMSO
MONTANA AWOS SUMMARY
NATIONAL WEATHER SERVICE MISSOULA MT
243 PM MST SAT MAR 28 2015

Montana AWOS Reports

LAUREL      |K6S8 282135Z AUTO 27039G53KT 15SM 16/M01 A2977 RMK AO1 T01561010
TWIN BRIDGES|K7S1 282135Z AUTO 24019G31KT 40SM 12/M11 A3006 RMK AO1 T01221105
ROUNDUP     |KRPX 282135Z AUTO 26040G57KT 40SM 15/M07 A2971 RMK AO1 T01501071
MALTA       |KM75 282135Z AUTO 24027G32KT 40SM 12/04 A2965 RMK AO1 T01170039






000
SXUS55 KMSO 282143
OSOMSO
MONTANA AWOS SUMMARY
NATIONAL WEATHER SERVICE MISSOULA MT
243 PM MST SAT MAR 28 2015

Montana AWOS Reports

LAUREL      |K6S8 282135Z AUTO 27039G53KT 15SM 16/M01 A2977 RMK AO1 T01561010
TWIN BRIDGES|K7S1 282135Z AUTO 24019G31KT 40SM 12/M11 A3006 RMK AO1 T01221105
ROUNDUP     |KRPX 282135Z AUTO 26040G57KT 40SM 15/M07 A2971 RMK AO1 T01501071
MALTA       |KM75 282135Z AUTO 24027G32KT 40SM 12/04 A2965 RMK AO1 T01170039






000
SXUS55 KMSO 282133
OSOMSO
MONTANA AWOS SUMMARY
NATIONAL WEATHER SERVICE MISSOULA MT
233 PM MST SAT MAR 28 2015

Montana AWOS Reports

LAUREL      |K6S8 282115Z AUTO 27035G48KT 10SM 16/M01 A2977 RMK AO1 T01561005






000
SXUS55 KMSO 282133
OSOMSO
MONTANA AWOS SUMMARY
NATIONAL WEATHER SERVICE MISSOULA MT
233 PM MST SAT MAR 28 2015

Montana AWOS Reports

LAUREL      |K6S8 282115Z AUTO 27035G48KT 10SM 16/M01 A2977 RMK AO1 T01561005






000
SXUS55 KMSO 282123
OSOMSO
MONTANA AWOS SUMMARY
NATIONAL WEATHER SERVICE MISSOULA MT
223 PM MST SAT MAR 28 2015

Montana AWOS Reports

TWIN BRIDGES|K7S1 282115Z AUTO 25014G28KT 40SM 12/M11 A3006 RMK AO1 T01221105
ROUNDUP     |KRPX 282115Z AUTO 25038G53KT 40SM 15/M06 A2971 RMK AO1 T01501055
MALTA       |KM75 282115Z AUTO 25020G45KT 10SM 11/04 A2966 RMK AO1 T01110044






000
SXUS55 KMSO 282103
OSOMSO
MONTANA AWOS SUMMARY
NATIONAL WEATHER SERVICE MISSOULA MT
203 PM MST SAT MAR 28 2015

Montana AWOS Reports

TWIN BRIDGES|K7S1 282055Z AUTO 26016G30KT 40SM 12/M11 A3006 RMK AO1 T01221105
ROUNDUP     |KRPX 282055Z AUTO 26028G38KT 40SM 15/M03 A2971 RMK AO1 T01501032
MALTA       |KM75 282055Z AUTO 25022G28KT 10SM 11/04 A2965 RMK AO1 T01110044
SCOBEY      |K9S2 282055Z AUTO 28009G13KT 40SM 18/05 A2951 RMK AO1 T01830050
EKALAKA     |K97M 282055Z AUTO 21005KT 40SM 25/M01 A2963 RMK AO1 T02501005
PLAINS      |KS34 282055Z AUTO 28012G18KT 25SM 11/03 A3010 RMK AO1 T01110028
LAUREL      |K6S8 282055Z AUTO 27040G53KT 5SM 16/M02 A2976 RMK AO1 T01611016






000
SXUS55 KMSO 282103
OSOMSO
MONTANA AWOS SUMMARY
NATIONAL WEATHER SERVICE MISSOULA MT
203 PM MST SAT MAR 28 2015

Montana AWOS Reports

TWIN BRIDGES|K7S1 282055Z AUTO 26016G30KT 40SM 12/M11 A3006 RMK AO1 T01221105
ROUNDUP     |KRPX 282055Z AUTO 26028G38KT 40SM 15/M03 A2971 RMK AO1 T01501032
MALTA       |KM75 282055Z AUTO 25022G28KT 10SM 11/04 A2965 RMK AO1 T01110044
SCOBEY      |K9S2 282055Z AUTO 28009G13KT 40SM 18/05 A2951 RMK AO1 T01830050
EKALAKA     |K97M 282055Z AUTO 21005KT 40SM 25/M01 A2963 RMK AO1 T02501005
PLAINS      |KS34 282055Z AUTO 28012G18KT 25SM 11/03 A3010 RMK AO1 T01110028
LAUREL      |K6S8 282055Z AUTO 27040G53KT 5SM 16/M02 A2976 RMK AO1 T01611016






000
SXUS55 KMSO 282043
OSOMSO
MONTANA AWOS SUMMARY
NATIONAL WEATHER SERVICE MISSOULA MT
143 PM MST SAT MAR 28 2015

Montana AWOS Reports

TWIN BRIDGES|K7S1 282035Z AUTO 28012G20KT 40SM 12/M09 A3006 RMK AO1 T01221093
ROUNDUP     |KRPX 282035Z AUTO 26028G49KT 40SM 18/M02 A2969 RMK AO1 T01781016
MALTA       |KM75 282035Z AUTO 24030G43KT 25SM 13/04 A2964 RMK AO1 T01330039






000
SXUS55 KMSO 282043
OSOMSO
MONTANA AWOS SUMMARY
NATIONAL WEATHER SERVICE MISSOULA MT
143 PM MST SAT MAR 28 2015

Montana AWOS Reports

TWIN BRIDGES|K7S1 282035Z AUTO 28012G20KT 40SM 12/M09 A3006 RMK AO1 T01221093
ROUNDUP     |KRPX 282035Z AUTO 26028G49KT 40SM 18/M02 A2969 RMK AO1 T01781016
MALTA       |KM75 282035Z AUTO 24030G43KT 25SM 13/04 A2964 RMK AO1 T01330039






000
SXUS55 KMSO 282023
OSOMSO
MONTANA AWOS SUMMARY
NATIONAL WEATHER SERVICE MISSOULA MT
122 PM MST SAT MAR 28 2015

Montana AWOS Reports

TWIN BRIDGES|K7S1 282015Z AUTO 23020G29KT 40SM 12/M11 A3005 RMK AO1 T01221110
ROUNDUP     |KRPX 282015Z AUTO 26038G46KT 40SM 18/M01 A2966 RMK AO1 T01781005
MALTA       |KM75 282015Z AUTO 28015G21KT 40SM 15/06 A2963 RMK AO1 T01500056






000
SXUS55 KMSO 282023
OSOMSO
MONTANA AWOS SUMMARY
NATIONAL WEATHER SERVICE MISSOULA MT
122 PM MST SAT MAR 28 2015

Montana AWOS Reports

TWIN BRIDGES|K7S1 282015Z AUTO 23020G29KT 40SM 12/M11 A3005 RMK AO1 T01221110
ROUNDUP     |KRPX 282015Z AUTO 26038G46KT 40SM 18/M01 A2966 RMK AO1 T01781005
MALTA       |KM75 282015Z AUTO 28015G21KT 40SM 15/06 A2963 RMK AO1 T01500056






000
SXUS55 KMSO 282013
OSOMSO
MONTANA AWOS SUMMARY
NATIONAL WEATHER SERVICE MISSOULA MT
113 PM MST SAT MAR 28 2015

Montana AWOS Reports

LAUREL      |K6S8 281955Z AUTO 26037G54KT 10SM 21/02 A2974 RMK AO1 T02060017






000
SXUS55 KMSO 282013
OSOMSO
MONTANA AWOS SUMMARY
NATIONAL WEATHER SERVICE MISSOULA MT
113 PM MST SAT MAR 28 2015

Montana AWOS Reports

LAUREL      |K6S8 281955Z AUTO 26037G54KT 10SM 21/02 A2974 RMK AO1 T02060017






000
SXUS55 KMSO 282003
OSOMSO
MONTANA AWOS SUMMARY
NATIONAL WEATHER SERVICE MISSOULA MT
103 PM MST SAT MAR 28 2015

Montana AWOS Reports

TWIN BRIDGES|K7S1 281955Z AUTO 24021G28KT 40SM 12/M11 A3005 RMK AO1 T01221110
ROUNDUP     |KRPX 281955Z AUTO 26030G39KT 40SM 18/M01 A2965 RMK AO1 T01831005
MALTA       |KM75 281955Z AUTO 29021G31KT 40SM 16/05 A2962 RMK AO1 T01610050
PLAINS      |KS34 281955Z AUTO 20018G22KT 40SM 11/02 A3007 RMK AO1 T01110017
SCOBEY      |K9S2 281955Z AUTO 24019G23KT 40SM 21/03 A2952 RMK AO1 T02060033
EKALAKA     |K97M 281955Z AUTO 25009G25KT 170V330 40SM 25/M02 A2966 RMK AO1 T02501021






000
SXUS55 KMSO 281943
OSOMSO
MONTANA AWOS SUMMARY
NATIONAL WEATHER SERVICE MISSOULA MT
1242 PM MST SAT MAR 28 2015

Montana AWOS Reports

TWIN BRIDGES|K7S1 281935Z AUTO 27012G27KT 25SM 12/M10 A3003 RMK AO1 T01221099
ROUNDUP     |KRPX 281935Z AUTO 25038G45KT 40SM 20/01 A2962 RMK AO1 T02000006
LAUREL      |K6S8 281935Z AUTO 26034G43KT 15SM 24/01 A2969 RMK AO1 T02440011
MALTA       |KM75 281935Z AUTO 29023G33KT 40SM 18/06 A2959 RMK AO1 T01780056






000
SXUS55 KMSO 281933
OSOMSO
MONTANA AWOS SUMMARY
NATIONAL WEATHER SERVICE MISSOULA MT
1233 PM MST SAT MAR 28 2015

Montana AWOS Reports

LAUREL      |K6S8 281915Z AUTO 22031G42KT 40SM 25/M03 A2968 RMK AO1 T02501032






000
SXUS55 KMSO 281923
OSOMSO
MONTANA AWOS SUMMARY
NATIONAL WEATHER SERVICE MISSOULA MT
1223 PM MST SAT MAR 28 2015

Montana AWOS Reports

TWIN BRIDGES|K7S1 281915Z AUTO 24019G24KT 40SM 12/M07 A3002 RMK AO1 T01171071
ROUNDUP     |KRPX 281915Z AUTO 26035G46KT 40SM 22/01 A2959 RMK AO1 T02170011
MALTA       |KM75 281915Z AUTO 28028G36KT 40SM 18/05 A2958 RMK AO1 T01830050






000
SXUS55 KMSO 281923
OSOMSO
MONTANA AWOS SUMMARY
NATIONAL WEATHER SERVICE MISSOULA MT
1223 PM MST SAT MAR 28 2015

Montana AWOS Reports

TWIN BRIDGES|K7S1 281915Z AUTO 24019G24KT 40SM 12/M07 A3002 RMK AO1 T01171071
ROUNDUP     |KRPX 281915Z AUTO 26035G46KT 40SM 22/01 A2959 RMK AO1 T02170011
MALTA       |KM75 281915Z AUTO 28028G36KT 40SM 18/05 A2958 RMK AO1 T01830050






000
SXUS55 KMSO 281914
OSOMSO
MONTANA AWOS SUMMARY
NATIONAL WEATHER SERVICE MISSOULA MT
1213 PM MST SAT MAR 28 2015

Montana AWOS Reports

PLAINS      |KS34 281855Z AUTO 25009G15KT 15SM 09/02 A3008 RMK AO1 T00940022
EKALAKA     |K97M 281855Z AUTO 22007KT 140V300 40SM 24/M01 A2970 RMK AO1 T02391005






000
SXUS55 KMSO 281903
OSOMSO
MONTANA AWOS SUMMARY
NATIONAL WEATHER SERVICE MISSOULA MT
1202 PM MST SAT MAR 28 2015

Montana AWOS Reports

LAUREL      |K6S8 281855Z AUTO 19012G22KT 40SM 26/00 A2968 RMK AO1 T02560000
TWIN BRIDGES|K7S1 281855Z AUTO 25011G17KT 40SM 11/M08 A3002 RMK AO1 T01061077
ROUNDUP     |KRPX 281855Z AUTO 21023G34KT 40SM 24/M03 A2956 RMK AO1 T02391027
MALTA       |KM75 281855Z AUTO 27019G30KT 40SM 18/05 A2955 RMK AO1 T01830050
SCOBEY      |K9S2 281855Z AUTO 21017G22KT 40SM 23/04 A2951 RMK AO1 T02280044






000
SXUS55 KMSO 281903
OSOMSO
MONTANA AWOS SUMMARY
NATIONAL WEATHER SERVICE MISSOULA MT
1202 PM MST SAT MAR 28 2015

Montana AWOS Reports

LAUREL      |K6S8 281855Z AUTO 19012G22KT 40SM 26/00 A2968 RMK AO1 T02560000
TWIN BRIDGES|K7S1 281855Z AUTO 25011G17KT 40SM 11/M08 A3002 RMK AO1 T01061077
ROUNDUP     |KRPX 281855Z AUTO 21023G34KT 40SM 24/M03 A2956 RMK AO1 T02391027
MALTA       |KM75 281855Z AUTO 27019G30KT 40SM 18/05 A2955 RMK AO1 T01830050
SCOBEY      |K9S2 281855Z AUTO 21017G22KT 40SM 23/04 A2951 RMK AO1 T02280044






000
SXUS55 KMSO 281843
OSOMSO
MONTANA AWOS SUMMARY
NATIONAL WEATHER SERVICE MISSOULA MT
1143 AM MST SAT MAR 28 2015

Montana AWOS Reports

LAUREL      |K6S8 281835Z AUTO 22016G24KT 40SM 24/01 A2968 RMK AO1 T02440006
TWIN BRIDGES|K7S1 281835Z AUTO 26019G26KT 40SM 10/M08 A3002 RMK AO1 T01001082
ROUNDUP     |KRPX 281835Z AUTO 23019G33KT 40SM 25/M02 A2957 RMK AO1 T02501021
MALTA       |KM75 281835Z AUTO 27014G21KT 40SM 18/04 A2954 RMK AO1 T01830044






000
SXUS55 KMSO 281843
OSOMSO
MONTANA AWOS SUMMARY
NATIONAL WEATHER SERVICE MISSOULA MT
1143 AM MST SAT MAR 28 2015

Montana AWOS Reports

LAUREL      |K6S8 281835Z AUTO 22016G24KT 40SM 24/01 A2968 RMK AO1 T02440006
TWIN BRIDGES|K7S1 281835Z AUTO 26019G26KT 40SM 10/M08 A3002 RMK AO1 T01001082
ROUNDUP     |KRPX 281835Z AUTO 23019G33KT 40SM 25/M02 A2957 RMK AO1 T02501021
MALTA       |KM75 281835Z AUTO 27014G21KT 40SM 18/04 A2954 RMK AO1 T01830044






000
SXUS55 KMSO 281823
OSOMSO
MONTANA AWOS SUMMARY
NATIONAL WEATHER SERVICE MISSOULA MT
1123 AM MST SAT MAR 28 2015

Montana AWOS Reports

TWIN BRIDGES|K7S1 281815Z AUTO 24015G31KT 40SM 10/M06 A3001 RMK AO1 T01001055
LAUREL      |K6S8 281815Z AUTO 19014G21KT 40SM 24/01 A2969 RMK AO1 T02390006
ROUNDUP     |KRPX 281815Z AUTO 21022G33KT 40SM 24/M02 A2957 RMK AO1 T02441016
MALTA       |KM75 281815Z AUTO 24010G16KT 40SM 18/05 A2954 RMK AO1 T01830050






000
SXUS55 KMSO 281823
OSOMSO
MONTANA AWOS SUMMARY
NATIONAL WEATHER SERVICE MISSOULA MT
1123 AM MST SAT MAR 28 2015

Montana AWOS Reports

TWIN BRIDGES|K7S1 281815Z AUTO 24015G31KT 40SM 10/M06 A3001 RMK AO1 T01001055
LAUREL      |K6S8 281815Z AUTO 19014G21KT 40SM 24/01 A2969 RMK AO1 T02390006
ROUNDUP     |KRPX 281815Z AUTO 21022G33KT 40SM 24/M02 A2957 RMK AO1 T02441016
MALTA       |KM75 281815Z AUTO 24010G16KT 40SM 18/05 A2954 RMK AO1 T01830050






000
SXUS55 KMSO 281813
OSOMSO
MONTANA AWOS SUMMARY
NATIONAL WEATHER SERVICE MISSOULA MT
1112 AM MST SAT MAR 28 2015

Montana AWOS Reports

EKALAKA     |K97M 281755Z AUTO 17007KT 100V240 40SM 22/02 A2974 RMK AO1 T02170017






000
SXUS55 KMSO 281813
OSOMSO
MONTANA AWOS SUMMARY
NATIONAL WEATHER SERVICE MISSOULA MT
1112 AM MST SAT MAR 28 2015

Montana AWOS Reports

EKALAKA     |K97M 281755Z AUTO 17007KT 100V240 40SM 22/02 A2974 RMK AO1 T02170017






000
SXUS55 KMSO 281803
OSOMSO
MONTANA AWOS SUMMARY
NATIONAL WEATHER SERVICE MISSOULA MT
1103 AM MST SAT MAR 28 2015

Montana AWOS Reports

TWIN BRIDGES|K7S1 281755Z AUTO 25024G31KT 40SM 10/M06 A2999 RMK AO1 T01001055
ROUNDUP     |KRPX 281755Z AUTO 22016G27KT 40SM 24/M01 A2958 RMK AO1 T02391005
LAUREL      |K6S8 281755Z AUTO 19016G21KT 40SM 24/01 A2970 RMK AO1 T02390011
SCOBEY      |K9S2 281755Z AUTO 18009G15KT 40SM 18/03 A2956 RMK AO1 T01830033
MALTA       |KM75 281755Z AUTO 00000KT 40SM 16/06 A2954 RMK AO1 T01610056
PLAINS      |KS34 281755Z AUTO 00000KT 25SM 08/02 A3006 RMK AO1 T00830022






000
SXUS55 KMSO 281803
OSOMSO
MONTANA AWOS SUMMARY
NATIONAL WEATHER SERVICE MISSOULA MT
1103 AM MST SAT MAR 28 2015

Montana AWOS Reports

TWIN BRIDGES|K7S1 281755Z AUTO 25024G31KT 40SM 10/M06 A2999 RMK AO1 T01001055
ROUNDUP     |KRPX 281755Z AUTO 22016G27KT 40SM 24/M01 A2958 RMK AO1 T02391005
LAUREL      |K6S8 281755Z AUTO 19016G21KT 40SM 24/01 A2970 RMK AO1 T02390011
SCOBEY      |K9S2 281755Z AUTO 18009G15KT 40SM 18/03 A2956 RMK AO1 T01830033
MALTA       |KM75 281755Z AUTO 00000KT 40SM 16/06 A2954 RMK AO1 T01610056
PLAINS      |KS34 281755Z AUTO 00000KT 25SM 08/02 A3006 RMK AO1 T00830022






000
SXUS55 KMSO 281744
OSOMSO
MONTANA AWOS SUMMARY
NATIONAL WEATHER SERVICE MISSOULA MT
1043 AM MST SAT MAR 28 2015

Montana AWOS Reports

LAUREL      |K6S8 281735Z AUTO 18011G19KT 40SM 23/02 A2970 RMK AO1 T02330017
TWIN BRIDGES|K7S1 281735Z AUTO 25020G28KT 40SM 09/M03 A2996 RMK AO1 T00891032
ROUNDUP     |KRPX 281735Z AUTO 22018G26KT 40SM 23/M01 A2959 RMK AO1 T02331005
MALTA       |KM75 281735Z AUTO 00000KT 25SM 17/06 A2952 RMK AO1 T01720056






000
SXUS55 KMSO 281744
OSOMSO
MONTANA AWOS SUMMARY
NATIONAL WEATHER SERVICE MISSOULA MT
1043 AM MST SAT MAR 28 2015

Montana AWOS Reports

LAUREL      |K6S8 281735Z AUTO 18011G19KT 40SM 23/02 A2970 RMK AO1 T02330017
TWIN BRIDGES|K7S1 281735Z AUTO 25020G28KT 40SM 09/M03 A2996 RMK AO1 T00891032
ROUNDUP     |KRPX 281735Z AUTO 22018G26KT 40SM 23/M01 A2959 RMK AO1 T02331005
MALTA       |KM75 281735Z AUTO 00000KT 25SM 17/06 A2952 RMK AO1 T01720056






000
SXUS55 KMSO 281723
OSOMSO
MONTANA AWOS SUMMARY
NATIONAL WEATHER SERVICE MISSOULA MT
1022 AM MST SAT MAR 28 2015

Montana AWOS Reports

LAUREL      |K6S8 281715Z AUTO 15013G24KT 40SM 23/01 A2971 RMK AO1 T02280011
TWIN BRIDGES|K7S1 281715Z AUTO 27023G30KT 40SM 09/M04 A2993 RMK AO1 T00891038
ROUNDUP     |KRPX 281715Z AUTO 21013G18KT 40SM 21/01 A2961 RMK AO1 T02110011






000
SXUS55 KMSO 281713
OSOMSO
MONTANA AWOS SUMMARY
NATIONAL WEATHER SERVICE MISSOULA MT
1013 AM MST SAT MAR 28 2015

Montana AWOS Reports

EKALAKA     |K97M 281655Z AUTO 00000KT 40SM 21/M01 A2976 RMK AO1 T02111010






000
SXUS55 KMSO 281713
OSOMSO
MONTANA AWOS SUMMARY
NATIONAL WEATHER SERVICE MISSOULA MT
1013 AM MST SAT MAR 28 2015

Montana AWOS Reports

EKALAKA     |K97M 281655Z AUTO 00000KT 40SM 21/M01 A2976 RMK AO1 T02111010






000
SXUS55 KMSO 281704
OSOMSO
MONTANA AWOS SUMMARY
NATIONAL WEATHER SERVICE MISSOULA MT
1003 AM MST SAT MAR 28 2015

Montana AWOS Reports

TWIN BRIDGES|K7S1 281655Z AUTO 26022G41KT 25SM 08/M02 A2992 RMK AO1 T00831021
ROUNDUP     |KRPX 281655Z AUTO 21010G14KT 40SM 19/01 A2962 RMK AO1 T01890011
LAUREL      |K6S8 281655Z AUTO 17014G22KT 40SM 22/01 A2972 RMK AO1 T02220006
PLAINS      |KS34 281655Z AUTO 24007KT 25SM 09/02 A3003 RMK AO1 T00940017
SCOBEY      |K9S2 281655Z AUTO 17007KT 40SM 13/04 A2958 RMK AO1 T01280039
MALTA       |KM75 281655Z AUTO 00000KT 40SM 17/04 A2953 RMK AO1 T01670044






000
SXUS55 KMSO 281704
OSOMSO
MONTANA AWOS SUMMARY
NATIONAL WEATHER SERVICE MISSOULA MT
1003 AM MST SAT MAR 28 2015

Montana AWOS Reports

TWIN BRIDGES|K7S1 281655Z AUTO 26022G41KT 25SM 08/M02 A2992 RMK AO1 T00831021
ROUNDUP     |KRPX 281655Z AUTO 21010G14KT 40SM 19/01 A2962 RMK AO1 T01890011
LAUREL      |K6S8 281655Z AUTO 17014G22KT 40SM 22/01 A2972 RMK AO1 T02220006
PLAINS      |KS34 281655Z AUTO 24007KT 25SM 09/02 A3003 RMK AO1 T00940017
SCOBEY      |K9S2 281655Z AUTO 17007KT 40SM 13/04 A2958 RMK AO1 T01280039
MALTA       |KM75 281655Z AUTO 00000KT 40SM 17/04 A2953 RMK AO1 T01670044






000
SXUS55 KMSO 281643
OSOMSO
MONTANA AWOS SUMMARY
NATIONAL WEATHER SERVICE MISSOULA MT
943 AM MST SAT MAR 28 2015

Montana AWOS Reports

LAUREL      |K6S8 281635Z AUTO 20011G16KT 40SM 21/02 A2973 RMK AO1 T02110022
TWIN BRIDGES|K7S1 281635Z AUTO 26035G47KT 15SM 14/01 A2988 RMK AO1 T01390011
ROUNDUP     |KRPX 281635Z AUTO 00000KT 40SM 15/01 A2963 RMK AO1 T01500011






000
SXUS55 KMSO 281624
OSOMSO
MONTANA AWOS SUMMARY
NATIONAL WEATHER SERVICE MISSOULA MT
923 AM MST SAT MAR 28 2015

Montana AWOS Reports

LAUREL      |K6S8 281615Z AUTO 22012G19KT 40SM 19/01 A2974 RMK AO1 T01940011
TWIN BRIDGES|K7S1 281615Z AUTO 17016G21KT 40SM 16/M02 A2983 RMK AO1 T01611021
ROUNDUP     |KRPX 281615Z AUTO 00000KT 40SM 13/01 A2965 RMK AO1 T01330006
MALTA       |KM75 281615Z AUTO 00000KT 40SM 13/04 A2955 RMK AO1 T01330044






000
SXUS55 KMSO 281624
OSOMSO
MONTANA AWOS SUMMARY
NATIONAL WEATHER SERVICE MISSOULA MT
923 AM MST SAT MAR 28 2015

Montana AWOS Reports

LAUREL      |K6S8 281615Z AUTO 22012G19KT 40SM 19/01 A2974 RMK AO1 T01940011
TWIN BRIDGES|K7S1 281615Z AUTO 17016G21KT 40SM 16/M02 A2983 RMK AO1 T01611021
ROUNDUP     |KRPX 281615Z AUTO 00000KT 40SM 13/01 A2965 RMK AO1 T01330006
MALTA       |KM75 281615Z AUTO 00000KT 40SM 13/04 A2955 RMK AO1 T01330044






000
SXUS55 KMSO 281603
OSOMSO
MONTANA AWOS SUMMARY
NATIONAL WEATHER SERVICE MISSOULA MT
903 AM MST SAT MAR 28 2015

Montana AWOS Reports

LAUREL      |K6S8 281555Z AUTO 21010G18KT 40SM 19/01 A2975 RMK AO1 T01890011
TWIN BRIDGES|K7S1 281555Z AUTO 13011G17KT 40SM 14/M01 A2983 RMK AO1 T01441010
ROUNDUP     |KRPX 281555Z AUTO 00000KT 40SM 12/00 A2966 RMK AO1 T01220000
MALTA       |KM75 281555Z AUTO 00000KT 40SM 12/04 A2957 RMK AO1 T01220044
PLAINS      |KS34 281555Z AUTO 18011G19KT 15SM 09/03 A3000 RMK AO1 T00890028
SCOBEY      |K9S2 281555Z AUTO 00000KT 40SM 09/02 A2961 RMK AO1 T00890022
EKALAKA     |K97M 281555Z AUTO 14005KT 40SM 20/M01 A2978 RMK AO1 T02001010






000
SXUS55 KMSO 281603
OSOMSO
MONTANA AWOS SUMMARY
NATIONAL WEATHER SERVICE MISSOULA MT
903 AM MST SAT MAR 28 2015

Montana AWOS Reports

LAUREL      |K6S8 281555Z AUTO 21010G18KT 40SM 19/01 A2975 RMK AO1 T01890011
TWIN BRIDGES|K7S1 281555Z AUTO 13011G17KT 40SM 14/M01 A2983 RMK AO1 T01441010
ROUNDUP     |KRPX 281555Z AUTO 00000KT 40SM 12/00 A2966 RMK AO1 T01220000
MALTA       |KM75 281555Z AUTO 00000KT 40SM 12/04 A2957 RMK AO1 T01220044
PLAINS      |KS34 281555Z AUTO 18011G19KT 15SM 09/03 A3000 RMK AO1 T00890028
SCOBEY      |K9S2 281555Z AUTO 00000KT 40SM 09/02 A2961 RMK AO1 T00890022
EKALAKA     |K97M 281555Z AUTO 14005KT 40SM 20/M01 A2978 RMK AO1 T02001010






000
SXUS55 KMSO 281544
OSOMSO
MONTANA AWOS SUMMARY
NATIONAL WEATHER SERVICE MISSOULA MT
843 AM MST SAT MAR 28 2015

Montana AWOS Reports

TWIN BRIDGES|K7S1 281535Z AUTO 10005KT 40SM 12/M01 A2983 RMK AO1 T01221010
LAUREL      |K6S8 281535Z AUTO 21007KT 40SM 17/00 A2977 RMK AO1 T01670000
ROUNDUP     |KRPX 281535Z AUTO 00000KT 40SM 11/00 A2967 RMK AO1 T01110000






000
SXUS55 KMSO 281544
OSOMSO
MONTANA AWOS SUMMARY
NATIONAL WEATHER SERVICE MISSOULA MT
843 AM MST SAT MAR 28 2015

Montana AWOS Reports

TWIN BRIDGES|K7S1 281535Z AUTO 10005KT 40SM 12/M01 A2983 RMK AO1 T01221010
LAUREL      |K6S8 281535Z AUTO 21007KT 40SM 17/00 A2977 RMK AO1 T01670000
ROUNDUP     |KRPX 281535Z AUTO 00000KT 40SM 11/00 A2967 RMK AO1 T01110000






000
SXUS55 KMSO 281523
OSOMSO
MONTANA AWOS SUMMARY
NATIONAL WEATHER SERVICE MISSOULA MT
823 AM MST SAT MAR 28 2015

Montana AWOS Reports

TWIN BRIDGES|K7S1 281515Z AUTO 11006KT 40SM 12/M02 A2984 RMK AO1 T01221016
ROUNDUP     |KRPX 281515Z AUTO 00000KT 40SM 11/01 A2967 RMK AO1 T01110006
LAUREL      |K6S8 281515Z AUTO 22009G13KT 40SM 16/M01 A2977 RMK AO1 T01561005
MALTA       |KM75 281515Z AUTO 00000KT 40SM 08/03 A2959 RMK AO1 T00780028






000
SXUS55 KMSO 281513
OSOMSO
MONTANA AWOS SUMMARY
NATIONAL WEATHER SERVICE MISSOULA MT
813 AM MST SAT MAR 28 2015

Montana AWOS Reports

SCOBEY      |K9S2 281455Z AUTO 15005KT 40SM 06/01 A2963 RMK AO1 T00610011






000
SXUS55 KMSO 281513
OSOMSO
MONTANA AWOS SUMMARY
NATIONAL WEATHER SERVICE MISSOULA MT
813 AM MST SAT MAR 28 2015

Montana AWOS Reports

SCOBEY      |K9S2 281455Z AUTO 15005KT 40SM 06/01 A2963 RMK AO1 T00610011






000
SXUS55 KMSO 281503
OSOMSO
MONTANA AWOS SUMMARY
NATIONAL WEATHER SERVICE MISSOULA MT
802 AM MST SAT MAR 28 2015

Montana AWOS Reports

TWIN BRIDGES|K7S1 281455Z AUTO 10004KT 40SM 11/M01 A2986 RMK AO1 T01061010
ROUNDUP     |KRPX 281455Z AUTO 19005KT 40SM 11/00 A2968 RMK AO1 T01060000






000
SXUS55 KMSO 281443
OSOMSO
MONTANA AWOS SUMMARY
NATIONAL WEATHER SERVICE MISSOULA MT
743 AM MST SAT MAR 28 2015

Montana AWOS Reports

LAUREL      |K6S8 281435Z AUTO 21011G17KT 40SM 14/00 A2979 RMK AO1 T01390000
TWIN BRIDGES|K7S1 281435Z AUTO 10004KT 40SM 09/M01 A2986 RMK AO1 T00941010
ROUNDUP     |KRPX 281435Z AUTO 20004KT 40SM 09/M01 A2970 RMK AO1 T00891005
MALTA       |KM75 281435Z AUTO 00000KT 40SM 04/01 A2961 RMK AO1 T00390011






000
SXUS55 KMSO 281433
OSOMSO
MONTANA AWOS SUMMARY
NATIONAL WEATHER SERVICE MISSOULA MT
733 AM MST SAT MAR 28 2015

Montana AWOS Reports

LAUREL      |K6S8 281415Z AUTO 22011G16KT 40SM 12/M01 A2980 RMK AO1 T01221005
TWIN BRIDGES|K7S1 281415Z AUTO 00000KT 40SM 08/M01 A2986 RMK AO1 T00831010
ROUNDUP     |KRPX 281415Z AUTO 00000KT 40SM 07/M01 A2970 RMK AO1 T00721010






000
SXUS55 KMSO 281433
OSOMSO
MONTANA AWOS SUMMARY
NATIONAL WEATHER SERVICE MISSOULA MT
733 AM MST SAT MAR 28 2015

Montana AWOS Reports

LAUREL      |K6S8 281415Z AUTO 22011G16KT 40SM 12/M01 A2980 RMK AO1 T01221005
TWIN BRIDGES|K7S1 281415Z AUTO 00000KT 40SM 08/M01 A2986 RMK AO1 T00831010
ROUNDUP     |KRPX 281415Z AUTO 00000KT 40SM 07/M01 A2970 RMK AO1 T00721010






000
SXUS55 KMSO 281414
OSOMSO
MONTANA AWOS SUMMARY
NATIONAL WEATHER SERVICE MISSOULA MT
713 AM MST SAT MAR 28 2015

Montana AWOS Reports

EKALAKA     |K97M 281255Z AUTO 12009KT 40SM 08/M01 A2984 RMK AO1 T00781005
EKALAKA     |K97M 281355Z AUTO 13007KT 40SM 11/M01 A2982 RMK AO1 T01061005
SCOBEY      |K9S2 281355Z AUTO 00000KT 15SM 02/M01 A2967 RMK AO1 T00221010
MALTA       |KM75 281255Z AUTO 00000KT 40SM 01/M03 A2966 RMK AO1 T00061027






000
SXUS55 KMSO 281403
OSOMSO
MONTANA AWOS SUMMARY
NATIONAL WEATHER SERVICE MISSOULA MT
702 AM MST SAT MAR 28 2015

Montana AWOS Reports

TWIN BRIDGES|K7S1 281355Z AUTO 10004KT 40SM 06/M02 A2987 RMK AO1 T00611016
LAUREL      |K6S8 281355Z AUTO 21007KT 40SM 11/M01 A2981 RMK AO1 T01111005
ROUNDUP     |KRPX 281355Z AUTO 20008KT 40SM 06/M02 A2971 RMK AO1 T00611016
MALTA       |KM75 281355Z AUTO 00000KT 40SM 02/M01 A2963 RMK AO1 T00171010
PLAINS      |KS34 281355Z AUTO 20009G14KT 7SM 09/03 A2994 RMK AO1 T00940033






000
SXUS55 KMSO 281403
OSOMSO
MONTANA AWOS SUMMARY
NATIONAL WEATHER SERVICE MISSOULA MT
702 AM MST SAT MAR 28 2015

Montana AWOS Reports

TWIN BRIDGES|K7S1 281355Z AUTO 10004KT 40SM 06/M02 A2987 RMK AO1 T00611016
LAUREL      |K6S8 281355Z AUTO 21007KT 40SM 11/M01 A2981 RMK AO1 T01111005
ROUNDUP     |KRPX 281355Z AUTO 20008KT 40SM 06/M02 A2971 RMK AO1 T00611016
MALTA       |KM75 281355Z AUTO 00000KT 40SM 02/M01 A2963 RMK AO1 T00171010
PLAINS      |KS34 281355Z AUTO 20009G14KT 7SM 09/03 A2994 RMK AO1 T00940033






000
SXUS55 KMSO 281343
OSOMSO
MONTANA AWOS SUMMARY
NATIONAL WEATHER SERVICE MISSOULA MT
643 AM MST SAT MAR 28 2015

Montana AWOS Reports

LAUREL      |K6S8 281335Z AUTO 22005KT 40SM 09/M01 A2982 RMK AO1 T00891010
TWIN BRIDGES|K7S1 281335Z AUTO 10004KT 40SM 04/M02 A2987 RMK AO1 T00441021
ROUNDUP     |KRPX 281335Z AUTO 19010KT 40SM 06/M02 A2971 RMK AO1 T00611016
MALTA       |KM75 281335Z AUTO 00000KT 40SM 01/M02 A2963 RMK AO1 T00111021






000
SXUS55 KMSO 281343
OSOMSO
MONTANA AWOS SUMMARY
NATIONAL WEATHER SERVICE MISSOULA MT
643 AM MST SAT MAR 28 2015

Montana AWOS Reports

LAUREL      |K6S8 281335Z AUTO 22005KT 40SM 09/M01 A2982 RMK AO1 T00891010
TWIN BRIDGES|K7S1 281335Z AUTO 10004KT 40SM 04/M02 A2987 RMK AO1 T00441021
ROUNDUP     |KRPX 281335Z AUTO 19010KT 40SM 06/M02 A2971 RMK AO1 T00611016
MALTA       |KM75 281335Z AUTO 00000KT 40SM 01/M02 A2963 RMK AO1 T00111021






000
SXUS55 KMSO 281333
OSOMSO
MONTANA AWOS SUMMARY
NATIONAL WEATHER SERVICE MISSOULA MT
633 AM MST SAT MAR 28 2015

Montana AWOS Reports

LAUREL      |K6S8 281315Z AUTO 22005KT 40SM 08/M02 A2983 RMK AO1 T00831016






000
SXUS55 KMSO 281323
OSOMSO
MONTANA AWOS SUMMARY
NATIONAL WEATHER SERVICE MISSOULA MT
623 AM MST SAT MAR 28 2015

Montana AWOS Reports

SCOBEY      |K9S2 281255Z AUTO 00000KT 15SM 02/M02 A2969 RMK AO1 T00171021
TWIN BRIDGES|K7S1 281315Z AUTO 11004KT 40SM 04/M03 A2988 RMK AO1 T00441027
ROUNDUP     |KRPX 281315Z AUTO 19007KT 40SM 06/M02 A2972 RMK AO1 T00561016
MALTA       |KM75 281315Z AUTO 00000KT 40SM 01/M02 A2965 RMK AO1 T00111021






000
SXUS55 KMSO 281303
OSOMSO
MONTANA AWOS SUMMARY
NATIONAL WEATHER SERVICE MISSOULA MT
603 AM MST SAT MAR 28 2015

Montana AWOS Reports

TWIN BRIDGES|K7S1 281255Z AUTO 15004KT 40SM 05/M03 A2988 RMK AO1 T00501027
ROUNDUP     |KRPX 281255Z AUTO 19009G14KT 40SM 06/M02 A2973 RMK AO1 T00561016
MALTA       |KM75 281255Z AUTO 00000KT 40SM 01/M03 A2966 RMK AO1 T00061027
PLAINS      |KS34 281255Z AUTO 00000KT 10SM 10/05 A2990 RMK AO1 T01000050
LAUREL      |K6S8 281255Z AUTO 00000KT 40SM 07/M02 A2983 RMK AO1 T00721016






000
SXUS55 KMSO 281303
OSOMSO
MONTANA AWOS SUMMARY
NATIONAL WEATHER SERVICE MISSOULA MT
603 AM MST SAT MAR 28 2015

Montana AWOS Reports

TWIN BRIDGES|K7S1 281255Z AUTO 15004KT 40SM 05/M03 A2988 RMK AO1 T00501027
ROUNDUP     |KRPX 281255Z AUTO 19009G14KT 40SM 06/M02 A2973 RMK AO1 T00561016
MALTA       |KM75 281255Z AUTO 00000KT 40SM 01/M03 A2966 RMK AO1 T00061027
PLAINS      |KS34 281255Z AUTO 00000KT 10SM 10/05 A2990 RMK AO1 T01000050
LAUREL      |K6S8 281255Z AUTO 00000KT 40SM 07/M02 A2983 RMK AO1 T00721016






000
SXUS55 KMSO 281253
OSOMSO
MONTANA AWOS SUMMARY
NATIONAL WEATHER SERVICE MISSOULA MT
552 AM MST SAT MAR 28 2015

Montana AWOS Reports

EKALAKA     |K97M 281155Z AUTO 12009G14KT 40SM 07/00 A2984 RMK AO1 T00670000






000
SXUS55 KMSO 281253
OSOMSO
MONTANA AWOS SUMMARY
NATIONAL WEATHER SERVICE MISSOULA MT
552 AM MST SAT MAR 28 2015

Montana AWOS Reports

EKALAKA     |K97M 281155Z AUTO 12009G14KT 40SM 07/00 A2984 RMK AO1 T00670000






000
SXUS55 KMSO 281243
OSOMSO
MONTANA AWOS SUMMARY
NATIONAL WEATHER SERVICE MISSOULA MT
543 AM MST SAT MAR 28 2015

Montana AWOS Reports

TWIN BRIDGES|K7S1 281235Z AUTO 11005KT 40SM 07/M02 A2988 RMK AO1 T00721021
LAUREL      |K6S8 281235Z AUTO 00000KT 40SM 06/M02 A2984 RMK AO1 T00611021
ROUNDUP     |KRPX 281235Z AUTO 20011KT 40SM 06/M02 A2974 RMK AO1 T00561016
MALTA       |KM75 281235Z AUTO 00000KT 40SM 01/M02 A2967 RMK AO1 T00111021






000
SXUS55 KMSO 281243
OSOMSO
MONTANA AWOS SUMMARY
NATIONAL WEATHER SERVICE MISSOULA MT
543 AM MST SAT MAR 28 2015

Montana AWOS Reports

TWIN BRIDGES|K7S1 281235Z AUTO 11005KT 40SM 07/M02 A2988 RMK AO1 T00721021
LAUREL      |K6S8 281235Z AUTO 00000KT 40SM 06/M02 A2984 RMK AO1 T00611021
ROUNDUP     |KRPX 281235Z AUTO 20011KT 40SM 06/M02 A2974 RMK AO1 T00561016
MALTA       |KM75 281235Z AUTO 00000KT 40SM 01/M02 A2967 RMK AO1 T00111021






000
SXUS55 KMSO 281224
OSOMSO
MONTANA AWOS SUMMARY
NATIONAL WEATHER SERVICE MISSOULA MT
523 AM MST SAT MAR 28 2015

Montana AWOS Reports

LAUREL      |K6S8 281215Z AUTO 00000KT 40SM 07/M01 A2984 RMK AO1 T00671010
ROUNDUP     |KRPX 281215Z AUTO 19011KT 40SM 06/M02 A2974 RMK AO1 T00561021
MALTA       |KM75 281215Z AUTO 00000KT 40SM 02/M01 A2967 RMK AO1 T00221010






000
SXUS55 KMSO 281224
OSOMSO
MONTANA AWOS SUMMARY
NATIONAL WEATHER SERVICE MISSOULA MT
523 AM MST SAT MAR 28 2015

Montana AWOS Reports

LAUREL      |K6S8 281215Z AUTO 00000KT 40SM 07/M01 A2984 RMK AO1 T00671010
ROUNDUP     |KRPX 281215Z AUTO 19011KT 40SM 06/M02 A2974 RMK AO1 T00561021
MALTA       |KM75 281215Z AUTO 00000KT 40SM 02/M01 A2967 RMK AO1 T00221010






000
SXUS55 KMSO 281203
OSOMSO
MONTANA AWOS SUMMARY
NATIONAL WEATHER SERVICE MISSOULA MT
503 AM MST SAT MAR 28 2015

Montana AWOS Reports

LAUREL      |K6S8 281155Z AUTO 21005KT 40SM 08/M01 A2985 RMK AO1 T00781010
TWIN BRIDGES|K7S1 281155Z AUTO 11007KT 40SM 08/M02 A2990 RMK AO1 T00781016
ROUNDUP     |KRPX 281155Z AUTO 20007KT 40SM 06/M02 A2975 RMK AO1 T00611021
SCOBEY      |K9S2 281155Z AUTO 00000KT 15SM 02/M02 A2972 RMK AO1 T00171021
PLAINS      |KS34 281155Z AUTO 00000KT 25SM 09/07 A2987 RMK AO1 T00940067






000
SXUS55 KMSO 281203
OSOMSO
MONTANA AWOS SUMMARY
NATIONAL WEATHER SERVICE MISSOULA MT
503 AM MST SAT MAR 28 2015

Montana AWOS Reports

LAUREL      |K6S8 281155Z AUTO 21005KT 40SM 08/M01 A2985 RMK AO1 T00781010
TWIN BRIDGES|K7S1 281155Z AUTO 11007KT 40SM 08/M02 A2990 RMK AO1 T00781016
ROUNDUP     |KRPX 281155Z AUTO 20007KT 40SM 06/M02 A2975 RMK AO1 T00611021
SCOBEY      |K9S2 281155Z AUTO 00000KT 15SM 02/M02 A2972 RMK AO1 T00171021
PLAINS      |KS34 281155Z AUTO 00000KT 25SM 09/07 A2987 RMK AO1 T00940067






000
SXUS55 KMSO 281153
OSOMSO
MONTANA AWOS SUMMARY
NATIONAL WEATHER SERVICE MISSOULA MT
452 AM MST SAT MAR 28 2015

Montana AWOS Reports

LAUREL      |K6S8 281135Z AUTO 21004KT 40SM 11/M01 A2985 RMK AO1 T01061005
TWIN BRIDGES|K7S1 281135Z AUTO 10007KT 40SM 08/M02 A2990 RMK AO1 T00781016
ROUNDUP     |KRPX 281135Z AUTO 20008KT 40SM 06/M03 A2975 RMK AO1 T00611027






000
SXUS55 KMSO 281153
OSOMSO
MONTANA AWOS SUMMARY
NATIONAL WEATHER SERVICE MISSOULA MT
452 AM MST SAT MAR 28 2015

Montana AWOS Reports

LAUREL      |K6S8 281135Z AUTO 21004KT 40SM 11/M01 A2985 RMK AO1 T01061005
TWIN BRIDGES|K7S1 281135Z AUTO 10007KT 40SM 08/M02 A2990 RMK AO1 T00781016
ROUNDUP     |KRPX 281135Z AUTO 20008KT 40SM 06/M03 A2975 RMK AO1 T00611027






000
SXUS55 KMSO 281123
OSOMSO
MONTANA AWOS SUMMARY
NATIONAL WEATHER SERVICE MISSOULA MT
422 AM MST SAT MAR 28 2015

Montana AWOS Reports

LAUREL      |K6S8 281115Z AUTO 22007KT 40SM 11/M01 A2985 RMK AO1 T01111010
TWIN BRIDGES|K7S1 281115Z AUTO 14005KT 40SM 06/M02 A2991 RMK AO1 T00611016
ROUNDUP     |KRPX 281115Z AUTO 20007KT 40SM 06/M03 A2976 RMK AO1 T00561027
MALTA       |KM75 281115Z AUTO 00000KT 40SM 02/M02 A2969 RMK AO1 T00221016






000
SXUS55 KMSO 281123
OSOMSO
MONTANA AWOS SUMMARY
NATIONAL WEATHER SERVICE MISSOULA MT
422 AM MST SAT MAR 28 2015

Montana AWOS Reports

LAUREL      |K6S8 281115Z AUTO 22007KT 40SM 11/M01 A2985 RMK AO1 T01111010
TWIN BRIDGES|K7S1 281115Z AUTO 14005KT 40SM 06/M02 A2991 RMK AO1 T00611016
ROUNDUP     |KRPX 281115Z AUTO 20007KT 40SM 06/M03 A2976 RMK AO1 T00561027
MALTA       |KM75 281115Z AUTO 00000KT 40SM 02/M02 A2969 RMK AO1 T00221016






000
SXUS55 KMSO 281113
OSOMSO
MONTANA AWOS SUMMARY
NATIONAL WEATHER SERVICE MISSOULA MT
413 AM MST SAT MAR 28 2015

Montana AWOS Reports

EKALAKA     |K97M 281055Z AUTO 12007KT 40SM 06/00 A2986 RMK AO1 T00560000






000
SXUS55 KMSO 281113
OSOMSO
MONTANA AWOS SUMMARY
NATIONAL WEATHER SERVICE MISSOULA MT
413 AM MST SAT MAR 28 2015

Montana AWOS Reports

EKALAKA     |K97M 281055Z AUTO 12007KT 40SM 06/00 A2986 RMK AO1 T00560000






000
SXUS55 KMSO 281103
OSOMSO
MONTANA AWOS SUMMARY
NATIONAL WEATHER SERVICE MISSOULA MT
403 AM MST SAT MAR 28 2015

Montana AWOS Reports

LAUREL      |K6S8 281055Z AUTO 22007KT 40SM 10/M01 A2986 RMK AO1 T01001005
TWIN BRIDGES|K7S1 281055Z AUTO 10007KT 40SM 07/M01 A2991 RMK AO1 T00721010
ROUNDUP     |KRPX 281055Z AUTO 21005KT 40SM 04/M03 A2976 RMK AO1 T00441032
MALTA       |KM75 281055Z AUTO 00000KT 40SM 02/M02 A2969 RMK AO1 T00221016
SCOBEY      |K9S2 281055Z AUTO 14006KT 15SM 02/M02 A2974 RMK AO1 T00171021
PLAINS      |KS34 281055Z AUTO 00000KT 15SM 08/05 A2984 RMK AO1 T00830050






000
SXUS55 KMSO 281103
OSOMSO
MONTANA AWOS SUMMARY
NATIONAL WEATHER SERVICE MISSOULA MT
403 AM MST SAT MAR 28 2015

Montana AWOS Reports

LAUREL      |K6S8 281055Z AUTO 22007KT 40SM 10/M01 A2986 RMK AO1 T01001005
TWIN BRIDGES|K7S1 281055Z AUTO 10007KT 40SM 07/M01 A2991 RMK AO1 T00721010
ROUNDUP     |KRPX 281055Z AUTO 21005KT 40SM 04/M03 A2976 RMK AO1 T00441032
MALTA       |KM75 281055Z AUTO 00000KT 40SM 02/M02 A2969 RMK AO1 T00221016
SCOBEY      |K9S2 281055Z AUTO 14006KT 15SM 02/M02 A2974 RMK AO1 T00171021
PLAINS      |KS34 281055Z AUTO 00000KT 15SM 08/05 A2984 RMK AO1 T00830050






000
SXUS55 KMSO 281043
OSOMSO
MONTANA AWOS SUMMARY
NATIONAL WEATHER SERVICE MISSOULA MT
342 AM MST SAT MAR 28 2015

Montana AWOS Reports

TWIN BRIDGES|K7S1 281035Z AUTO 12010G14KT 40SM 06/M01 A2992 RMK AO1 T00611010
ROUNDUP     |KRPX 281035Z AUTO 00000KT 40SM 05/M04 A2977 RMK AO1 T00501038
LAUREL      |K6S8 281035Z AUTO 21005KT 40SM 08/M01 A2986 RMK AO1 T00831005
MALTA       |KM75 281035Z AUTO 00000KT 40SM 02/M02 A2970 RMK AO1 T00221016






000
SXUS55 KMSO 281023
OSOMSO
MONTANA AWOS SUMMARY
NATIONAL WEATHER SERVICE MISSOULA MT
323 AM MST SAT MAR 28 2015

Montana AWOS Reports

LAUREL      |K6S8 281015Z AUTO 00000KT 40SM 07/M01 A2987 RMK AO1 T00671010
ROUNDUP     |KRPX 281015Z AUTO 00000KT 40SM 06/M04 A2977 RMK AO1 T00561043
MALTA       |KM75 281015Z AUTO 00000KT 40SM 02/M02 A2971 RMK AO1 T00221016






000
SXUS55 KMSO 281023
OSOMSO
MONTANA AWOS SUMMARY
NATIONAL WEATHER SERVICE MISSOULA MT
323 AM MST SAT MAR 28 2015

Montana AWOS Reports

LAUREL      |K6S8 281015Z AUTO 00000KT 40SM 07/M01 A2987 RMK AO1 T00671010
ROUNDUP     |KRPX 281015Z AUTO 00000KT 40SM 06/M04 A2977 RMK AO1 T00561043
MALTA       |KM75 281015Z AUTO 00000KT 40SM 02/M02 A2971 RMK AO1 T00221016






000
SXUS55 KMSO 281013
OSOMSO
MONTANA AWOS SUMMARY
NATIONAL WEATHER SERVICE MISSOULA MT
313 AM MST SAT MAR 28 2015

Montana AWOS Reports

SCOBEY      |K9S2 280955Z AUTO 14004KT 25SM 02/M01 A2977 RMK AO1 T00221010






000
SXUS55 KMSO 281013
OSOMSO
MONTANA AWOS SUMMARY
NATIONAL WEATHER SERVICE MISSOULA MT
313 AM MST SAT MAR 28 2015

Montana AWOS Reports

SCOBEY      |K9S2 280955Z AUTO 14004KT 25SM 02/M01 A2977 RMK AO1 T00221010






000
SXUS55 KMSO 281003
OSOMSO
MONTANA AWOS SUMMARY
NATIONAL WEATHER SERVICE MISSOULA MT
303 AM MST SAT MAR 28 2015

Montana AWOS Reports

TWIN BRIDGES|K7S1 280955Z AUTO 00000KT 40SM 04/M03 A2994 RMK AO1 T00391027
ROUNDUP     |KRPX 280955Z AUTO 00000KT 40SM 05/M04 A2978 RMK AO1 T00501043
PLAINS      |KS34 280955Z AUTO 00000KT 25SM 09/06 A2982 RMK AO1 T00890056
LAUREL      |K6S8 280955Z AUTO 00000KT 40SM 07/M01 A2987 RMK AO1 T00721005
MALTA       |KM75 280955Z AUTO 00000KT 40SM 03/M01 A2972 RMK AO1 T00281010
EKALAKA     |K97M 280955Z AUTO 12009G13KT 40SM 06/00 A2987 RMK AO1 T00560000






000
SXUS55 KMSO 281003
OSOMSO
MONTANA AWOS SUMMARY
NATIONAL WEATHER SERVICE MISSOULA MT
303 AM MST SAT MAR 28 2015

Montana AWOS Reports

TWIN BRIDGES|K7S1 280955Z AUTO 00000KT 40SM 04/M03 A2994 RMK AO1 T00391027
ROUNDUP     |KRPX 280955Z AUTO 00000KT 40SM 05/M04 A2978 RMK AO1 T00501043
PLAINS      |KS34 280955Z AUTO 00000KT 25SM 09/06 A2982 RMK AO1 T00890056
LAUREL      |K6S8 280955Z AUTO 00000KT 40SM 07/M01 A2987 RMK AO1 T00721005
MALTA       |KM75 280955Z AUTO 00000KT 40SM 03/M01 A2972 RMK AO1 T00281010
EKALAKA     |K97M 280955Z AUTO 12009G13KT 40SM 06/00 A2987 RMK AO1 T00560000






000
SXUS55 KMSO 280943
OSOMSO
MONTANA AWOS SUMMARY
NATIONAL WEATHER SERVICE MISSOULA MT
243 AM MST SAT MAR 28 2015

Montana AWOS Reports

TWIN BRIDGES|K7S1 280935Z AUTO 00000KT 40SM 04/M03 A2995 RMK AO1 T00441027
LAUREL      |K6S8 280935Z AUTO 00000KT 40SM 08/M01 A2988 RMK AO1 T00831010
ROUNDUP     |KRPX 280935Z AUTO 00000KT 40SM 05/M04 A2979 RMK AO1 T00501043
MALTA       |KM75 280935Z AUTO 00000KT 40SM 03/M01 A2972 RMK AO1 T00281010






000
SXUS55 KMSO 280943
OSOMSO
MONTANA AWOS SUMMARY
NATIONAL WEATHER SERVICE MISSOULA MT
243 AM MST SAT MAR 28 2015

Montana AWOS Reports

TWIN BRIDGES|K7S1 280935Z AUTO 00000KT 40SM 04/M03 A2995 RMK AO1 T00441027
LAUREL      |K6S8 280935Z AUTO 00000KT 40SM 08/M01 A2988 RMK AO1 T00831010
ROUNDUP     |KRPX 280935Z AUTO 00000KT 40SM 05/M04 A2979 RMK AO1 T00501043
MALTA       |KM75 280935Z AUTO 00000KT 40SM 03/M01 A2972 RMK AO1 T00281010






000
SXUS55 KMSO 280923
OSOMSO
MONTANA AWOS SUMMARY
NATIONAL WEATHER SERVICE MISSOULA MT
223 AM MST SAT MAR 28 2015

Montana AWOS Reports

LAUREL      |K6S8 280915Z AUTO 00000KT 40SM 09/M01 A2989 RMK AO1 T00941010
TWIN BRIDGES|K7S1 280915Z AUTO 00000KT 40SM 06/M02 A2996 RMK AO1 T00561021
ROUNDUP     |KRPX 280915Z AUTO 00000KT 40SM 06/M04 A2980 RMK AO1 T00561043
MALTA       |KM75 280915Z AUTO 00000KT 40SM 03/M01 A2973 RMK AO1 T00281010






000
SXUS55 KMSO 280923
OSOMSO
MONTANA AWOS SUMMARY
NATIONAL WEATHER SERVICE MISSOULA MT
223 AM MST SAT MAR 28 2015

Montana AWOS Reports

LAUREL      |K6S8 280915Z AUTO 00000KT 40SM 09/M01 A2989 RMK AO1 T00941010
TWIN BRIDGES|K7S1 280915Z AUTO 00000KT 40SM 06/M02 A2996 RMK AO1 T00561021
ROUNDUP     |KRPX 280915Z AUTO 00000KT 40SM 06/M04 A2980 RMK AO1 T00561043
MALTA       |KM75 280915Z AUTO 00000KT 40SM 03/M01 A2973 RMK AO1 T00281010






000
SXUS55 KMSO 280913
OSOMSO
MONTANA AWOS SUMMARY
NATIONAL WEATHER SERVICE MISSOULA MT
213 AM MST SAT MAR 28 2015

Montana AWOS Reports

TWIN BRIDGES|K7S1 280855Z AUTO VRB04KT 40SM 10/M02 A2996 RMK AO1 T01001016
SCOBEY      |K9S2 280855Z AUTO 13006KT 40SM 04/M01 A2980 RMK AO1 T00391005
PLAINS      |KS34 280855Z AUTO 00000KT 40SM 09/05 A2985 RMK AO1 T00890050
EKALAKA     |K97M 280855Z AUTO 12007KT 40SM 08/01 A2989 RMK AO1 T00780006






000
SXUS55 KMSO 280913
OSOMSO
MONTANA AWOS SUMMARY
NATIONAL WEATHER SERVICE MISSOULA MT
213 AM MST SAT MAR 28 2015

Montana AWOS Reports

TWIN BRIDGES|K7S1 280855Z AUTO VRB04KT 40SM 10/M02 A2996 RMK AO1 T01001016
SCOBEY      |K9S2 280855Z AUTO 13006KT 40SM 04/M01 A2980 RMK AO1 T00391005
PLAINS      |KS34 280855Z AUTO 00000KT 40SM 09/05 A2985 RMK AO1 T00890050
EKALAKA     |K97M 280855Z AUTO 12007KT 40SM 08/01 A2989 RMK AO1 T00780006






000
SXUS55 KMSO 280903
OSOMSO
MONTANA AWOS SUMMARY
NATIONAL WEATHER SERVICE MISSOULA MT
203 AM MST SAT MAR 28 2015

Montana AWOS Reports

LAUREL      |K6S8 280855Z AUTO 00000KT 40SM 09/M01 A2989 RMK AO1 T00941010
ROUNDUP     |KRPX 280855Z AUTO 00000KT 40SM 06/M04 A2980 RMK AO1 T00611043
MALTA       |KM75 280855Z AUTO 00000KT 40SM 03/M01 A2974 RMK AO1 T00281010






000
SXUS55 KMSO 280843
OSOMSO
MONTANA AWOS SUMMARY
NATIONAL WEATHER SERVICE MISSOULA MT
143 AM MST SAT MAR 28 2015

Montana AWOS Reports

LAUREL      |K6S8 280835Z AUTO 00000KT 40SM 08/M01 A2990 RMK AO1 T00831005
TWIN BRIDGES|K7S1 280835Z AUTO 11007KT 40SM 10/M01 A2997 RMK AO1 T01001010
ROUNDUP     |KRPX 280835Z AUTO 00000KT 40SM 05/M04 A2982 RMK AO1 T00501043
MALTA       |KM75 280835Z AUTO 00000KT 40SM 02/M02 A2975 RMK AO1 T00221016






000
SXUS55 KMSO 280843
OSOMSO
MONTANA AWOS SUMMARY
NATIONAL WEATHER SERVICE MISSOULA MT
143 AM MST SAT MAR 28 2015

Montana AWOS Reports

LAUREL      |K6S8 280835Z AUTO 00000KT 40SM 08/M01 A2990 RMK AO1 T00831005
TWIN BRIDGES|K7S1 280835Z AUTO 11007KT 40SM 10/M01 A2997 RMK AO1 T01001010
ROUNDUP     |KRPX 280835Z AUTO 00000KT 40SM 05/M04 A2982 RMK AO1 T00501043
MALTA       |KM75 280835Z AUTO 00000KT 40SM 02/M02 A2975 RMK AO1 T00221016






000
SXUS55 KMSO 280833
OSOMSO
MONTANA AWOS SUMMARY
NATIONAL WEATHER SERVICE MISSOULA MT
133 AM MST SAT MAR 28 2015

Montana AWOS Reports

LAUREL      |K6S8 280815Z AUTO 00000KT 40SM 09/M01 A2991 RMK AO1 T00891010






000
SXUS55 KMSO 280823
OSOMSO
MONTANA AWOS SUMMARY
NATIONAL WEATHER SERVICE MISSOULA MT
123 AM MST SAT MAR 28 2015

Montana AWOS Reports

MALTA       |KM75 280755Z AUTO 00000KT 40SM 03/M02 A2977 RMK AO1 T00281016
TWIN BRIDGES|K7S1 280815Z AUTO 10007KT 40SM 10/M02 A2998 RMK AO1 T01001016
ROUNDUP     |KRPX 280815Z AUTO 00000KT 40SM 06/M04 A2982 RMK AO1 T00611043






000
SXUS55 KMSO 280803
OSOMSO
MONTANA AWOS SUMMARY
NATIONAL WEATHER SERVICE MISSOULA MT
103 AM MST SAT MAR 28 2015

Montana AWOS Reports

TWIN BRIDGES|K7S1 280755Z AUTO 10006KT 40SM 10/M02 A2998 RMK AO1 T01001016
ROUNDUP     |KRPX 280755Z AUTO 21005KT 40SM 07/M04 A2983 RMK AO1 T00671043
SCOBEY      |K9S2 280755Z AUTO 13011G16KT 40SM 06/01 A2983 RMK AO1 T00560006
PLAINS      |KS34 280755Z AUTO 00000KT 25SM 06/03 A2984 RMK AO1 T00610028
LAUREL      |K6S8 280755Z AUTO 00000KT 40SM 10/M02 A2991 RMK AO1 T01001016
EKALAKA     |K97M 280755Z AUTO 13006KT 40SM 08/01 A2990 RMK AO1 T00830006
MALTA       |KM75 280655Z AUTO 00000KT 40SM 03/M02 A2980 RMK AO1 T00331016






000
SXUS55 KMSO 280803
OSOMSO
MONTANA AWOS SUMMARY
NATIONAL WEATHER SERVICE MISSOULA MT
103 AM MST SAT MAR 28 2015

Montana AWOS Reports

TWIN BRIDGES|K7S1 280755Z AUTO 10006KT 40SM 10/M02 A2998 RMK AO1 T01001016
ROUNDUP     |KRPX 280755Z AUTO 21005KT 40SM 07/M04 A2983 RMK AO1 T00671043
SCOBEY      |K9S2 280755Z AUTO 13011G16KT 40SM 06/01 A2983 RMK AO1 T00560006
PLAINS      |KS34 280755Z AUTO 00000KT 25SM 06/03 A2984 RMK AO1 T00610028
LAUREL      |K6S8 280755Z AUTO 00000KT 40SM 10/M02 A2991 RMK AO1 T01001016
EKALAKA     |K97M 280755Z AUTO 13006KT 40SM 08/01 A2990 RMK AO1 T00830006
MALTA       |KM75 280655Z AUTO 00000KT 40SM 03/M02 A2980 RMK AO1 T00331016






000
SXUS55 KMSO 280744
OSOMSO
MONTANA AWOS SUMMARY
NATIONAL WEATHER SERVICE MISSOULA MT
1243 AM MST SAT MAR 28 2015

Montana AWOS Reports

LAUREL      |K6S8 280735Z AUTO 00000KT 40SM 11/M01 A2992 RMK AO1 T01111010
TWIN BRIDGES|K7S1 280735Z AUTO 08008KT 40SM 08/M02 A2999 RMK AO1 T00831016
ROUNDUP     |KRPX 280735Z AUTO 21008KT 40SM 07/M04 A2983 RMK AO1 T00671043






000
SXUS55 KMSO 280723
OSOMSO
MONTANA AWOS SUMMARY
NATIONAL WEATHER SERVICE MISSOULA MT
1223 AM MST SAT MAR 28 2015

Montana AWOS Reports

TWIN BRIDGES|K7S1 280715Z AUTO 09006KT 40SM 08/M02 A3000 RMK AO1 T00831016
ROUNDUP     |KRPX 280715Z AUTO 19005KT 40SM 07/M04 A2984 RMK AO1 T00721038
LAUREL      |K6S8 280715Z AUTO 00000KT 40SM 08/M01 A2993 RMK AO1 T00831010
MALTA       |KM75 280715Z AUTO 00000KT 40SM 03/M02 A2979 RMK AO1 T00331016






000
SXUS55 KMSO 280703
OSOMSO
MONTANA AWOS SUMMARY
NATIONAL WEATHER SERVICE MISSOULA MT
1203 AM MST SAT MAR 28 2015

Montana AWOS Reports

LAUREL      |K6S8 280655Z AUTO 00000KT 40SM 11/M01 A2993 RMK AO1 T01111005
TWIN BRIDGES|K7S1 280655Z AUTO 09006KT 40SM 08/M02 A3000 RMK AO1 T00781016
ROUNDUP     |KRPX 280655Z AUTO 19006KT 40SM 08/M04 A2984 RMK AO1 T00781038
MALTA       |KM75 280655Z AUTO 00000KT 40SM 03/M02 A2980 RMK AO1 T00331016
SCOBEY      |K9S2 280655Z AUTO 13006KT 40SM 04/00 A2986 RMK AO1 T00440000
EKALAKA     |K97M 280655Z AUTO 13004KT 40SM 09/00 A2991 RMK AO1 T00890000
PLAINS      |KS34 280655Z AUTO 00000KT 25SM 07/03 A2986 RMK AO1 T00670028






000
SXUS55 KMSO 280653
OSOMSO
MONTANA AWOS SUMMARY
NATIONAL WEATHER SERVICE MISSOULA MT
1152 PM MST FRI MAR 27 2015

Montana AWOS Reports

EKALAKA     |K97M 280555Z AUTO 13005KT 40SM 07/00 A2992 RMK AO1 T00720000






000
SXUS55 KMSO 280644
OSOMSO
MONTANA AWOS SUMMARY
NATIONAL WEATHER SERVICE MISSOULA MT
1143 PM MST FRI MAR 27 2015

Montana AWOS Reports

LAUREL      |K6S8 280635Z AUTO 27004KT 40SM 09/M01 A2994 RMK AO1 T00891005
TWIN BRIDGES|K7S1 280635Z AUTO 09005KT 40SM 07/M02 A3001 RMK AO1 T00721016
ROUNDUP     |KRPX 280635Z AUTO 19005KT 40SM 08/M04 A2985 RMK AO1 T00781043






000
SXUS55 KMSO 280633
OSOMSO
MONTANA AWOS SUMMARY
NATIONAL WEATHER SERVICE MISSOULA MT
1132 PM MST FRI MAR 27 2015

Montana AWOS Reports

MALTA       |KM75 280555Z AUTO 00000KT 40SM 06/01 A2982 RMK AO1 T00610006






000
SXUS55 KMSO 280633
OSOMSO
MONTANA AWOS SUMMARY
NATIONAL WEATHER SERVICE MISSOULA MT
1132 PM MST FRI MAR 27 2015

Montana AWOS Reports

MALTA       |KM75 280555Z AUTO 00000KT 40SM 06/01 A2982 RMK AO1 T00610006






000
SXUS55 KMSO 280623
OSOMSO
MONTANA AWOS SUMMARY
NATIONAL WEATHER SERVICE MISSOULA MT
1122 PM MST FRI MAR 27 2015

Montana AWOS Reports

LAUREL      |K6S8 280615Z AUTO 00000KT 40SM 11/M01 A2994 RMK AO1 T01111010
ROUNDUP     |KRPX 280615Z AUTO 19007KT 40SM 09/M03 A2985 RMK AO1 T00891032
MALTA       |KM75 280615Z AUTO 00000KT 40SM 06/M01 A2981 RMK AO1 T00561005
TWIN BRIDGES|K7S1 280615Z AUTO 10005KT 40SM 07/M02 A3001 RMK AO1 T00721016






000
SXUS55 KMSO 280623
OSOMSO
MONTANA AWOS SUMMARY
NATIONAL WEATHER SERVICE MISSOULA MT
1122 PM MST FRI MAR 27 2015

Montana AWOS Reports

LAUREL      |K6S8 280615Z AUTO 00000KT 40SM 11/M01 A2994 RMK AO1 T01111010
ROUNDUP     |KRPX 280615Z AUTO 19007KT 40SM 09/M03 A2985 RMK AO1 T00891032
MALTA       |KM75 280615Z AUTO 00000KT 40SM 06/M01 A2981 RMK AO1 T00561005
TWIN BRIDGES|K7S1 280615Z AUTO 10005KT 40SM 07/M02 A3001 RMK AO1 T00721016






000
SXUS55 KMSO 280604
OSOMSO
MONTANA AWOS SUMMARY
NATIONAL WEATHER SERVICE MISSOULA MT
1103 PM MST FRI MAR 27 2015

Montana AWOS Reports

ROUNDUP     |KRPX 280555Z AUTO 00000KT 40SM 09/M04 A2986 RMK AO1 T00941038
PLAINS      |KS34 280555Z AUTO 00000KT 40SM 08/03 A2990 RMK AO1 T00780033
LAUREL      |K6S8 280555Z AUTO 00000KT 40SM 12/M02 A2995 RMK AO1 T01221016
TWIN BRIDGES|K7S1 280555Z AUTO 00000KT 40SM 08/M02 A3001 RMK AO1 T00781016






000
SXUS55 KMSO 280604
OSOMSO
MONTANA AWOS SUMMARY
NATIONAL WEATHER SERVICE MISSOULA MT
1103 PM MST FRI MAR 27 2015

Montana AWOS Reports

ROUNDUP     |KRPX 280555Z AUTO 00000KT 40SM 09/M04 A2986 RMK AO1 T00941038
PLAINS      |KS34 280555Z AUTO 00000KT 40SM 08/03 A2990 RMK AO1 T00780033
LAUREL      |K6S8 280555Z AUTO 00000KT 40SM 12/M02 A2995 RMK AO1 T01221016
TWIN BRIDGES|K7S1 280555Z AUTO 00000KT 40SM 08/M02 A3001 RMK AO1 T00781016






000
SXUS55 KMSO 280553
OSOMSO
MONTANA AWOS SUMMARY
NATIONAL WEATHER SERVICE MISSOULA MT
1053 PM MST FRI MAR 27 2015

Montana AWOS Reports

EKALAKA     |K97M 280455Z AUTO 13004KT 40SM 08/00 A2993 RMK AO1 T00780000






000
SXUS55 KMSO 280553
OSOMSO
MONTANA AWOS SUMMARY
NATIONAL WEATHER SERVICE MISSOULA MT
1053 PM MST FRI MAR 27 2015

Montana AWOS Reports

EKALAKA     |K97M 280455Z AUTO 13004KT 40SM 08/00 A2993 RMK AO1 T00780000






000
SXUS55 KMSO 280543
OSOMSO
MONTANA AWOS SUMMARY
NATIONAL WEATHER SERVICE MISSOULA MT
1043 PM MST FRI MAR 27 2015

Montana AWOS Reports

TWIN BRIDGES|K7S1 280535Z AUTO 00000KT 40SM 08/M02 A3002 RMK AO1 T00831016
ROUNDUP     |KRPX 280535Z AUTO 00000KT 40SM 09/M04 A2986 RMK AO1 T00941038
MALTA       |KM75 280535Z AUTO 00000KT 40SM 06/00 A2982 RMK AO1 T00560000
LAUREL      |K6S8 280535Z AUTO 00000KT 40SM 13/M01 A2995 RMK AO1 T01331010






000
SXUS55 KMSO 280543
OSOMSO
MONTANA AWOS SUMMARY
NATIONAL WEATHER SERVICE MISSOULA MT
1043 PM MST FRI MAR 27 2015

Montana AWOS Reports

TWIN BRIDGES|K7S1 280535Z AUTO 00000KT 40SM 08/M02 A3002 RMK AO1 T00831016
ROUNDUP     |KRPX 280535Z AUTO 00000KT 40SM 09/M04 A2986 RMK AO1 T00941038
MALTA       |KM75 280535Z AUTO 00000KT 40SM 06/00 A2982 RMK AO1 T00560000
LAUREL      |K6S8 280535Z AUTO 00000KT 40SM 13/M01 A2995 RMK AO1 T01331010






000
SXUS55 KMSO 280523
OSOMSO
MONTANA AWOS SUMMARY
NATIONAL WEATHER SERVICE MISSOULA MT
1023 PM MST FRI MAR 27 2015

Montana AWOS Reports

TWIN BRIDGES|K7S1 280515Z AUTO 00000KT 40SM 08/M03 A3002 RMK AO1 T00781027
ROUNDUP     |KRPX 280515Z AUTO 21004KT 40SM 10/M04 A2986 RMK AO1 T01001038
MALTA       |KM75 280515Z AUTO 00000KT 40SM 06/00 A2982 RMK AO1 T00560000
LAUREL      |K6S8 280515Z AUTO 00000KT 40SM 13/M01 A2995 RMK AO1 T01331010






000
SXUS55 KMSO 280523
OSOMSO
MONTANA AWOS SUMMARY
NATIONAL WEATHER SERVICE MISSOULA MT
1023 PM MST FRI MAR 27 2015

Montana AWOS Reports

TWIN BRIDGES|K7S1 280515Z AUTO 00000KT 40SM 08/M03 A3002 RMK AO1 T00781027
ROUNDUP     |KRPX 280515Z AUTO 21004KT 40SM 10/M04 A2986 RMK AO1 T01001038
MALTA       |KM75 280515Z AUTO 00000KT 40SM 06/00 A2982 RMK AO1 T00560000
LAUREL      |K6S8 280515Z AUTO 00000KT 40SM 13/M01 A2995 RMK AO1 T01331010






000
SXUS55 KMSO 280503
OSOMSO
MONTANA AWOS SUMMARY
NATIONAL WEATHER SERVICE MISSOULA MT
1003 PM MST FRI MAR 27 2015

Montana AWOS Reports

TWIN BRIDGES|K7S1 280455Z AUTO 00000KT 15SM 08/M03 A3002 RMK AO1 T00781027
ROUNDUP     |KRPX 280455Z AUTO 21004KT 40SM 10/M03 A2986 RMK AO1 T01001032
PLAINS      |KS34 280455Z AUTO 00000KT 25SM 09/04 A2992 RMK AO1 T00940039
LAUREL      |K6S8 280455Z AUTO 00000KT 40SM 14/M02 A2994 RMK AO1 T01391016
SCOBEY      |K9S2 280455Z AUTO 00000KT 40SM 06/01 A2988 RMK AO1 T00610006
MALTA       |KM75 280455Z AUTO 00000KT 40SM 06/00 A2982 RMK AO1 T00610000






000
SXUS55 KMSO 280503
OSOMSO
MONTANA AWOS SUMMARY
NATIONAL WEATHER SERVICE MISSOULA MT
1003 PM MST FRI MAR 27 2015

Montana AWOS Reports

TWIN BRIDGES|K7S1 280455Z AUTO 00000KT 15SM 08/M03 A3002 RMK AO1 T00781027
ROUNDUP     |KRPX 280455Z AUTO 21004KT 40SM 10/M03 A2986 RMK AO1 T01001032
PLAINS      |KS34 280455Z AUTO 00000KT 25SM 09/04 A2992 RMK AO1 T00940039
LAUREL      |K6S8 280455Z AUTO 00000KT 40SM 14/M02 A2994 RMK AO1 T01391016
SCOBEY      |K9S2 280455Z AUTO 00000KT 40SM 06/01 A2988 RMK AO1 T00610006
MALTA       |KM75 280455Z AUTO 00000KT 40SM 06/00 A2982 RMK AO1 T00610000






000
SXUS55 KMSO 280443
OSOMSO
MONTANA AWOS SUMMARY
NATIONAL WEATHER SERVICE MISSOULA MT
943 PM MST FRI MAR 27 2015

Montana AWOS Reports

TWIN BRIDGES|K7S1 280435Z AUTO 12005KT 40SM 09/M02 A3002 RMK AO1 T00891021
ROUNDUP     |KRPX 280435Z AUTO 00000KT 40SM 12/M04 A2986 RMK AO1 T01221038
MALTA       |KM75 280435Z AUTO 00000KT 40SM 06/00 A2983 RMK AO1 T00610000
LAUREL      |K6S8 280435Z AUTO 00000KT 40SM 16/M01 A2995 RMK AO1 T01561005






000
SXUS55 KMSO 280433
OSOMSO
MONTANA AWOS SUMMARY
NATIONAL WEATHER SERVICE MISSOULA MT
932 PM MST FRI MAR 27 2015

Montana AWOS Reports

LAUREL      |K6S8 280415Z AUTO 00000KT 40SM 14/M01 A2995 RMK AO1 T01441010






000
SXUS55 KMSO 280423
OSOMSO
MONTANA AWOS SUMMARY
NATIONAL WEATHER SERVICE MISSOULA MT
922 PM MST FRI MAR 27 2015

Montana AWOS Reports

EKALAKA     |K97M 280355Z AUTO 00000KT 40SM 11/01 A2993 RMK AO1 T01060006
TWIN BRIDGES|K7S1 280415Z AUTO 12004KT 40SM 10/M03 A3002 RMK AO1 T01001027
ROUNDUP     |KRPX 280415Z AUTO 00000KT 40SM 13/M04 A2986 RMK AO1 T01281038
MALTA       |KM75 280415Z AUTO 00000KT 40SM 07/01 A2983 RMK AO1 T00670006






000
SXUS55 KMSO 280413
OSOMSO
MONTANA AWOS SUMMARY
NATIONAL WEATHER SERVICE MISSOULA MT
913 PM MST FRI MAR 27 2015

Montana AWOS Reports

PLAINS      |KS34 280355Z AUTO 00000KT 40SM 12/05 A2992 RMK AO1 T01220050
SCOBEY      |K9S2 280355Z AUTO 07009G14KT 40SM 08/02 A2988 RMK AO1 T00780017






000
SXUS55 KMSO 280413
OSOMSO
MONTANA AWOS SUMMARY
NATIONAL WEATHER SERVICE MISSOULA MT
913 PM MST FRI MAR 27 2015

Montana AWOS Reports

PLAINS      |KS34 280355Z AUTO 00000KT 40SM 12/05 A2992 RMK AO1 T01220050
SCOBEY      |K9S2 280355Z AUTO 07009G14KT 40SM 08/02 A2988 RMK AO1 T00780017






000
SXUS55 KMSO 280403
OSOMSO
MONTANA AWOS SUMMARY
NATIONAL WEATHER SERVICE MISSOULA MT
903 PM MST FRI MAR 27 2015

Montana AWOS Reports

TWIN BRIDGES|K7S1 280355Z AUTO 07005KT 40SM 11/M03 A3002 RMK AO1 T01111027
ROUNDUP     |KRPX 280355Z AUTO 00000KT 40SM 13/M04 A2987 RMK AO1 T01331038
MALTA       |KM75 280355Z AUTO 00000KT 40SM 08/01 A2983 RMK AO1 T00780011
LAUREL      |K6S8 280355Z AUTO 00000KT 40SM 14/M01 A2995 RMK AO1 T01441010






000
SXUS55 KMSO 280403
OSOMSO
MONTANA AWOS SUMMARY
NATIONAL WEATHER SERVICE MISSOULA MT
903 PM MST FRI MAR 27 2015

Montana AWOS Reports

TWIN BRIDGES|K7S1 280355Z AUTO 07005KT 40SM 11/M03 A3002 RMK AO1 T01111027
ROUNDUP     |KRPX 280355Z AUTO 00000KT 40SM 13/M04 A2987 RMK AO1 T01331038
MALTA       |KM75 280355Z AUTO 00000KT 40SM 08/01 A2983 RMK AO1 T00780011
LAUREL      |K6S8 280355Z AUTO 00000KT 40SM 14/M01 A2995 RMK AO1 T01441010






000
SXUS55 KMSO 280343
OSOMSO
MONTANA AWOS SUMMARY
NATIONAL WEATHER SERVICE MISSOULA MT
843 PM MST FRI MAR 27 2015

Montana AWOS Reports

TWIN BRIDGES|K7S1 280335Z AUTO 11006KT 40SM 11/M03 A3003 RMK AO1 T01111027
ROUNDUP     |KRPX 280335Z AUTO 00000KT 40SM 13/M04 A2987 RMK AO1 T01281043
MALTA       |KM75 280335Z AUTO 00000KT 40SM 08/01 A2983 RMK AO1 T00830011
LAUREL      |K6S8 280335Z AUTO 23004KT 40SM 15/M01 A2995 RMK AO1 T01501010






000
SXUS55 KMSO 280323
OSOMSO
MONTANA AWOS SUMMARY
NATIONAL WEATHER SERVICE MISSOULA MT
823 PM MST FRI MAR 27 2015

Montana AWOS Reports

EKALAKA     |K97M 280255Z AUTO 00000KT 40SM 13/01 A2994 RMK AO1 T01280006
PLAINS      |KS34 280255Z AUTO 00000KT 40SM 15/05 A2993 RMK AO1 T01500050
TWIN BRIDGES|K7S1 280315Z AUTO 04005KT 40SM 13/M03 A3003 RMK AO1 T01331027
ROUNDUP     |KRPX 280315Z AUTO 00000KT 40SM 16/M03 A2987 RMK AO1 T01561032
MALTA       |KM75 280315Z AUTO 00000KT 40SM 10/02 A2984 RMK AO1 T01000017
LAUREL      |K6S8 280315Z AUTO 21005KT 40SM 13/M01 A2995 RMK AO1 T01281010






000
SXUS55 KMSO 280303
OSOMSO
MONTANA AWOS SUMMARY
NATIONAL WEATHER SERVICE MISSOULA MT
803 PM MST FRI MAR 27 2015

Montana AWOS Reports

TWIN BRIDGES|K7S1 280255Z AUTO 03005KT 40SM 12/M03 A3003 RMK AO1 T01221032
ROUNDUP     |KRPX 280255Z AUTO 00000KT 40SM 14/M04 A2987 RMK AO1 T01441043
MALTA       |KM75 280255Z AUTO 00000KT 40SM 10/01 A2984 RMK AO1 T01000011
LAUREL      |K6S8 280255Z AUTO 29004KT 40SM 13/M01 A2994 RMK AO1 T01331010






000
SXUS55 KMSO 280303
OSOMSO
MONTANA AWOS SUMMARY
NATIONAL WEATHER SERVICE MISSOULA MT
803 PM MST FRI MAR 27 2015

Montana AWOS Reports

TWIN BRIDGES|K7S1 280255Z AUTO 03005KT 40SM 12/M03 A3003 RMK AO1 T01221032
ROUNDUP     |KRPX 280255Z AUTO 00000KT 40SM 14/M04 A2987 RMK AO1 T01441043
MALTA       |KM75 280255Z AUTO 00000KT 40SM 10/01 A2984 RMK AO1 T01000011
LAUREL      |K6S8 280255Z AUTO 29004KT 40SM 13/M01 A2994 RMK AO1 T01331010






000
SXUS55 KMSO 280243
OSOMSO
MONTANA AWOS SUMMARY
NATIONAL WEATHER SERVICE MISSOULA MT
742 PM MST FRI MAR 27 2015

Montana AWOS Reports

TWIN BRIDGES|K7S1 280235Z AUTO 00000KT 40SM 13/M04 A3003 RMK AO1 T01331038
ROUNDUP     |KRPX 280235Z AUTO 00000KT 40SM 16/M03 A2987 RMK AO1 T01561032
MALTA       |KM75 280235Z AUTO 00000KT 40SM 11/02 A2984 RMK AO1 T01110017
LAUREL      |K6S8 280235Z AUTO 00000KT 40SM 14/00 A2994 RMK AO1 T01390000






000
SXUS55 KMSO 280223
OSOMSO
MONTANA AWOS SUMMARY
NATIONAL WEATHER SERVICE MISSOULA MT
723 PM MST FRI MAR 27 2015

Montana AWOS Reports

TWIN BRIDGES|K7S1 280215Z AUTO 00000KT 40SM 13/M04 A3003 RMK AO1 T01331038
ROUNDUP     |KRPX 280215Z AUTO 00000KT 40SM 16/M04 A2986 RMK AO1 T01611038
MALTA       |KM75 280215Z AUTO 00000KT 40SM 12/01 A2984 RMK AO1 T01220011
LAUREL      |K6S8 280215Z AUTO 31004KT 40SM 15/M01 A2994 RMK AO1 T01501010






000
SXUS55 KMSO 280223
OSOMSO
MONTANA AWOS SUMMARY
NATIONAL WEATHER SERVICE MISSOULA MT
723 PM MST FRI MAR 27 2015

Montana AWOS Reports

TWIN BRIDGES|K7S1 280215Z AUTO 00000KT 40SM 13/M04 A3003 RMK AO1 T01331038
ROUNDUP     |KRPX 280215Z AUTO 00000KT 40SM 16/M04 A2986 RMK AO1 T01611038
MALTA       |KM75 280215Z AUTO 00000KT 40SM 12/01 A2984 RMK AO1 T01220011
LAUREL      |K6S8 280215Z AUTO 31004KT 40SM 15/M01 A2994 RMK AO1 T01501010






000
SXUS55 KMSO 280203
OSOMSO
MONTANA AWOS SUMMARY
NATIONAL WEATHER SERVICE MISSOULA MT
703 PM MST FRI MAR 27 2015

Montana AWOS Reports

TWIN BRIDGES|K7S1 280155Z AUTO 00000KT 40SM 17/M03 A3003 RMK AO1 T01671027
ROUNDUP     |KRPX 280155Z AUTO 00000KT 40SM 17/M04 A2986 RMK AO1 T01721038
MALTA       |KM75 280155Z AUTO 00000KT 40SM 13/02 A2984 RMK AO1 T01330017
SCOBEY      |K9S2 280155Z AUTO 30005KT 40SM 08/00 A2988 RMK AO1 T00830000
PLAINS      |KS34 280155Z AUTO 20005KT 40SM 21/05 A2993 RMK AO1 T02060050
LAUREL      |K6S8 280155Z AUTO 00000KT 40SM 15/M01 A2994 RMK AO1 T01501010
EKALAKA     |K97M 280155Z AUTO 00000KT 40SM 13/01 A2993 RMK AO1 T01330011






000
SXUS55 KMSO 280143
OSOMSO
MONTANA AWOS SUMMARY
NATIONAL WEATHER SERVICE MISSOULA MT
643 PM MST FRI MAR 27 2015

Montana AWOS Reports

TWIN BRIDGES|K7S1 280135Z AUTO 00000KT 40SM 18/M03 A3003 RMK AO1 T01831027
ROUNDUP     |KRPX 280135Z AUTO 00000KT 40SM 19/M04 A2986 RMK AO1 T01891038
MALTA       |KM75 280135Z AUTO 00000KT 40SM 17/02 A2984 RMK AO1 T01670022
LAUREL      |K6S8 280135Z AUTO 00000KT 40SM 17/00 A2994 RMK AO1 T01720000






000
SXUS55 KMSO 280123
OSOMSO
MONTANA AWOS SUMMARY
NATIONAL WEATHER SERVICE MISSOULA MT
623 PM MST FRI MAR 27 2015

Montana AWOS Reports

TWIN BRIDGES|K7S1 280115Z AUTO 24004KT 40SM 21/M02 A3003 RMK AO1 T02061021
ROUNDUP     |KRPX 280115Z AUTO 00000KT 40SM 21/M04 A2986 RMK AO1 T02061038
MALTA       |KM75 280115Z AUTO 00000KT 40SM 17/02 A2984 RMK AO1 T01720017
LAUREL      |K6S8 280115Z AUTO 00000KT 40SM 20/00 A2994 RMK AO1 T02000000






000
SXUS55 KMSO 280113
OSOMSO
MONTANA AWOS SUMMARY
NATIONAL WEATHER SERVICE MISSOULA MT
613 PM MST FRI MAR 27 2015

Montana AWOS Reports

SCOBEY      |K9S2 280055Z AUTO 00000KT 40SM 14/03 A2987 RMK AO1 T01440028
EKALAKA     |K97M 280055Z AUTO 00000KT 40SM 14/01 A2992 RMK AO1 T01390011






000
SXUS55 KMSO 280104
OSOMSO
MONTANA AWOS SUMMARY
NATIONAL WEATHER SERVICE MISSOULA MT
603 PM MST FRI MAR 27 2015

Montana AWOS Reports

TWIN BRIDGES|K7S1 280055Z AUTO 25007KT 40SM 21/M03 A3003 RMK AO1 T02111027
ROUNDUP     |KRPX 280055Z AUTO 30008KT 40SM 22/M04 A2985 RMK AO1 T02171038
MALTA       |KM75 280055Z AUTO 00000KT 40SM 18/01 A2984 RMK AO1 T01830011
LAUREL      |K6S8 280055Z AUTO 00000KT 40SM 22/M01 A2995 RMK AO1 T02171010
PLAINS      |KS34 280055Z AUTO 00000KT 40SM 23/05 A2993 RMK AO1 T02330050






000
SXUS55 KMSO 280043
OSOMSO
MONTANA AWOS SUMMARY
NATIONAL WEATHER SERVICE MISSOULA MT
543 PM MST FRI MAR 27 2015

Montana AWOS Reports

TWIN BRIDGES|K7S1 280035Z AUTO 26009G15KT 40SM 22/M03 A3003 RMK AO1 T02171032
ROUNDUP     |KRPX 280035Z AUTO 30010G14KT 40SM 23/M04 A2985 RMK AO1 T02281038
MALTA       |KM75 280035Z AUTO 00000KT 40SM 19/01 A2984 RMK AO1 T01940011
LAUREL      |K6S8 280035Z AUTO 29007KT 40SM 23/M02 A2995 RMK AO1 T02281016






000
SXUS55 KMSO 280023
OSOMSO
MONTANA AWOS SUMMARY
NATIONAL WEATHER SERVICE MISSOULA MT
523 PM MST FRI MAR 27 2015

Montana AWOS Reports

TWIN BRIDGES|K7S1 280015Z AUTO 25014G18KT 40SM 22/M03 A3002 RMK AO1 T02221032
ROUNDUP     |KRPX 280015Z AUTO 29012G16KT 40SM 23/M04 A2985 RMK AO1 T02281043
MALTA       |KM75 280015Z AUTO 00000KT 40SM 19/01 A2984 RMK AO1 T01940006
LAUREL      |K6S8 280015Z AUTO 28012G18KT 40SM 23/M03 A2995 RMK AO1 T02331032






000
SXUS55 KMSO 280003
OSOMSO
MONTANA AWOS SUMMARY
NATIONAL WEATHER SERVICE MISSOULA MT
503 PM MST FRI MAR 27 2015

Montana AWOS Reports

PLAINS      |KS34 272355Z AUTO 18006KT 40SM 24/04 A2994 RMK AO1 T02440044
TWIN BRIDGES|K7S1 272355Z AUTO 25013G19KT 40SM 23/M03 A3002 RMK AO1 T02281027
ROUNDUP     |KRPX 272355Z AUTO 29014G19KT 40SM 23/M03 A2985 RMK AO1 T02331032
MALTA       |KM75 272355Z AUTO 27007KT 40SM 20/01 A2984 RMK AO1 T02000006
SCOBEY      |K9S2 272355Z AUTO 00000KT 40SM 17/03 A2987 RMK AO1 T01670028
LAUREL      |K6S8 272355Z AUTO 30010G15KT 40SM 24/M02 A2995 RMK AO1 T02391021






000
SXUS55 KMSO 280003
OSOMSO
MONTANA AWOS SUMMARY
NATIONAL WEATHER SERVICE MISSOULA MT
503 PM MST FRI MAR 27 2015

Montana AWOS Reports

PLAINS      |KS34 272355Z AUTO 18006KT 40SM 24/04 A2994 RMK AO1 T02440044
TWIN BRIDGES|K7S1 272355Z AUTO 25013G19KT 40SM 23/M03 A3002 RMK AO1 T02281027
ROUNDUP     |KRPX 272355Z AUTO 29014G19KT 40SM 23/M03 A2985 RMK AO1 T02331032
MALTA       |KM75 272355Z AUTO 27007KT 40SM 20/01 A2984 RMK AO1 T02000006
SCOBEY      |K9S2 272355Z AUTO 00000KT 40SM 17/03 A2987 RMK AO1 T01670028
LAUREL      |K6S8 272355Z AUTO 30010G15KT 40SM 24/M02 A2995 RMK AO1 T02391021






000
SXUS55 KMSO 272343
OSOMSO
MONTANA AWOS SUMMARY
NATIONAL WEATHER SERVICE MISSOULA MT
443 PM MST FRI MAR 27 2015

Montana AWOS Reports

TWIN BRIDGES|K7S1 272335Z AUTO 24009G20KT 40SM 22/M03 A3002 RMK AO1 T02221027
LAUREL      |K6S8 272335Z AUTO 30011G17KT 40SM 24/M02 A2995 RMK AO1 T02441016
ROUNDUP     |KRPX 272335Z AUTO 29014G21KT 40SM 23/M03 A2985 RMK AO1 T02331032
MALTA       |KM75 272335Z AUTO 27013G17KT 40SM 21/01 A2985 RMK AO1 T02060006






000
SXUS55 KMSO 272323
OSOMSO
MONTANA AWOS SUMMARY
NATIONAL WEATHER SERVICE MISSOULA MT
422 PM MST FRI MAR 27 2015

Montana AWOS Reports

TWIN BRIDGES|K7S1 272315Z AUTO 00000KT 40SM 23/M02 A3003 RMK AO1 T02281021
ROUNDUP     |KRPX 272315Z AUTO 28012G18KT 40SM 23/M04 A2985 RMK AO1 T02331038
MALTA       |KM75 272315Z AUTO 26007KT 40SM 21/02 A2985 RMK AO1 T02110017
LAUREL      |K6S8 272315Z AUTO 28009G14KT 40SM 24/M02 A2995 RMK AO1 T02441016






000
SXUS55 KMSO 272323
OSOMSO
MONTANA AWOS SUMMARY
NATIONAL WEATHER SERVICE MISSOULA MT
422 PM MST FRI MAR 27 2015

Montana AWOS Reports

TWIN BRIDGES|K7S1 272315Z AUTO 00000KT 40SM 23/M02 A3003 RMK AO1 T02281021
ROUNDUP     |KRPX 272315Z AUTO 28012G18KT 40SM 23/M04 A2985 RMK AO1 T02331038
MALTA       |KM75 272315Z AUTO 26007KT 40SM 21/02 A2985 RMK AO1 T02110017
LAUREL      |K6S8 272315Z AUTO 28009G14KT 40SM 24/M02 A2995 RMK AO1 T02441016






000
SXUS55 KMSO 272313
OSOMSO
MONTANA AWOS SUMMARY
NATIONAL WEATHER SERVICE MISSOULA MT
413 PM MST FRI MAR 27 2015

Montana AWOS Reports

SCOBEY      |K9S2 272255Z AUTO 29005KT 25SM 17/03 A2987 RMK AO1 T01720028






000
SXUS55 KMSO 272313
OSOMSO
MONTANA AWOS SUMMARY
NATIONAL WEATHER SERVICE MISSOULA MT
413 PM MST FRI MAR 27 2015

Montana AWOS Reports

SCOBEY      |K9S2 272255Z AUTO 29005KT 25SM 17/03 A2987 RMK AO1 T01720028






000
SXUS55 KMSO 272303
OSOMSO
MONTANA AWOS SUMMARY
NATIONAL WEATHER SERVICE MISSOULA MT
402 PM MST FRI MAR 27 2015

Montana AWOS Reports

TWIN BRIDGES|K7S1 272255Z AUTO 00000KT 40SM 21/M03 A3003 RMK AO1 T02111027
ROUNDUP     |KRPX 272255Z AUTO 29015G20KT 40SM 24/M04 A2985 RMK AO1 T02391038
MALTA       |KM75 272255Z AUTO 28012G17KT 40SM 22/02 A2985 RMK AO1 T02170017
EKALAKA     |K97M 272255Z AUTO 30014G21KT 40SM 18/01 A2992 RMK AO1 T01780006
PLAINS      |KS34 272255Z AUTO 00000KT 40SM 24/06 A2995 RMK AO1 T02440056
LAUREL      |K6S8 272255Z AUTO 25012KT 40SM 24/M01 A2995 RMK AO1 T02391010






000
SXUS55 KMSO 272303
OSOMSO
MONTANA AWOS SUMMARY
NATIONAL WEATHER SERVICE MISSOULA MT
402 PM MST FRI MAR 27 2015

Montana AWOS Reports

TWIN BRIDGES|K7S1 272255Z AUTO 00000KT 40SM 21/M03 A3003 RMK AO1 T02111027
ROUNDUP     |KRPX 272255Z AUTO 29015G20KT 40SM 24/M04 A2985 RMK AO1 T02391038
MALTA       |KM75 272255Z AUTO 28012G17KT 40SM 22/02 A2985 RMK AO1 T02170017
EKALAKA     |K97M 272255Z AUTO 30014G21KT 40SM 18/01 A2992 RMK AO1 T01780006
PLAINS      |KS34 272255Z AUTO 00000KT 40SM 24/06 A2995 RMK AO1 T02440056
LAUREL      |K6S8 272255Z AUTO 25012KT 40SM 24/M01 A2995 RMK AO1 T02391010






000
SXUS55 KMSO 272243
OSOMSO
MONTANA AWOS SUMMARY
NATIONAL WEATHER SERVICE MISSOULA MT
343 PM MST FRI MAR 27 2015

Montana AWOS Reports

TWIN BRIDGES|K7S1 272235Z AUTO 00000KT 40SM 22/M02 A3004 RMK AO1 T02171021
ROUNDUP     |KRPX 272235Z AUTO 27015G19KT 40SM 24/M03 A2986 RMK AO1 T02441032
MALTA       |KM75 272235Z AUTO 30011G16KT 40SM 21/02 A2986 RMK AO1 T02110017
LAUREL      |K6S8 272235Z AUTO 28012G17KT 40SM 24/M01 A2996 RMK AO1 T02391010






000
SXUS55 KMSO 272223
OSOMSO
MONTANA AWOS SUMMARY
NATIONAL WEATHER SERVICE MISSOULA MT
323 PM MST FRI MAR 27 2015

Montana AWOS Reports

TWIN BRIDGES|K7S1 272215Z AUTO 00000KT 40SM 22/M02 A3004 RMK AO1 T02221016
ROUNDUP     |KRPX 272215Z AUTO 33013G20KT 40SM 24/M04 A2986 RMK AO1 T02391038
MALTA       |KM75 272215Z AUTO 29010G17KT 40SM 21/01 A2986 RMK AO1 T02060011
LAUREL      |K6S8 272215Z AUTO 26012G24KT 40SM 24/M01 A2996 RMK AO1 T02391010






000
SXUS55 KMSO 272223
OSOMSO
MONTANA AWOS SUMMARY
NATIONAL WEATHER SERVICE MISSOULA MT
323 PM MST FRI MAR 27 2015

Montana AWOS Reports

TWIN BRIDGES|K7S1 272215Z AUTO 00000KT 40SM 22/M02 A3004 RMK AO1 T02221016
ROUNDUP     |KRPX 272215Z AUTO 33013G20KT 40SM 24/M04 A2986 RMK AO1 T02391038
MALTA       |KM75 272215Z AUTO 29010G17KT 40SM 21/01 A2986 RMK AO1 T02060011
LAUREL      |K6S8 272215Z AUTO 26012G24KT 40SM 24/M01 A2996 RMK AO1 T02391010






000
SXUS55 KMSO 272214
OSOMSO
MONTANA AWOS SUMMARY
NATIONAL WEATHER SERVICE MISSOULA MT
313 PM MST FRI MAR 27 2015

Montana AWOS Reports

LAUREL      |K6S8 272155Z AUTO 26012G18KT 40SM 24/M01 A2997 RMK AO1 T02391005






000
SXUS55 KMSO 272203
OSOMSO
MONTANA AWOS SUMMARY
NATIONAL WEATHER SERVICE MISSOULA MT
303 PM MST FRI MAR 27 2015

Montana AWOS Reports

TWIN BRIDGES|K7S1 272155Z AUTO 32004KT 40SM 23/M02 A3005 RMK AO1 T02281016
SCOBEY      |K9S2 272155Z AUTO 28008KT 40SM 17/02 A2988 RMK AO1 T01720022
ROUNDUP     |KRPX 272155Z AUTO 29016G21KT 40SM 24/M04 A2986 RMK AO1 T02441038
MALTA       |KM75 272155Z AUTO 29015G20KT 40SM 21/01 A2987 RMK AO1 T02060011
EKALAKA     |K97M 272155Z AUTO 30014KT 40SM 19/01 A2992 RMK AO1 T01890011
PLAINS      |KS34 272155Z AUTO 00000KT 40SM 23/08 A2998 RMK AO1 T02330078






000
SXUS55 KMSO 272143
OSOMSO
MONTANA AWOS SUMMARY
NATIONAL WEATHER SERVICE MISSOULA MT
243 PM MST FRI MAR 27 2015

Montana AWOS Reports

TWIN BRIDGES|K7S1 272135Z AUTO 00000KT 40SM 22/M01 A3005 RMK AO1 T02221010
ROUNDUP     |KRPX 272135Z AUTO 32012G19KT 40SM 24/M04 A2987 RMK AO1 T02391043
MALTA       |KM75 272135Z AUTO 27013G18KT 40SM 21/01 A2987 RMK AO1 T02060011
LAUREL      |K6S8 272135Z AUTO 28009G19KT 40SM 24/M01 A2997 RMK AO1 T02391005






000
SXUS55 KMSO 272123
OSOMSO
MONTANA AWOS SUMMARY
NATIONAL WEATHER SERVICE MISSOULA MT
223 PM MST FRI MAR 27 2015

Montana AWOS Reports

TWIN BRIDGES|K7S1 272115Z AUTO 21007KT 40SM 22/M01 A3006 RMK AO1 T02221010
ROUNDUP     |KRPX 272115Z AUTO 32012KT 40SM 24/M04 A2987 RMK AO1 T02391043
MALTA       |KM75 272115Z AUTO 27014G20KT 40SM 21/02 A2987 RMK AO1 T02060017
LAUREL      |K6S8 272115Z AUTO 27008KT 40SM 24/00 A2998 RMK AO1 T02390000






000
SXUS55 KMSO 272123
OSOMSO
MONTANA AWOS SUMMARY
NATIONAL WEATHER SERVICE MISSOULA MT
223 PM MST FRI MAR 27 2015

Montana AWOS Reports

TWIN BRIDGES|K7S1 272115Z AUTO 21007KT 40SM 22/M01 A3006 RMK AO1 T02221010
ROUNDUP     |KRPX 272115Z AUTO 32012KT 40SM 24/M04 A2987 RMK AO1 T02391043
MALTA       |KM75 272115Z AUTO 27014G20KT 40SM 21/02 A2987 RMK AO1 T02060017
LAUREL      |K6S8 272115Z AUTO 27008KT 40SM 24/00 A2998 RMK AO1 T02390000






000
SXUS55 KMSO 272113
OSOMSO
MONTANA AWOS SUMMARY
NATIONAL WEATHER SERVICE MISSOULA MT
212 PM MST FRI MAR 27 2015

Montana AWOS Reports

PLAINS      |KS34 272055Z AUTO 00000KT 40SM 20/07 A3002 RMK AO1 T02000072
SCOBEY      |K9S2 272055Z AUTO 29010G15KT 40SM 17/02 A2989 RMK AO1 T01720022
EKALAKA     |K97M 272055Z AUTO 30013G18KT 40SM 18/01 A2993 RMK AO1 T01780011






000
SXUS55 KMSO 272103
OSOMSO
MONTANA AWOS SUMMARY
NATIONAL WEATHER SERVICE MISSOULA MT
203 PM MST FRI MAR 27 2015

Montana AWOS Reports

TWIN BRIDGES|K7S1 272055Z AUTO 00000KT 40SM 22/M01 A3007 RMK AO1 T02171005
ROUNDUP     |KRPX 272055Z AUTO 30014G20KT 40SM 24/M04 A2987 RMK AO1 T02391043
MALTA       |KM75 272055Z AUTO 25014G21KT 40SM 20/02 A2988 RMK AO1 T02000017
LAUREL      |K6S8 272055Z AUTO 25011G18KT 40SM 23/M01 A2998 RMK AO1 T02331005






000
SXUS55 KMSO 272103
OSOMSO
MONTANA AWOS SUMMARY
NATIONAL WEATHER SERVICE MISSOULA MT
203 PM MST FRI MAR 27 2015

Montana AWOS Reports

TWIN BRIDGES|K7S1 272055Z AUTO 00000KT 40SM 22/M01 A3007 RMK AO1 T02171005
ROUNDUP     |KRPX 272055Z AUTO 30014G20KT 40SM 24/M04 A2987 RMK AO1 T02391043
MALTA       |KM75 272055Z AUTO 25014G21KT 40SM 20/02 A2988 RMK AO1 T02000017
LAUREL      |K6S8 272055Z AUTO 25011G18KT 40SM 23/M01 A2998 RMK AO1 T02331005






000
SXUS55 KMSO 272043
OSOMSO
MONTANA AWOS SUMMARY
NATIONAL WEATHER SERVICE MISSOULA MT
143 PM MST FRI MAR 27 2015

Montana AWOS Reports

TWIN BRIDGES|K7S1 272035Z AUTO 00000KT 40SM 22/00 A3008 RMK AO1 T02170000
ROUNDUP     |KRPX 272035Z AUTO 32015G25KT 40SM 23/M05 A2988 RMK AO1 T02331049
MALTA       |KM75 272035Z AUTO 26014KT 40SM 21/03 A2988 RMK AO1 T02060033
LAUREL      |K6S8 272035Z AUTO 26013G20KT 40SM 23/M01 A2999 RMK AO1 T02331005






000
SXUS55 KMSO 272043
OSOMSO
MONTANA AWOS SUMMARY
NATIONAL WEATHER SERVICE MISSOULA MT
143 PM MST FRI MAR 27 2015

Montana AWOS Reports

TWIN BRIDGES|K7S1 272035Z AUTO 00000KT 40SM 22/00 A3008 RMK AO1 T02170000
ROUNDUP     |KRPX 272035Z AUTO 32015G25KT 40SM 23/M05 A2988 RMK AO1 T02331049
MALTA       |KM75 272035Z AUTO 26014KT 40SM 21/03 A2988 RMK AO1 T02060033
LAUREL      |K6S8 272035Z AUTO 26013G20KT 40SM 23/M01 A2999 RMK AO1 T02331005






000
SXUS55 KMSO 272023
OSOMSO
MONTANA AWOS SUMMARY
NATIONAL WEATHER SERVICE MISSOULA MT
123 PM MST FRI MAR 27 2015

Montana AWOS Reports

TWIN BRIDGES|K7S1 272015Z AUTO 00000KT 40SM 21/M01 A3009 RMK AO1 T02061005
ROUNDUP     |KRPX 272015Z AUTO 00000KT 40SM 23/M04 A2989 RMK AO1 T02281038
MALTA       |KM75 272015Z AUTO 25010G18KT 40SM 19/03 A2989 RMK AO1 T01940028
LAUREL      |K6S8 272015Z AUTO 25014G20KT 40SM 24/00 A3000 RMK AO1 T02390000






000
SXUS55 KMSO 272013
OSOMSO
MONTANA AWOS SUMMARY
NATIONAL WEATHER SERVICE MISSOULA MT
113 PM MST FRI MAR 27 2015

Montana AWOS Reports

SCOBEY      |K9S2 271955Z AUTO 31008KT 40SM 16/02 A2990 RMK AO1 T01560017
PLAINS      |KS34 271955Z AUTO 00000KT 40SM 17/07 A3006 RMK AO1 T01720067
EKALAKA     |K97M 271955Z AUTO 31012G20KT 40SM 17/02 A2995 RMK AO1 T01720017






000
SXUS55 KMSO 272003
OSOMSO
MONTANA AWOS SUMMARY
NATIONAL WEATHER SERVICE MISSOULA MT
102 PM MST FRI MAR 27 2015

Montana AWOS Reports

TWIN BRIDGES|K7S1 271955Z AUTO 10005KT 40SM 20/00 A3010 RMK AO1 T02000000
ROUNDUP     |KRPX 271955Z AUTO 25011G15KT 40SM 23/M02 A2990 RMK AO1 T02281021
MALTA       |KM75 271955Z AUTO 25014G18KT 40SM 19/03 A2990 RMK AO1 T01940028
LAUREL      |K6S8 271955Z AUTO 25013G24KT 40SM 23/01 A3000 RMK AO1 T02280006






000
SXUS55 KMSO 271943
OSOMSO
MONTANA AWOS SUMMARY
NATIONAL WEATHER SERVICE MISSOULA MT
1243 PM MST FRI MAR 27 2015

Montana AWOS Reports

TWIN BRIDGES|K7S1 271935Z AUTO 00000KT 40SM 19/00 A3011 RMK AO1 T01940000
ROUNDUP     |KRPX 271935Z AUTO 28013KT 40SM 23/M02 A2990 RMK AO1 T02281021
MALTA       |KM75 271935Z AUTO 25013G17KT 40SM 19/03 A2990 RMK AO1 T01940028
LAUREL      |K6S8 271935Z AUTO 27013G20KT 40SM 21/M01 A3001 RMK AO1 T02111010






000
SXUS55 KMSO 271933
OSOMSO
MONTANA AWOS SUMMARY
NATIONAL WEATHER SERVICE MISSOULA MT
1232 PM MST FRI MAR 27 2015

Montana AWOS Reports

LAUREL      |K6S8 271915Z AUTO 28014G20KT 40SM 23/00 A3001 RMK AO1 T02280000






000
SXUS55 KMSO 271933
OSOMSO
MONTANA AWOS SUMMARY
NATIONAL WEATHER SERVICE MISSOULA MT
1232 PM MST FRI MAR 27 2015

Montana AWOS Reports

LAUREL      |K6S8 271915Z AUTO 28014G20KT 40SM 23/00 A3001 RMK AO1 T02280000






000
SXUS55 KMSO 271923
OSOMSO
MONTANA AWOS SUMMARY
NATIONAL WEATHER SERVICE MISSOULA MT
1222 PM MST FRI MAR 27 2015

Montana AWOS Reports

TWIN BRIDGES|K7S1 271915Z AUTO 11005KT 40SM 18/00 A3012 RMK AO1 T01830000
ROUNDUP     |KRPX 271915Z AUTO 31006KT 40SM 22/M02 A2991 RMK AO1 T02171016
MALTA       |KM75 271915Z AUTO 26009G16KT 40SM 19/03 A2991 RMK AO1 T01890033






000
SXUS55 KMSO 271923
OSOMSO
MONTANA AWOS SUMMARY
NATIONAL WEATHER SERVICE MISSOULA MT
1222 PM MST FRI MAR 27 2015

Montana AWOS Reports

TWIN BRIDGES|K7S1 271915Z AUTO 11005KT 40SM 18/00 A3012 RMK AO1 T01830000
ROUNDUP     |KRPX 271915Z AUTO 31006KT 40SM 22/M02 A2991 RMK AO1 T02171016
MALTA       |KM75 271915Z AUTO 26009G16KT 40SM 19/03 A2991 RMK AO1 T01890033






000
SXUS55 KMSO 271903
OSOMSO
MONTANA AWOS SUMMARY
NATIONAL WEATHER SERVICE MISSOULA MT
1202 PM MST FRI MAR 27 2015

Montana AWOS Reports

TWIN BRIDGES|K7S1 271855Z AUTO 13004KT 40SM 17/00 A3013 RMK AO1 T01720000
ROUNDUP     |KRPX 271855Z AUTO 29007KT 40SM 21/M02 A2992 RMK AO1 T02111021
MALTA       |KM75 271855Z AUTO 21008KT 40SM 18/04 A2992 RMK AO1 T01780039
SCOBEY      |K9S2 271855Z AUTO 33010KT 40SM 14/01 A2992 RMK AO1 T01390011
EKALAKA     |K97M 271855Z AUTO 28014G18KT 40SM 17/02 A2996 RMK AO1 T01670017
PLAINS      |KS34 271855Z AUTO 00000KT 40SM 16/07 A3010 RMK AO1 T01560072
LAUREL      |K6S8 271855Z AUTO 26013G20KT 40SM 23/M01 A3001 RMK AO1 T02281005






000
SXUS55 KMSO 271843
OSOMSO
MONTANA AWOS SUMMARY
NATIONAL WEATHER SERVICE MISSOULA MT
1143 AM MST FRI MAR 27 2015

Montana AWOS Reports

TWIN BRIDGES|K7S1 271835Z AUTO 14004KT 40SM 17/00 A3014 RMK AO1 T01670000
ROUNDUP     |KRPX 271835Z AUTO 26010G16KT 40SM 21/M03 A2993 RMK AO1 T02111027
MALTA       |KM75 271835Z AUTO 25008KT 40SM 17/04 A2992 RMK AO1 T01720039
LAUREL      |K6S8 271835Z AUTO 25014G23KT 40SM 22/01 A3002 RMK AO1 T02220006






000
SXUS55 KMSO 271843
OSOMSO
MONTANA AWOS SUMMARY
NATIONAL WEATHER SERVICE MISSOULA MT
1143 AM MST FRI MAR 27 2015

Montana AWOS Reports

TWIN BRIDGES|K7S1 271835Z AUTO 14004KT 40SM 17/00 A3014 RMK AO1 T01670000
ROUNDUP     |KRPX 271835Z AUTO 26010G16KT 40SM 21/M03 A2993 RMK AO1 T02111027
MALTA       |KM75 271835Z AUTO 25008KT 40SM 17/04 A2992 RMK AO1 T01720039
LAUREL      |K6S8 271835Z AUTO 25014G23KT 40SM 22/01 A3002 RMK AO1 T02220006






000
SXUS55 KMSO 271824
OSOMSO
MONTANA AWOS SUMMARY
NATIONAL WEATHER SERVICE MISSOULA MT
1123 AM MST FRI MAR 27 2015

Montana AWOS Reports

TWIN BRIDGES|K7S1 271815Z AUTO 17006KT 40SM 16/M01 A3015 RMK AO1 T01561005
ROUNDUP     |KRPX 271815Z AUTO 28006KT 40SM 20/M03 A2993 RMK AO1 T02001032
MALTA       |KM75 271815Z AUTO 26009G13KT 40SM 16/04 A2993 RMK AO1 T01610039
LAUREL      |K6S8 271815Z AUTO 25016G23KT 40SM 22/02 A3002 RMK AO1 T02170017






000
SXUS55 KMSO 271824
OSOMSO
MONTANA AWOS SUMMARY
NATIONAL WEATHER SERVICE MISSOULA MT
1123 AM MST FRI MAR 27 2015

Montana AWOS Reports

TWIN BRIDGES|K7S1 271815Z AUTO 17006KT 40SM 16/M01 A3015 RMK AO1 T01561005
ROUNDUP     |KRPX 271815Z AUTO 28006KT 40SM 20/M03 A2993 RMK AO1 T02001032
MALTA       |KM75 271815Z AUTO 26009G13KT 40SM 16/04 A2993 RMK AO1 T01610039
LAUREL      |K6S8 271815Z AUTO 25016G23KT 40SM 22/02 A3002 RMK AO1 T02170017






000
SXUS55 KMSO 271803
OSOMSO
MONTANA AWOS SUMMARY
NATIONAL WEATHER SERVICE MISSOULA MT
1102 AM MST FRI MAR 27 2015

Montana AWOS Reports

TWIN BRIDGES|K7S1 271755Z AUTO VRB06KT 40SM 15/00 A3015 RMK AO1 T01500000
ROUNDUP     |KRPX 271755Z AUTO 28005KT 40SM 19/M02 A2994 RMK AO1 T01941021
MALTA       |KM75 271755Z AUTO 24011KT 40SM 16/04 A2993 RMK AO1 T01560044
PLAINS      |KS34 271755Z AUTO 00000KT 40SM 11/07 A3013 RMK AO1 T01110072
LAUREL      |K6S8 271755Z AUTO 25017G25KT 40SM 21/01 A3003 RMK AO1 T02110006
SCOBEY      |K9S2 271755Z AUTO 03007KT 40SM 12/02 A2993 RMK AO1 T01170017
EKALAKA     |K97M 271755Z AUTO 30011G19KT 40SM 16/02 A2997 RMK AO1 T01560022






000
SXUS55 KMSO 271743
OSOMSO
MONTANA AWOS SUMMARY
NATIONAL WEATHER SERVICE MISSOULA MT
1043 AM MST FRI MAR 27 2015

Montana AWOS Reports

TWIN BRIDGES|K7S1 271735Z AUTO VRB05KT 40SM 14/01 A3016 RMK AO1 T01390011
ROUNDUP     |KRPX 271735Z AUTO 27004KT 40SM 19/M02 A2994 RMK AO1 T01941021
MALTA       |KM75 271735Z AUTO 40SM 15/04 A2994 RMK AO1 T01500039
LAUREL      |K6S8 271735Z AUTO 24014G18KT 40SM 21/02 A3003 RMK AO1 T02060017






000
SXUS55 KMSO 271743
OSOMSO
MONTANA AWOS SUMMARY
NATIONAL WEATHER SERVICE MISSOULA MT
1043 AM MST FRI MAR 27 2015

Montana AWOS Reports

TWIN BRIDGES|K7S1 271735Z AUTO VRB05KT 40SM 14/01 A3016 RMK AO1 T01390011
ROUNDUP     |KRPX 271735Z AUTO 27004KT 40SM 19/M02 A2994 RMK AO1 T01941021
MALTA       |KM75 271735Z AUTO 40SM 15/04 A2994 RMK AO1 T01500039
LAUREL      |K6S8 271735Z AUTO 24014G18KT 40SM 21/02 A3003 RMK AO1 T02060017






000
SXUS55 KMSO 271733
OSOMSO
MONTANA AWOS SUMMARY
NATIONAL WEATHER SERVICE MISSOULA MT
1033 AM MST FRI MAR 27 2015

Montana AWOS Reports

LAUREL      |K6S8 271715Z AUTO 00000KT 40SM 17/02 A3004 RMK AO1 T01670017






000
SXUS55 KMSO 271733
OSOMSO
MONTANA AWOS SUMMARY
NATIONAL WEATHER SERVICE MISSOULA MT
1033 AM MST FRI MAR 27 2015

Montana AWOS Reports

LAUREL      |K6S8 271715Z AUTO 00000KT 40SM 17/02 A3004 RMK AO1 T01670017






000
SXUS55 KMSO 271723
OSOMSO
MONTANA AWOS SUMMARY
NATIONAL WEATHER SERVICE MISSOULA MT
1023 AM MST FRI MAR 27 2015

Montana AWOS Reports

SCOBEY      |K9S2 271655Z AUTO 29007KT 40SM 11/01 A2992 RMK AO1 T01060011
PLAINS      |KS34 271655Z AUTO 40SM 07/06 A3015 RMK AO1 T00670056
EKALAKA     |K97M 271655Z AUTO 30012G19KT 40SM 14/03 A2998 RMK AO1 T01390028
TWIN BRIDGES|K7S1 271715Z AUTO 00000KT 40SM 13/01 A3017 RMK AO1 T01280006
ROUNDUP     |KRPX 271715Z AUTO 27010G15KT 40SM 19/M01 A2995 RMK AO1 T01891005
MALTA       |KM75 271715Z AUTO 26010G14KT 40SM 14/04 A2994 RMK AO1 T01440039






000
SXUS55 KMSO 271723
OSOMSO
MONTANA AWOS SUMMARY
NATIONAL WEATHER SERVICE MISSOULA MT
1023 AM MST FRI MAR 27 2015

Montana AWOS Reports

SCOBEY      |K9S2 271655Z AUTO 29007KT 40SM 11/01 A2992 RMK AO1 T01060011
PLAINS      |KS34 271655Z AUTO 40SM 07/06 A3015 RMK AO1 T00670056
EKALAKA     |K97M 271655Z AUTO 30012G19KT 40SM 14/03 A2998 RMK AO1 T01390028
TWIN BRIDGES|K7S1 271715Z AUTO 00000KT 40SM 13/01 A3017 RMK AO1 T01280006
ROUNDUP     |KRPX 271715Z AUTO 27010G15KT 40SM 19/M01 A2995 RMK AO1 T01891005
MALTA       |KM75 271715Z AUTO 26010G14KT 40SM 14/04 A2994 RMK AO1 T01440039






000
SXUS55 KMSO 271703
OSOMSO
MONTANA AWOS SUMMARY
NATIONAL WEATHER SERVICE MISSOULA MT
1003 AM MST FRI MAR 27 2015

Montana AWOS Reports

TWIN BRIDGES|K7S1 271655Z AUTO 15004KT 40SM 12/01 A3017 RMK AO1 T01220011
ROUNDUP     |KRPX 271655Z AUTO 25013G17KT 40SM 18/00 A2996 RMK AO1 T01780000
MALTA       |KM75 271655Z AUTO 25007KT 40SM 14/04 A2995 RMK AO1 T01440039
LAUREL      |K6S8 271655Z AUTO 20009G13KT 40SM 16/02 A3005 RMK AO1 T01560017






000
SXUS55 KMSO 271703
OSOMSO
MONTANA AWOS SUMMARY
NATIONAL WEATHER SERVICE MISSOULA MT
1003 AM MST FRI MAR 27 2015

Montana AWOS Reports

TWIN BRIDGES|K7S1 271655Z AUTO 15004KT 40SM 12/01 A3017 RMK AO1 T01220011
ROUNDUP     |KRPX 271655Z AUTO 25013G17KT 40SM 18/00 A2996 RMK AO1 T01780000
MALTA       |KM75 271655Z AUTO 25007KT 40SM 14/04 A2995 RMK AO1 T01440039
LAUREL      |K6S8 271655Z AUTO 20009G13KT 40SM 16/02 A3005 RMK AO1 T01560017






000
SXUS55 KMSO 271644
OSOMSO
MONTANA AWOS SUMMARY
NATIONAL WEATHER SERVICE MISSOULA MT
943 AM MST FRI MAR 27 2015

Montana AWOS Reports

TWIN BRIDGES|K7S1 271635Z AUTO 18005KT 40SM 11/01 A3018 RMK AO1 T01110006
ROUNDUP     |KRPX 271635Z AUTO 26011G18KT 40SM 18/00 A2996 RMK AO1 T01780000
MALTA       |KM75 271635Z AUTO 25009G14KT 40SM 14/04 A2994 RMK AO1 T01390039
LAUREL      |K6S8 271635Z AUTO 20010KT 40SM 15/02 A3005 RMK AO1 T01500017






000
SXUS55 KMSO 271623
OSOMSO
MONTANA AWOS SUMMARY
NATIONAL WEATHER SERVICE MISSOULA MT
923 AM MST FRI MAR 27 2015

Montana AWOS Reports

ROUNDUP     |KRPX 271615Z AUTO 25013G17KT 40SM 17/00 A2996 RMK AO1 T01670000
MALTA       |KM75 271615Z AUTO 26010G15KT 40SM 13/04 A2994 RMK AO1 T01330039
LAUREL      |K6S8 271615Z AUTO 19008KT 40SM 13/03 A3006 RMK AO1 T01330028






000
SXUS55 KMSO 271603
OSOMSO
MONTANA AWOS SUMMARY
NATIONAL WEATHER SERVICE MISSOULA MT
903 AM MST FRI MAR 27 2015

Montana AWOS Reports

TWIN BRIDGES|K7S1 271555Z AUTO 00000KT 40SM 08/01 A3018 RMK AO1 T00830011
ROUNDUP     |KRPX 271555Z AUTO 26014G20KT 40SM 16/00 A2996 RMK AO1 T01560000
MALTA       |KM75 271555Z AUTO 28013KT 40SM 13/04 A2994 RMK AO1 T01330039
SCOBEY      |K9S2 271555Z AUTO 28005KT 40SM 08/02 A2992 RMK AO1 T00830017
LAUREL      |K6S8 271555Z AUTO 00000KT 40SM 12/02 A3007 RMK AO1 T01170022
PLAINS      |KS34 271555Z AUTO 1/4SM 04/02 A3016 RMK AO1 T00390022






000
SXUS55 KMSO 271603
OSOMSO
MONTANA AWOS SUMMARY
NATIONAL WEATHER SERVICE MISSOULA MT
903 AM MST FRI MAR 27 2015

Montana AWOS Reports

TWIN BRIDGES|K7S1 271555Z AUTO 00000KT 40SM 08/01 A3018 RMK AO1 T00830011
ROUNDUP     |KRPX 271555Z AUTO 26014G20KT 40SM 16/00 A2996 RMK AO1 T01560000
MALTA       |KM75 271555Z AUTO 28013KT 40SM 13/04 A2994 RMK AO1 T01330039
SCOBEY      |K9S2 271555Z AUTO 28005KT 40SM 08/02 A2992 RMK AO1 T00830017
LAUREL      |K6S8 271555Z AUTO 00000KT 40SM 12/02 A3007 RMK AO1 T01170022
PLAINS      |KS34 271555Z AUTO 1/4SM 04/02 A3016 RMK AO1 T00390022






000
SXUS55 KMSO 271543
OSOMSO
MONTANA AWOS SUMMARY
NATIONAL WEATHER SERVICE MISSOULA MT
843 AM MST FRI MAR 27 2015

Montana AWOS Reports

TWIN BRIDGES|K7S1 271535Z AUTO 19005KT 40SM 07/01 A3019 RMK AO1 T00720006
ROUNDUP     |KRPX 271535Z AUTO 24010G18KT 40SM 14/00 A2997 RMK AO1 T01440000
MALTA       |KM75 271535Z AUTO 26012KT 40SM 13/04 A2994 RMK AO1 T01280039
LAUREL      |K6S8 271535Z AUTO 19005KT 40SM 10/02 A3007 RMK AO1 T01000017






000
SXUS55 KMSO 271543
OSOMSO
MONTANA AWOS SUMMARY
NATIONAL WEATHER SERVICE MISSOULA MT
843 AM MST FRI MAR 27 2015

Montana AWOS Reports

TWIN BRIDGES|K7S1 271535Z AUTO 19005KT 40SM 07/01 A3019 RMK AO1 T00720006
ROUNDUP     |KRPX 271535Z AUTO 24010G18KT 40SM 14/00 A2997 RMK AO1 T01440000
MALTA       |KM75 271535Z AUTO 26012KT 40SM 13/04 A2994 RMK AO1 T01280039
LAUREL      |K6S8 271535Z AUTO 19005KT 40SM 10/02 A3007 RMK AO1 T01000017






000
SXUS55 KMSO 271523
OSOMSO
MONTANA AWOS SUMMARY
NATIONAL WEATHER SERVICE MISSOULA MT
823 AM MST FRI MAR 27 2015

Montana AWOS Reports

TWIN BRIDGES|K7S1 271515Z AUTO 15004KT 40SM 06/00 A3019 RMK AO1 T00560000
ROUNDUP     |KRPX 271515Z AUTO 25009KT 40SM 13/00 A2997 RMK AO1 T01330000
MALTA       |KM75 271515Z AUTO 26010G14KT 40SM 12/04 A2994 RMK AO1 T01220039
LAUREL      |K6S8 271515Z AUTO 19005KT 40SM 09/01 A3008 RMK AO1 T00890006






000
SXUS55 KMSO 271513
OSOMSO
MONTANA AWOS SUMMARY
NATIONAL WEATHER SERVICE MISSOULA MT
812 AM MST FRI MAR 27 2015

Montana AWOS Reports

LAUREL      |K6S8 271455Z AUTO 19004KT 40SM 08/01 A3008 RMK AO1 T00830006
SCOBEY      |K9S2 271455Z AUTO 00000KT 40SM 03/M02 A2992 RMK AO1 T00281016
PLAINS      |KS34 271455Z AUTO 1/4SM 02/00 A3017 RMK AO1 T00170000






000
SXUS55 KMSO 271503
OSOMSO
MONTANA AWOS SUMMARY
NATIONAL WEATHER SERVICE MISSOULA MT
803 AM MST FRI MAR 27 2015

Montana AWOS Reports

TWIN BRIDGES|K7S1 271455Z AUTO 14004KT 40SM 04/00 A3019 RMK AO1 T00440000
ROUNDUP     |KRPX 271455Z AUTO 00000KT 40SM 12/01 A2998 RMK AO1 T01170011
MALTA       |KM75 271455Z AUTO 26010G16KT 40SM 12/04 A2994 RMK AO1 T01170039
EKALAKA     |K97M 271455Z AUTO 27010G15KT 40SM 09/02 A2998 RMK AO1 T00940022






000
SXUS55 KMSO 271443
OSOMSO
MONTANA AWOS SUMMARY
NATIONAL WEATHER SERVICE MISSOULA MT
743 AM MST FRI MAR 27 2015

Montana AWOS Reports

TWIN BRIDGES|K7S1 271435Z AUTO 16004KT 40SM 02/M02 A3020 RMK AO1 T00221016
ROUNDUP     |KRPX 271435Z AUTO 22005KT 40SM 11/01 A2998 RMK AO1 T01060006
MALTA       |KM75 271435Z AUTO 00000KT 40SM 08/04 A2995 RMK AO1 T00780039
LAUREL      |K6S8 271435Z AUTO 00000KT 40SM 08/01 A3009 RMK AO1 T00830006






000
SXUS55 KMSO 271443
OSOMSO
MONTANA AWOS SUMMARY
NATIONAL WEATHER SERVICE MISSOULA MT
743 AM MST FRI MAR 27 2015

Montana AWOS Reports

TWIN BRIDGES|K7S1 271435Z AUTO 16004KT 40SM 02/M02 A3020 RMK AO1 T00221016
ROUNDUP     |KRPX 271435Z AUTO 22005KT 40SM 11/01 A2998 RMK AO1 T01060006
MALTA       |KM75 271435Z AUTO 00000KT 40SM 08/04 A2995 RMK AO1 T00780039
LAUREL      |K6S8 271435Z AUTO 00000KT 40SM 08/01 A3009 RMK AO1 T00830006






000
SXUS55 KMSO 271423
OSOMSO
MONTANA AWOS SUMMARY
NATIONAL WEATHER SERVICE MISSOULA MT
723 AM MST FRI MAR 27 2015

Montana AWOS Reports

ROUNDUP     |KRPX 271415Z AUTO 19005KT 40SM 09/00 A2998 RMK AO1 T00890000
MALTA       |KM75 271415Z AUTO 00000KT 40SM 05/02 A2995 RMK AO1 T00500022
LAUREL      |K6S8 271415Z AUTO 00000KT 40SM 07/00 A3009 RMK AO1 T00670000






000
SXUS55 KMSO 271423
OSOMSO
MONTANA AWOS SUMMARY
NATIONAL WEATHER SERVICE MISSOULA MT
723 AM MST FRI MAR 27 2015

Montana AWOS Reports

ROUNDUP     |KRPX 271415Z AUTO 19005KT 40SM 09/00 A2998 RMK AO1 T00890000
MALTA       |KM75 271415Z AUTO 00000KT 40SM 05/02 A2995 RMK AO1 T00500022
LAUREL      |K6S8 271415Z AUTO 00000KT 40SM 07/00 A3009 RMK AO1 T00670000






000
SXUS55 KMSO 271413
OSOMSO
MONTANA AWOS SUMMARY
NATIONAL WEATHER SERVICE MISSOULA MT
713 AM MST FRI MAR 27 2015

Montana AWOS Reports

PLAINS      |KS34 271355Z AUTO 1/4SM 01/M01 A3018 RMK AO1 T00111005






000
SXUS55 KMSO 271413
OSOMSO
MONTANA AWOS SUMMARY
NATIONAL WEATHER SERVICE MISSOULA MT
713 AM MST FRI MAR 27 2015

Montana AWOS Reports

PLAINS      |KS34 271355Z AUTO 1/4SM 01/M01 A3018 RMK AO1 T00111005






000
SXUS55 KMSO 271404
OSOMSO
MONTANA AWOS SUMMARY
NATIONAL WEATHER SERVICE MISSOULA MT
703 AM MST FRI MAR 27 2015

Montana AWOS Reports

TWIN BRIDGES|K7S1 271355Z AUTO 00000KT 40SM 01/M03 A3019 RMK AO1 T00061032
ROUNDUP     |KRPX 271355Z AUTO 19009KT 40SM 08/00 A2997 RMK AO1 T00830000
MALTA       |KM75 271355Z AUTO 00000KT 40SM 03/01 A2994 RMK AO1 T00330006
SCOBEY      |K9S2 271355Z AUTO 00000KT 25SM 01/M03 A2992 RMK AO1 T00111027
LAUREL      |K6S8 271355Z AUTO 00000KT 40SM 06/M01 A3009 RMK AO1 T00561010
EKALAKA     |K97M 271355Z AUTO 25006KT 40SM 07/02 A2998 RMK AO1 T00720017






000
SXUS55 KMSO 271404
OSOMSO
MONTANA AWOS SUMMARY
NATIONAL WEATHER SERVICE MISSOULA MT
703 AM MST FRI MAR 27 2015

Montana AWOS Reports

TWIN BRIDGES|K7S1 271355Z AUTO 00000KT 40SM 01/M03 A3019 RMK AO1 T00061032
ROUNDUP     |KRPX 271355Z AUTO 19009KT 40SM 08/00 A2997 RMK AO1 T00830000
MALTA       |KM75 271355Z AUTO 00000KT 40SM 03/01 A2994 RMK AO1 T00330006
SCOBEY      |K9S2 271355Z AUTO 00000KT 25SM 01/M03 A2992 RMK AO1 T00111027
LAUREL      |K6S8 271355Z AUTO 00000KT 40SM 06/M01 A3009 RMK AO1 T00561010
EKALAKA     |K97M 271355Z AUTO 25006KT 40SM 07/02 A2998 RMK AO1 T00720017






000
SXUS55 KMSO 271323
OSOMSO
MONTANA AWOS SUMMARY
NATIONAL WEATHER SERVICE MISSOULA MT
623 AM MST FRI MAR 27 2015

Montana AWOS Reports

TWIN BRIDGES|K7S1 271315Z AUTO 11005KT 40SM 01/M03 A3020 RMK AO1 T00111027
ROUNDUP     |KRPX 271315Z AUTO 20008KT 40SM 08/00 A2998 RMK AO1 T00780000
MALTA       |KM75 271315Z AUTO 23005KT 40SM 02/M01 A2994 RMK AO1 T00221010
LAUREL      |K6S8 271315Z AUTO 00000KT 40SM 06/M01 A3009 RMK AO1 T00561005






000
SXUS55 KMSO 271313
OSOMSO
MONTANA AWOS SUMMARY
NATIONAL WEATHER SERVICE MISSOULA MT
613 AM MST FRI MAR 27 2015

Montana AWOS Reports

SCOBEY      |K9S2 271255Z AUTO 00000KT 25SM 00/M04 A2991 RMK AO1 T00001038






000
SXUS55 KMSO 271313
OSOMSO
MONTANA AWOS SUMMARY
NATIONAL WEATHER SERVICE MISSOULA MT
613 AM MST FRI MAR 27 2015

Montana AWOS Reports

SCOBEY      |K9S2 271255Z AUTO 00000KT 25SM 00/M04 A2991 RMK AO1 T00001038






000
SXUS55 KMSO 271303
OSOMSO
MONTANA AWOS SUMMARY
NATIONAL WEATHER SERVICE MISSOULA MT
602 AM MST FRI MAR 27 2015

Montana AWOS Reports

TWIN BRIDGES|K7S1 271255Z AUTO 00000KT 40SM 02/M03 A3020 RMK AO1 T00171027
ROUNDUP     |KRPX 271255Z AUTO 20009KT 40SM 08/00 A2998 RMK AO1 T00780000
MALTA       |KM75 271255Z AUTO 40SM 02/M01 A2993 RMK AO1 T00221010
LAUREL      |K6S8 271255Z AUTO 00000KT 40SM 07/M02 A3009 RMK AO1 T00721016
PLAINS      |KS34 271255Z AUTO 1/4SM 02/M01 A3018 RMK AO1 T00171005






000
SXUS55 KMSO 271303
OSOMSO
MONTANA AWOS SUMMARY
NATIONAL WEATHER SERVICE MISSOULA MT
602 AM MST FRI MAR 27 2015

Montana AWOS Reports

TWIN BRIDGES|K7S1 271255Z AUTO 00000KT 40SM 02/M03 A3020 RMK AO1 T00171027
ROUNDUP     |KRPX 271255Z AUTO 20009KT 40SM 08/00 A2998 RMK AO1 T00780000
MALTA       |KM75 271255Z AUTO 40SM 02/M01 A2993 RMK AO1 T00221010
LAUREL      |K6S8 271255Z AUTO 00000KT 40SM 07/M02 A3009 RMK AO1 T00721016
PLAINS      |KS34 271255Z AUTO 1/4SM 02/M01 A3018 RMK AO1 T00171005






000
SXUS55 KMSO 271243
OSOMSO
MONTANA AWOS SUMMARY
NATIONAL WEATHER SERVICE MISSOULA MT
543 AM MST FRI MAR 27 2015

Montana AWOS Reports

ROUNDUP     |KRPX 271235Z AUTO 21007KT 40SM 07/00 A2998 RMK AO1 T00720000
MALTA       |KM75 271235Z AUTO 00000KT 40SM 04/01 A2993 RMK AO1 T00440011
LAUREL      |K6S8 271235Z AUTO 00000KT 40SM 08/M01 A3009 RMK AO1 T00781005






000
SXUS55 KMSO 271233
OSOMSO
MONTANA AWOS SUMMARY
NATIONAL WEATHER SERVICE MISSOULA MT
532 AM MST FRI MAR 27 2015

Montana AWOS Reports

LAUREL      |K6S8 271215Z AUTO 23004KT 40SM 07/M01 A3009 RMK AO1 T00721010






000
SXUS55 KMSO 271233
OSOMSO
MONTANA AWOS SUMMARY
NATIONAL WEATHER SERVICE MISSOULA MT
532 AM MST FRI MAR 27 2015

Montana AWOS Reports

LAUREL      |K6S8 271215Z AUTO 23004KT 40SM 07/M01 A3009 RMK AO1 T00721010






000
SXUS55 KMSO 271223
OSOMSO
MONTANA AWOS SUMMARY
NATIONAL WEATHER SERVICE MISSOULA MT
522 AM MST FRI MAR 27 2015

Montana AWOS Reports

TWIN BRIDGES|K7S1 271215Z AUTO 00000KT 40SM 02/M02 A3020 RMK AO1 T00171021
ROUNDUP     |KRPX 271215Z AUTO 20008KT 40SM 08/01 A2998 RMK AO1 T00780006
MALTA       |KM75 271215Z AUTO 26004KT 40SM 03/M01 A2993 RMK AO1 T00331005






000
SXUS55 KMSO 271204
OSOMSO
MONTANA AWOS SUMMARY
NATIONAL WEATHER SERVICE MISSOULA MT
503 AM MST FRI MAR 27 2015

Montana AWOS Reports

TWIN BRIDGES|K7S1 271155Z AUTO 13005KT 40SM 02/M02 A3020 RMK AO1 T00221016
ROUNDUP     |KRPX 271155Z AUTO 21007KT 40SM 08/01 A2998 RMK AO1 T00780006
MALTA       |KM75 271155Z AUTO 00000KT 40SM 03/M01 A2994 RMK AO1 T00281005
SCOBEY      |K9S2 271155Z AUTO 00000KT 15SM 01/M03 A2991 RMK AO1 T00061032
PLAINS      |KS34 271155Z AUTO 3SM 02/M01 A3019 RMK AO1 T00171005
LAUREL      |K6S8 271155Z AUTO 00000KT 40SM 08/01 A3009 RMK AO1 T00780006
EKALAKA     |K97M 271155Z AUTO 25006KT 40SM 07/02 A2998 RMK AO1 T00670017






000
SXUS55 KMSO 271143
OSOMSO
MONTANA AWOS SUMMARY
NATIONAL WEATHER SERVICE MISSOULA MT
443 AM MST FRI MAR 27 2015

Montana AWOS Reports

TWIN BRIDGES|K7S1 271135Z AUTO 16004KT 40SM 01/M02 A3020 RMK AO1 T00111021
ROUNDUP     |KRPX 271135Z AUTO 22004KT 40SM 08/01 A2998 RMK AO1 T00780006
MALTA       |KM75 271135Z AUTO 00000KT 40SM 03/M01 A2994 RMK AO1 T00281010
LAUREL      |K6S8 271135Z AUTO 00000KT 40SM 08/00 A3009 RMK AO1 T00780000






000
SXUS55 KMSO 271143
OSOMSO
MONTANA AWOS SUMMARY
NATIONAL WEATHER SERVICE MISSOULA MT
443 AM MST FRI MAR 27 2015

Montana AWOS Reports

TWIN BRIDGES|K7S1 271135Z AUTO 16004KT 40SM 01/M02 A3020 RMK AO1 T00111021
ROUNDUP     |KRPX 271135Z AUTO 22004KT 40SM 08/01 A2998 RMK AO1 T00780006
MALTA       |KM75 271135Z AUTO 00000KT 40SM 03/M01 A2994 RMK AO1 T00281010
LAUREL      |K6S8 271135Z AUTO 00000KT 40SM 08/00 A3009 RMK AO1 T00780000






000
SXUS55 KMSO 271123
OSOMSO
MONTANA AWOS SUMMARY
NATIONAL WEATHER SERVICE MISSOULA MT
423 AM MST FRI MAR 27 2015

Montana AWOS Reports

TWIN BRIDGES|K7S1 271115Z AUTO 00000KT 40SM 01/M03 A3020 RMK AO1 T00111027
ROUNDUP     |KRPX 271115Z AUTO 25005KT 40SM 08/01 A2998 RMK AO1 T00780006
MALTA       |KM75 271115Z AUTO 00000KT 40SM 03/M01 A2993 RMK AO1 T00281010
LAUREL      |K6S8 271115Z AUTO 30004KT 40SM 08/01 A3009 RMK AO1 T00830006






000
SXUS55 KMSO 271103
OSOMSO
MONTANA AWOS SUMMARY
NATIONAL WEATHER SERVICE MISSOULA MT
403 AM MST FRI MAR 27 2015

Montana AWOS Reports

TWIN BRIDGES|K7S1 271055Z AUTO 00000KT 40SM 01/M03 A3021 RMK AO1 T00111027
ROUNDUP     |KRPX 271055Z AUTO 00000KT 40SM 08/01 A2998 RMK AO1 T00830006
MALTA       |KM75 271055Z AUTO 00000KT 40SM 02/M02 A2994 RMK AO1 T00221016
LAUREL      |K6S8 271055Z AUTO 31006KT 40SM 08/01 A3008 RMK AO1 T00830006
SCOBEY      |K9S2 271055Z AUTO 16004KT 15SM 01/M03 A2991 RMK AO1 T00061032
PLAINS      |KS34 271055Z AUTO 1/4SM 02/00 A3020 RMK AO1 T00220000
PLAINS      |KS34 271055Z AUTO 1/4SM 02/00 A3020 RMK AO1 T00220000






000
SXUS55 KMSO 271103
OSOMSO
MONTANA AWOS SUMMARY
NATIONAL WEATHER SERVICE MISSOULA MT
403 AM MST FRI MAR 27 2015

Montana AWOS Reports

TWIN BRIDGES|K7S1 271055Z AUTO 00000KT 40SM 01/M03 A3021 RMK AO1 T00111027
ROUNDUP     |KRPX 271055Z AUTO 00000KT 40SM 08/01 A2998 RMK AO1 T00830006
MALTA       |KM75 271055Z AUTO 00000KT 40SM 02/M02 A2994 RMK AO1 T00221016
LAUREL      |K6S8 271055Z AUTO 31006KT 40SM 08/01 A3008 RMK AO1 T00830006
SCOBEY      |K9S2 271055Z AUTO 16004KT 15SM 01/M03 A2991 RMK AO1 T00061032
PLAINS      |KS34 271055Z AUTO 1/4SM 02/00 A3020 RMK AO1 T00220000
PLAINS      |KS34 271055Z AUTO 1/4SM 02/00 A3020 RMK AO1 T00220000






000
SXUS55 KMSO 271044
OSOMSO
MONTANA AWOS SUMMARY
NATIONAL WEATHER SERVICE MISSOULA MT
343 AM MST FRI MAR 27 2015

Montana AWOS Reports

TWIN BRIDGES|K7S1 271035Z AUTO 00000KT 40SM 02/M02 A3021 RMK AO1 T00221021
ROUNDUP     |KRPX 271035Z AUTO 00000KT 40SM 08/00 A2998 RMK AO1 T00830000
MALTA       |KM75 271035Z AUTO 00000KT 40SM 02/M02 A2994 RMK AO1 T00221016
LAUREL      |K6S8 271035Z AUTO 30006KT 40SM 09/M02 A3009 RMK AO1 T00941016






000
SXUS55 KMSO 271023
OSOMSO
MONTANA AWOS SUMMARY
NATIONAL WEATHER SERVICE MISSOULA MT
323 AM MST FRI MAR 27 2015

Montana AWOS Reports

TWIN BRIDGES|K7S1 271015Z AUTO 00000KT 40SM 03/M02 A3021 RMK AO1 T00281016
LAUREL      |K6S8 271015Z AUTO 28004KT 40SM 10/M01 A3008 RMK AO1 T01001010
ROUNDUP     |KRPX 271015Z AUTO 00000KT 40SM 09/01 A2999 RMK AO1 T00890006
MALTA       |KM75 271015Z AUTO 00000KT 40SM 02/M02 A2994 RMK AO1 T00221016






000
SXUS55 KMSO 271023
OSOMSO
MONTANA AWOS SUMMARY
NATIONAL WEATHER SERVICE MISSOULA MT
323 AM MST FRI MAR 27 2015

Montana AWOS Reports

TWIN BRIDGES|K7S1 271015Z AUTO 00000KT 40SM 03/M02 A3021 RMK AO1 T00281016
LAUREL      |K6S8 271015Z AUTO 28004KT 40SM 10/M01 A3008 RMK AO1 T01001010
ROUNDUP     |KRPX 271015Z AUTO 00000KT 40SM 09/01 A2999 RMK AO1 T00890006
MALTA       |KM75 271015Z AUTO 00000KT 40SM 02/M02 A2994 RMK AO1 T00221016






000
SXUS55 KMSO 271003
OSOMSO
MONTANA AWOS SUMMARY
NATIONAL WEATHER SERVICE MISSOULA MT
303 AM MST FRI MAR 27 2015

Montana AWOS Reports

TWIN BRIDGES|K7S1 270955Z AUTO 18005KT 40SM 03/M02 A3022 RMK AO1 T00281016
ROUNDUP     |KRPX 270955Z AUTO 00000KT 40SM 09/01 A2999 RMK AO1 T00940006
MALTA       |KM75 270955Z AUTO 00000KT 40SM 03/M02 A2994 RMK AO1 T00281016
LAUREL      |K6S8 270955Z AUTO 30006KT 40SM 10/M01 A3008 RMK AO1 T01001010
SCOBEY      |K9S2 270955Z AUTO 00000KT 25SM 01/M03 A2992 RMK AO1 T00111032
EKALAKA     |K97M 270955Z AUTO 12004KT 40SM 03/M01 A2998 RMK AO1 T00281010
PLAINS      |KS34 270955Z AUTO 1/4SM 02/M01 A3021 RMK AO1 T00171005






000
SXUS55 KMSO 271003
OSOMSO
MONTANA AWOS SUMMARY
NATIONAL WEATHER SERVICE MISSOULA MT
303 AM MST FRI MAR 27 2015

Montana AWOS Reports

TWIN BRIDGES|K7S1 270955Z AUTO 18005KT 40SM 03/M02 A3022 RMK AO1 T00281016
ROUNDUP     |KRPX 270955Z AUTO 00000KT 40SM 09/01 A2999 RMK AO1 T00940006
MALTA       |KM75 270955Z AUTO 00000KT 40SM 03/M02 A2994 RMK AO1 T00281016
LAUREL      |K6S8 270955Z AUTO 30006KT 40SM 10/M01 A3008 RMK AO1 T01001010
SCOBEY      |K9S2 270955Z AUTO 00000KT 25SM 01/M03 A2992 RMK AO1 T00111032
EKALAKA     |K97M 270955Z AUTO 12004KT 40SM 03/M01 A2998 RMK AO1 T00281010
PLAINS      |KS34 270955Z AUTO 1/4SM 02/M01 A3021 RMK AO1 T00171005






000
SXUS55 KMSO 270943
OSOMSO
MONTANA AWOS SUMMARY
NATIONAL WEATHER SERVICE MISSOULA MT
243 AM MST FRI MAR 27 2015

Montana AWOS Reports

TWIN BRIDGES|K7S1 270935Z AUTO 12004KT 40SM 03/M02 A3022 RMK AO1 T00331016
ROUNDUP     |KRPX 270935Z AUTO 26004KT 40SM 11/01 A2999 RMK AO1 T01060011
MALTA       |KM75 270935Z AUTO 00000KT 40SM 03/M01 A2995 RMK AO1 T00331010
LAUREL      |K6S8 270935Z AUTO 29005KT 40SM 11/M01 A3008 RMK AO1 T01061010






000
SXUS55 KMSO 270933
OSOMSO
MONTANA AWOS SUMMARY
NATIONAL WEATHER SERVICE MISSOULA MT
233 AM MST FRI MAR 27 2015

Montana AWOS Reports

LAUREL      |K6S8 270915Z AUTO 27004KT 40SM 10/M01 A3008 RMK AO1 T01001010






000
SXUS55 KMSO 270923
OSOMSO
MONTANA AWOS SUMMARY
NATIONAL WEATHER SERVICE MISSOULA MT
223 AM MST FRI MAR 27 2015

Montana AWOS Reports

TWIN BRIDGES|K7S1 270915Z AUTO 12006KT 40SM 03/M01 A3022 RMK AO1 T00331010
ROUNDUP     |KRPX 270915Z AUTO 00000KT 40SM 10/01 A2999 RMK AO1 T01000006
MALTA       |KM75 270915Z AUTO 00000KT 40SM 03/M01 A2995 RMK AO1 T00331010






000
SXUS55 KMSO 270923
OSOMSO
MONTANA AWOS SUMMARY
NATIONAL WEATHER SERVICE MISSOULA MT
223 AM MST FRI MAR 27 2015

Montana AWOS Reports

TWIN BRIDGES|K7S1 270915Z AUTO 12006KT 40SM 03/M01 A3022 RMK AO1 T00331010
ROUNDUP     |KRPX 270915Z AUTO 00000KT 40SM 10/01 A2999 RMK AO1 T01000006
MALTA       |KM75 270915Z AUTO 00000KT 40SM 03/M01 A2995 RMK AO1 T00331010






000
SXUS55 KMSO 270913
OSOMSO
MONTANA AWOS SUMMARY
NATIONAL WEATHER SERVICE MISSOULA MT
213 AM MST FRI MAR 27 2015

Montana AWOS Reports

SCOBEY      |K9S2 270855Z AUTO 00000KT 25SM 02/M03 A2993 RMK AO1 T00171027
EKALAKA     |K97M 270855Z AUTO 13005KT 40SM 02/M02 A3000 RMK AO1 T00221016






000
SXUS55 KMSO 270903
OSOMSO
MONTANA AWOS SUMMARY
NATIONAL WEATHER SERVICE MISSOULA MT
203 AM MST FRI MAR 27 2015

Montana AWOS Reports

TWIN BRIDGES|K7S1 270855Z AUTO 13004KT 40SM 04/M01 A3023 RMK AO1 T00391010
ROUNDUP     |KRPX 270855Z AUTO 00000KT 40SM 10/01 A2999 RMK AO1 T01000006
MALTA       |KM75 270855Z AUTO 00000KT 40SM 04/M01 A2995 RMK AO1 T00391010
LAUREL      |K6S8 270855Z AUTO 27005KT 40SM 10/M01 A3008 RMK AO1 T01001010
PLAINS      |KS34 270855Z AUTO 00000KT 2 1/2SM 03/01 A3022 RMK AO1 T00280006






000
SXUS55 KMSO 270843
OSOMSO
MONTANA AWOS SUMMARY
NATIONAL WEATHER SERVICE MISSOULA MT
143 AM MST FRI MAR 27 2015

Montana AWOS Reports

TWIN BRIDGES|K7S1 270835Z AUTO 10004KT 40SM 04/M01 A3023 RMK AO1 T00441005
ROUNDUP     |KRPX 270835Z AUTO 26007KT 40SM 11/01 A2999 RMK AO1 T01060011
MALTA       |KM75 270835Z AUTO 00000KT 40SM 05/00 A2995 RMK AO1 T00500000
LAUREL      |K6S8 270835Z AUTO 27005KT 40SM 10/M01 A3009 RMK AO1 T01001010






000
SXUS55 KMSO 270823
OSOMSO
MONTANA AWOS SUMMARY
NATIONAL WEATHER SERVICE MISSOULA MT
123 AM MST FRI MAR 27 2015

Montana AWOS Reports

TWIN BRIDGES|K7S1 270815Z AUTO 12004KT 40SM 05/M01 A3023 RMK AO1 T00501010
ROUNDUP     |KRPX 270815Z AUTO 25005KT 40SM 11/01 A2999 RMK AO1 T01060006
MALTA       |KM75 270815Z AUTO 27004KT 40SM 04/00 A2995 RMK AO1 T00440000
LAUREL      |K6S8 270815Z AUTO 28005KT 40SM 10/M01 A3009 RMK AO1 T01001010






000
SXUS55 KMSO 270823
OSOMSO
MONTANA AWOS SUMMARY
NATIONAL WEATHER SERVICE MISSOULA MT
123 AM MST FRI MAR 27 2015

Montana AWOS Reports

TWIN BRIDGES|K7S1 270815Z AUTO 12004KT 40SM 05/M01 A3023 RMK AO1 T00501010
ROUNDUP     |KRPX 270815Z AUTO 25005KT 40SM 11/01 A2999 RMK AO1 T01060006
MALTA       |KM75 270815Z AUTO 27004KT 40SM 04/00 A2995 RMK AO1 T00440000
LAUREL      |K6S8 270815Z AUTO 28005KT 40SM 10/M01 A3009 RMK AO1 T01001010






000
SXUS55 KMSO 270813
OSOMSO
MONTANA AWOS SUMMARY
NATIONAL WEATHER SERVICE MISSOULA MT
113 AM MST FRI MAR 27 2015

Montana AWOS Reports

EKALAKA     |K97M 270755Z AUTO 12009G14KT 40SM 02/M02 A3002 RMK AO1 T00221021






000
SXUS55 KMSO 270803
OSOMSO
MONTANA AWOS SUMMARY
NATIONAL WEATHER SERVICE MISSOULA MT
103 AM MST FRI MAR 27 2015

Montana AWOS Reports

ROUNDUP     |KRPX 270755Z AUTO 23006KT 40SM 11/01 A3000 RMK AO1 T01060011
MALTA       |KM75 270755Z AUTO 28004KT 40SM 04/M01 A2995 RMK AO1 T00391005
PLAINS      |KS34 270755Z AUTO 25SM 03/01 A3022 RMK AO1 T00330011
TWIN BRIDGES|K7S1 270755Z AUTO 00000KT 40SM 07/M01 A3023 RMK AO1 T00721005
LAUREL      |K6S8 270755Z AUTO 27006KT 40SM 10/M01 A3009 RMK AO1 T01001010
SCOBEY      |K9S2 270755Z AUTO 15005KT 25SM 02/M03 A2996 RMK AO1 T00171027






000
SXUS55 KMSO 270743
OSOMSO
MONTANA AWOS SUMMARY
NATIONAL WEATHER SERVICE MISSOULA MT
1243 AM MST FRI MAR 27 2015

Montana AWOS Reports

ROUNDUP     |KRPX 270735Z AUTO 24007KT 40SM 11/01 A3000 RMK AO1 T01110006
MALTA       |KM75 270735Z AUTO 00000KT 40SM 04/M01 A2995 RMK AO1 T00391010
LAUREL      |K6S8 270735Z AUTO 28005KT 40SM 09/M02 A3009 RMK AO1 T00891016






000
SXUS55 KMSO 270743
OSOMSO
MONTANA AWOS SUMMARY
NATIONAL WEATHER SERVICE MISSOULA MT
1243 AM MST FRI MAR 27 2015

Montana AWOS Reports

ROUNDUP     |KRPX 270735Z AUTO 24007KT 40SM 11/01 A3000 RMK AO1 T01110006
MALTA       |KM75 270735Z AUTO 00000KT 40SM 04/M01 A2995 RMK AO1 T00391010
LAUREL      |K6S8 270735Z AUTO 28005KT 40SM 09/M02 A3009 RMK AO1 T00891016






000
SXUS55 KMSO 270733
OSOMSO
MONTANA AWOS SUMMARY
NATIONAL WEATHER SERVICE MISSOULA MT
1233 AM MST FRI MAR 27 2015

Montana AWOS Reports

LAUREL      |K6S8 270715Z AUTO 00000KT 40SM 10/00 A3009 RMK AO1 T01000000






000
SXUS55 KMSO 270733
OSOMSO
MONTANA AWOS SUMMARY
NATIONAL WEATHER SERVICE MISSOULA MT
1233 AM MST FRI MAR 27 2015

Montana AWOS Reports

LAUREL      |K6S8 270715Z AUTO 00000KT 40SM 10/00 A3009 RMK AO1 T01000000






000
SXUS55 KMSO 270723
OSOMSO
MONTANA AWOS SUMMARY
NATIONAL WEATHER SERVICE MISSOULA MT
1223 AM MST FRI MAR 27 2015

Montana AWOS Reports

TWIN BRIDGES|K7S1 270715Z AUTO 11005KT 40SM 07/00 A3023 RMK AO1 T00670000
ROUNDUP     |KRPX 270715Z AUTO 22008KT 40SM 11/01 A3000 RMK AO1 T01110011
MALTA       |KM75 270715Z AUTO 00000KT 40SM 04/M01 A2996 RMK AO1 T00441005






000
SXUS55 KMSO 270723
OSOMSO
MONTANA AWOS SUMMARY
NATIONAL WEATHER SERVICE MISSOULA MT
1223 AM MST FRI MAR 27 2015

Montana AWOS Reports

TWIN BRIDGES|K7S1 270715Z AUTO 11005KT 40SM 07/00 A3023 RMK AO1 T00670000
ROUNDUP     |KRPX 270715Z AUTO 22008KT 40SM 11/01 A3000 RMK AO1 T01110011
MALTA       |KM75 270715Z AUTO 00000KT 40SM 04/M01 A2996 RMK AO1 T00441005






000
SXUS55 KMSO 270713
OSOMSO
MONTANA AWOS SUMMARY
NATIONAL WEATHER SERVICE MISSOULA MT
1212 AM MST FRI MAR 27 2015

Montana AWOS Reports

EKALAKA     |K97M 270655Z AUTO 10012G17KT 40SM 02/M02 A3003 RMK AO1 T00221021






000
SXUS55 KMSO 270713
OSOMSO
MONTANA AWOS SUMMARY
NATIONAL WEATHER SERVICE MISSOULA MT
1212 AM MST FRI MAR 27 2015

Montana AWOS Reports

EKALAKA     |K97M 270655Z AUTO 10012G17KT 40SM 02/M02 A3003 RMK AO1 T00221021






000
SXUS55 KMSO 270703
OSOMSO
MONTANA AWOS SUMMARY
NATIONAL WEATHER SERVICE MISSOULA MT
1203 AM MST FRI MAR 27 2015

Montana AWOS Reports

PLAINS      |KS34 270655Z AUTO 25SM 04/02 A3022 RMK AO1 T00440022
LAUREL      |K6S8 270655Z AUTO 27005KT 40SM 11/01 A3009 RMK AO1 T01110006
TWIN BRIDGES|K7S1 270655Z AUTO 00000KT 40SM 08/01 A3023 RMK AO1 T00780006
ROUNDUP     |KRPX 270655Z AUTO 23005KT 40SM 11/01 A3000 RMK AO1 T01060011
MALTA       |KM75 270655Z AUTO 00000KT 40SM 04/M01 A2996 RMK AO1 T00441005
SCOBEY      |K9S2 270655Z AUTO 14004KT 25SM 02/M03 A2998 RMK AO1 T00171027






000
SXUS55 KMSO 270703
OSOMSO
MONTANA AWOS SUMMARY
NATIONAL WEATHER SERVICE MISSOULA MT
1203 AM MST FRI MAR 27 2015

Montana AWOS Reports

PLAINS      |KS34 270655Z AUTO 25SM 04/02 A3022 RMK AO1 T00440022
LAUREL      |K6S8 270655Z AUTO 27005KT 40SM 11/01 A3009 RMK AO1 T01110006
TWIN BRIDGES|K7S1 270655Z AUTO 00000KT 40SM 08/01 A3023 RMK AO1 T00780006
ROUNDUP     |KRPX 270655Z AUTO 23005KT 40SM 11/01 A3000 RMK AO1 T01060011
MALTA       |KM75 270655Z AUTO 00000KT 40SM 04/M01 A2996 RMK AO1 T00441005
SCOBEY      |K9S2 270655Z AUTO 14004KT 25SM 02/M03 A2998 RMK AO1 T00171027






000
SXUS55 KMSO 270653
OSOMSO
MONTANA AWOS SUMMARY
NATIONAL WEATHER SERVICE MISSOULA MT
1153 PM MST THU MAR 26 2015

Montana AWOS Reports

LAUREL      |K6S8 270635Z AUTO 30005KT 40SM 11/00 A3010 RMK AO1 T01060000
TWIN BRIDGES|K7S1 270635Z AUTO 00000KT 40SM 09/01 A3024 RMK AO1 T00890006
ROUNDUP     |KRPX 270635Z AUTO 22005KT 40SM 11/01 A3000 RMK AO1 T01060011
MALTA       |KM75 270635Z AUTO 00000KT 40SM 06/00 A2996 RMK AO1 T00560000






000
SXUS55 KMSO 270653
OSOMSO
MONTANA AWOS SUMMARY
NATIONAL WEATHER SERVICE MISSOULA MT
1153 PM MST THU MAR 26 2015

Montana AWOS Reports

LAUREL      |K6S8 270635Z AUTO 30005KT 40SM 11/00 A3010 RMK AO1 T01060000
TWIN BRIDGES|K7S1 270635Z AUTO 00000KT 40SM 09/01 A3024 RMK AO1 T00890006
ROUNDUP     |KRPX 270635Z AUTO 22005KT 40SM 11/01 A3000 RMK AO1 T01060011
MALTA       |KM75 270635Z AUTO 00000KT 40SM 06/00 A2996 RMK AO1 T00560000






000
SXUS55 KMSO 270623
OSOMSO
MONTANA AWOS SUMMARY
NATIONAL WEATHER SERVICE MISSOULA MT
1123 PM MST THU MAR 26 2015

Montana AWOS Reports

LAUREL      |K6S8 270615Z AUTO 27005KT 40SM 11/00 A3011 RMK AO1 T01110000
TWIN BRIDGES|K7S1 270615Z AUTO 00000KT 40SM 10/01 A3024 RMK AO1 T01000006
ROUNDUP     |KRPX 270615Z AUTO 24006KT 40SM 11/01 A3000 RMK AO1 T01110011
MALTA       |KM75 270615Z AUTO 00000KT 40SM 06/M01 A2997 RMK AO1 T00561005
EKALAKA     |K97M 270555Z AUTO 11011G16KT 40SM 02/M02 A3005 RMK AO1 T00171021






000
SXUS55 KMSO 270623
OSOMSO
MONTANA AWOS SUMMARY
NATIONAL WEATHER SERVICE MISSOULA MT
1123 PM MST THU MAR 26 2015

Montana AWOS Reports

LAUREL      |K6S8 270615Z AUTO 27005KT 40SM 11/00 A3011 RMK AO1 T01110000
TWIN BRIDGES|K7S1 270615Z AUTO 00000KT 40SM 10/01 A3024 RMK AO1 T01000006
ROUNDUP     |KRPX 270615Z AUTO 24006KT 40SM 11/01 A3000 RMK AO1 T01110011
MALTA       |KM75 270615Z AUTO 00000KT 40SM 06/M01 A2997 RMK AO1 T00561005
EKALAKA     |K97M 270555Z AUTO 11011G16KT 40SM 02/M02 A3005 RMK AO1 T00171021






000
SXUS55 KMSO 270613
OSOMSO
MONTANA AWOS SUMMARY
NATIONAL WEATHER SERVICE MISSOULA MT
1113 PM MST THU MAR 26 2015

Montana AWOS Reports

PLAINS      |KS34 270555Z AUTO 15SM 05/02 A3023 RMK AO1 T00500022
SCOBEY      |K9S2 270555Z AUTO 15008KT 25SM 02/M03 A3001 RMK AO1 T00221027






000
SXUS55 KMSO 270613
OSOMSO
MONTANA AWOS SUMMARY
NATIONAL WEATHER SERVICE MISSOULA MT
1113 PM MST THU MAR 26 2015

Montana AWOS Reports

PLAINS      |KS34 270555Z AUTO 15SM 05/02 A3023 RMK AO1 T00500022
SCOBEY      |K9S2 270555Z AUTO 15008KT 25SM 02/M03 A3001 RMK AO1 T00221027






000
SXUS55 KMSO 270544
OSOMSO
MONTANA AWOS SUMMARY
NATIONAL WEATHER SERVICE MISSOULA MT
1043 PM MST THU MAR 26 2015

Montana AWOS Reports

LAUREL      |K6S8 270535Z AUTO 00000KT 40SM 11/00 A3010 RMK AO1 T01060000
TWIN BRIDGES|K7S1 270535Z AUTO 00000KT 40SM 09/00 A3025 RMK AO1 T00940000
ROUNDUP     |KRPX 270535Z AUTO 26009KT 40SM 12/01 A3000 RMK AO1 T01220006
MALTA       |KM75 270535Z AUTO 00000KT 40SM 06/00 A2998 RMK AO1 T00610000






000
SXUS55 KMSO 270544
OSOMSO
MONTANA AWOS SUMMARY
NATIONAL WEATHER SERVICE MISSOULA MT
1043 PM MST THU MAR 26 2015

Montana AWOS Reports

LAUREL      |K6S8 270535Z AUTO 00000KT 40SM 11/00 A3010 RMK AO1 T01060000
TWIN BRIDGES|K7S1 270535Z AUTO 00000KT 40SM 09/00 A3025 RMK AO1 T00940000
ROUNDUP     |KRPX 270535Z AUTO 26009KT 40SM 12/01 A3000 RMK AO1 T01220006
MALTA       |KM75 270535Z AUTO 00000KT 40SM 06/00 A2998 RMK AO1 T00610000






000
SXUS55 KMSO 270523
OSOMSO
MONTANA AWOS SUMMARY
NATIONAL WEATHER SERVICE MISSOULA MT
1023 PM MST THU MAR 26 2015

Montana AWOS Reports

LAUREL      |K6S8 270515Z AUTO 00000KT 40SM 12/01 A3010 RMK AO1 T01170011
TWIN BRIDGES|K7S1 270515Z AUTO 00000KT 40SM 11/01 A3025 RMK AO1 T01060006
ROUNDUP     |KRPX 270515Z AUTO 26007KT 40SM 13/02 A3000 RMK AO1 T01330017
MALTA       |KM75 270515Z AUTO 00000KT 40SM 07/00 A2998 RMK AO1 T00670000






000
SXUS55 KMSO 270523
OSOMSO
MONTANA AWOS SUMMARY
NATIONAL WEATHER SERVICE MISSOULA MT
1023 PM MST THU MAR 26 2015

Montana AWOS Reports

LAUREL      |K6S8 270515Z AUTO 00000KT 40SM 12/01 A3010 RMK AO1 T01170011
TWIN BRIDGES|K7S1 270515Z AUTO 00000KT 40SM 11/01 A3025 RMK AO1 T01060006
ROUNDUP     |KRPX 270515Z AUTO 26007KT 40SM 13/02 A3000 RMK AO1 T01330017
MALTA       |KM75 270515Z AUTO 00000KT 40SM 07/00 A2998 RMK AO1 T00670000






000
SXUS55 KMSO 270514
OSOMSO
MONTANA AWOS SUMMARY
NATIONAL WEATHER SERVICE MISSOULA MT
1013 PM MST THU MAR 26 2015

Montana AWOS Reports

SCOBEY      |K9S2 270455Z AUTO 13009G16KT 25SM 02/M03 A3003 RMK AO1 T00221032






000
SXUS55 KMSO 270514
OSOMSO
MONTANA AWOS SUMMARY
NATIONAL WEATHER SERVICE MISSOULA MT
1013 PM MST THU MAR 26 2015

Montana AWOS Reports

SCOBEY      |K9S2 270455Z AUTO 13009G16KT 25SM 02/M03 A3003 RMK AO1 T00221032






000
SXUS55 KMSO 270503
OSOMSO
MONTANA AWOS SUMMARY
NATIONAL WEATHER SERVICE MISSOULA MT
1003 PM MST THU MAR 26 2015

Montana AWOS Reports

LAUREL      |K6S8 270455Z AUTO 29005KT 40SM 12/01 A3010 RMK AO1 T01220006
TWIN BRIDGES|K7S1 270455Z AUTO 00000KT 40SM 12/00 A3025 RMK AO1 T01220000
ROUNDUP     |KRPX 270455Z AUTO 26010KT 40SM 13/01 A3000 RMK AO1 T01330011
MALTA       |KM75 270455Z AUTO 00000KT 40SM 07/M01 A2998 RMK AO1 T00671010
PLAINS      |KS34 270455Z AUTO 25SM 06/03 A3023 RMK AO1 T00610033






000
SXUS55 KMSO 270503
OSOMSO
MONTANA AWOS SUMMARY
NATIONAL WEATHER SERVICE MISSOULA MT
1003 PM MST THU MAR 26 2015

Montana AWOS Reports

LAUREL      |K6S8 270455Z AUTO 29005KT 40SM 12/01 A3010 RMK AO1 T01220006
TWIN BRIDGES|K7S1 270455Z AUTO 00000KT 40SM 12/00 A3025 RMK AO1 T01220000
ROUNDUP     |KRPX 270455Z AUTO 26010KT 40SM 13/01 A3000 RMK AO1 T01330011
MALTA       |KM75 270455Z AUTO 00000KT 40SM 07/M01 A2998 RMK AO1 T00671010
PLAINS      |KS34 270455Z AUTO 25SM 06/03 A3023 RMK AO1 T00610033






000
SXUS55 KMSO 270443
OSOMSO
MONTANA AWOS SUMMARY
NATIONAL WEATHER SERVICE MISSOULA MT
943 PM MST THU MAR 26 2015

Montana AWOS Reports

LAUREL      |K6S8 270435Z AUTO 28006KT 40SM 13/01 A3010 RMK AO1 T01280011
TWIN BRIDGES|K7S1 270435Z AUTO 00000KT 40SM 12/00 A3025 RMK AO1 T01220000
ROUNDUP     |KRPX 270435Z AUTO 25007KT 40SM 14/02 A3000 RMK AO1 T01390017
MALTA       |KM75 270435Z AUTO 00000KT 40SM 07/M01 A2999 RMK AO1 T00721010






000
SXUS55 KMSO 270423
OSOMSO
MONTANA AWOS SUMMARY
NATIONAL WEATHER SERVICE MISSOULA MT
923 PM MST THU MAR 26 2015

Montana AWOS Reports

LAUREL      |K6S8 270415Z AUTO 28011KT 40SM 13/01 A3010 RMK AO1 T01330011
TWIN BRIDGES|K7S1 270415Z AUTO 29004KT 40SM 12/00 A3025 RMK AO1 T01220000
ROUNDUP     |KRPX 270415Z AUTO 26007KT 40SM 14/02 A2999 RMK AO1 T01440017
MALTA       |KM75 270415Z AUTO 00000KT 40SM 08/M01 A2999 RMK AO1 T00781010
EKALAKA     |K97M 270355Z AUTO 12007KT 40SM 03/M02 A3007 RMK AO1 T00331016
PLAINS      |KS34 270355Z AUTO 00000KT 40SM 08/04 A3024 RMK AO1 T00780039






000
SXUS55 KMSO 270413
OSOMSO
MONTANA AWOS SUMMARY
NATIONAL WEATHER SERVICE MISSOULA MT
913 PM MST THU MAR 26 2015

Montana AWOS Reports

SCOBEY      |K9S2 270355Z AUTO 13011G15KT 25SM 02/M03 A3004 RMK AO1 T00221032






000
SXUS55 KMSO 270403
OSOMSO
MONTANA AWOS SUMMARY
NATIONAL WEATHER SERVICE MISSOULA MT
903 PM MST THU MAR 26 2015

Montana AWOS Reports

LAUREL      |K6S8 270355Z AUTO 27010G15KT 40SM 14/01 A3009 RMK AO1 T01390011
ROUNDUP     |KRPX 270355Z AUTO 27010G14KT 40SM 14/02 A2999 RMK AO1 T01440017
MALTA       |KM75 270355Z AUTO 00000KT 40SM 08/M01 A2999 RMK AO1 T00781010
TWIN BRIDGES|K7S1 270355Z AUTO 29004KT 40SM 12/M01 A3024 RMK AO1 T01221005






000
SXUS55 KMSO 270403
OSOMSO
MONTANA AWOS SUMMARY
NATIONAL WEATHER SERVICE MISSOULA MT
903 PM MST THU MAR 26 2015

Montana AWOS Reports

LAUREL      |K6S8 270355Z AUTO 27010G15KT 40SM 14/01 A3009 RMK AO1 T01390011
ROUNDUP     |KRPX 270355Z AUTO 27010G14KT 40SM 14/02 A2999 RMK AO1 T01440017
MALTA       |KM75 270355Z AUTO 00000KT 40SM 08/M01 A2999 RMK AO1 T00781010
TWIN BRIDGES|K7S1 270355Z AUTO 29004KT 40SM 12/M01 A3024 RMK AO1 T01221005






000
SXUS55 KMSO 270353
OSOMSO
MONTANA AWOS SUMMARY
NATIONAL WEATHER SERVICE MISSOULA MT
852 PM MST THU MAR 26 2015

Montana AWOS Reports

LAUREL      |K6S8 270335Z AUTO 27010G15KT 40SM 14/01 A3009 RMK AO1 T01390011
TWIN BRIDGES|K7S1 270335Z AUTO 34004KT 40SM 12/00 A3024 RMK AO1 T01220000
ROUNDUP     |KRPX 270335Z AUTO 28009G13KT 40SM 14/01 A2999 RMK AO1 T01390011
MALTA       |KM75 270335Z AUTO 00000KT 40SM 08/M02 A2999 RMK AO1 T00781016






000
SXUS55 KMSO 270353
OSOMSO
MONTANA AWOS SUMMARY
NATIONAL WEATHER SERVICE MISSOULA MT
852 PM MST THU MAR 26 2015

Montana AWOS Reports

LAUREL      |K6S8 270335Z AUTO 27010G15KT 40SM 14/01 A3009 RMK AO1 T01390011
TWIN BRIDGES|K7S1 270335Z AUTO 34004KT 40SM 12/00 A3024 RMK AO1 T01220000
ROUNDUP     |KRPX 270335Z AUTO 28009G13KT 40SM 14/01 A2999 RMK AO1 T01390011
MALTA       |KM75 270335Z AUTO 00000KT 40SM 08/M02 A2999 RMK AO1 T00781016






000
SXUS55 KMSO 270323
OSOMSO
MONTANA AWOS SUMMARY
NATIONAL WEATHER SERVICE MISSOULA MT
823 PM MST THU MAR 26 2015

Montana AWOS Reports

LAUREL      |K6S8 270315Z AUTO 26009G13KT 40SM 14/01 A3009 RMK AO1 T01440011
ROUNDUP     |KRPX 270315Z AUTO 30004KT 40SM 14/01 A2999 RMK AO1 T01390011
MALTA       |KM75 270315Z AUTO 00000KT 40SM 08/M02 A2999 RMK AO1 T00831021
TWIN BRIDGES|K7S1 270315Z AUTO 00000KT 40SM 12/00 A3024 RMK AO1 T01220000






000
SXUS55 KMSO 270303
OSOMSO
MONTANA AWOS SUMMARY
NATIONAL WEATHER SERVICE MISSOULA MT
803 PM MST THU MAR 26 2015

Montana AWOS Reports

LAUREL      |K6S8 270255Z AUTO 26009KT 40SM 15/01 A3008 RMK AO1 T01500011
TWIN BRIDGES|K7S1 270255Z AUTO 28004KT 40SM 12/00 A3024 RMK AO1 T01220000
ROUNDUP     |KRPX 270255Z AUTO 00000KT 40SM 14/02 A2998 RMK AO1 T01440017
MALTA       |KM75 270255Z AUTO 00000KT 40SM 08/M02 A2999 RMK AO1 T00831016
SCOBEY      |K9S2 270255Z AUTO 13009G14KT 25SM 02/M03 A3005 RMK AO1 T00221032
EKALAKA     |K97M 270255Z AUTO 11010KT 40SM 04/M02 A3007 RMK AO1 T00441016
PLAINS      |KS34 270255Z AUTO 00000KT 40SM 10/05 A3024 RMK AO1 T01000050






000
SXUS55 KMSO 270243
OSOMSO
MONTANA AWOS SUMMARY
NATIONAL WEATHER SERVICE MISSOULA MT
743 PM MST THU MAR 26 2015

Montana AWOS Reports

LAUREL      |K6S8 270235Z AUTO 26011KT 40SM 15/01 A3007 RMK AO1 T01500011
ROUNDUP     |KRPX 270235Z AUTO 00000KT 40SM 14/02 A2997 RMK AO1 T01440017
MALTA       |KM75 270235Z AUTO 00000KT 40SM 09/M02 A2998 RMK AO1 T00891016






000
SXUS55 KMSO 270223
OSOMSO
MONTANA AWOS SUMMARY
NATIONAL WEATHER SERVICE MISSOULA MT
722 PM MST THU MAR 26 2015

Montana AWOS Reports

LAUREL      |K6S8 270215Z AUTO 25007KT 40SM 15/01 A3007 RMK AO1 T01500011
MALTA       |KM75 270215Z AUTO 00000KT 40SM 09/M01 A2998 RMK AO1 T00941010
TWIN BRIDGES|K7S1 270215Z AUTO 27006KT 40SM 13/00 A3023 RMK AO1 T01330000
ROUNDUP     |KRPX 270215Z AUTO 21005KT 40SM 14/02 A2996 RMK AO1 T01390017






000
SXUS55 KMSO 270223
OSOMSO
MONTANA AWOS SUMMARY
NATIONAL WEATHER SERVICE MISSOULA MT
722 PM MST THU MAR 26 2015

Montana AWOS Reports

LAUREL      |K6S8 270215Z AUTO 25007KT 40SM 15/01 A3007 RMK AO1 T01500011
MALTA       |KM75 270215Z AUTO 00000KT 40SM 09/M01 A2998 RMK AO1 T00941010
TWIN BRIDGES|K7S1 270215Z AUTO 27006KT 40SM 13/00 A3023 RMK AO1 T01330000
ROUNDUP     |KRPX 270215Z AUTO 21005KT 40SM 14/02 A2996 RMK AO1 T01390017






000
SXUS55 KMSO 270213
OSOMSO
MONTANA AWOS SUMMARY
NATIONAL WEATHER SERVICE MISSOULA MT
713 PM MST THU MAR 26 2015

Montana AWOS Reports

SCOBEY      |K9S2 270155Z AUTO 11007KT 25SM 02/M03 A3007 RMK AO1 T00221032
EKALAKA     |K97M 270155Z AUTO 07005KT 40SM 06/M02 A3007 RMK AO1 T00561021
MALTA       |KM75 270155Z AUTO 00000KT 40SM 10/M01 A2998 RMK AO1 T01001005






000
SXUS55 KMSO 270203
OSOMSO
MONTANA AWOS SUMMARY
NATIONAL WEATHER SERVICE MISSOULA MT
703 PM MST THU MAR 26 2015

Montana AWOS Reports

LAUREL      |K6S8 270155Z AUTO 00000KT 40SM 16/01 A3006 RMK AO1 T01560011
TWIN BRIDGES|K7S1 270155Z AUTO 27007KT 40SM 14/00 A3023 RMK AO1 T01390000
ROUNDUP     |KRPX 270155Z AUTO 00000KT 40SM 13/02 A2996 RMK AO1 T01280022
MALTA       |KM75 270155Z AUTO 00000KT 40SM 10/M01 A2998 RMK AO1 T01001005
PLAINS      |KS34 270155Z AUTO 00000KT 40SM 14/06 A3023 RMK AO1 T01390056






000
SXUS55 KMSO 270203
OSOMSO
MONTANA AWOS SUMMARY
NATIONAL WEATHER SERVICE MISSOULA MT
703 PM MST THU MAR 26 2015

Montana AWOS Reports

LAUREL      |K6S8 270155Z AUTO 00000KT 40SM 16/01 A3006 RMK AO1 T01560011
TWIN BRIDGES|K7S1 270155Z AUTO 27007KT 40SM 14/00 A3023 RMK AO1 T01390000
ROUNDUP     |KRPX 270155Z AUTO 00000KT 40SM 13/02 A2996 RMK AO1 T01280022
MALTA       |KM75 270155Z AUTO 00000KT 40SM 10/M01 A2998 RMK AO1 T01001005
PLAINS      |KS34 270155Z AUTO 00000KT 40SM 14/06 A3023 RMK AO1 T01390056






000
SXUS55 KMSO 270143
OSOMSO
MONTANA AWOS SUMMARY
NATIONAL WEATHER SERVICE MISSOULA MT
642 PM MST THU MAR 26 2015

Montana AWOS Reports

LAUREL      |K6S8 270135Z AUTO 26007KT 40SM 16/01 A3006 RMK AO1 T01610011
ROUNDUP     |KRPX 270135Z AUTO 00000KT 40SM 13/03 A2996 RMK AO1 T01280028
TWIN BRIDGES|K7S1 270135Z AUTO 26007KT 40SM 14/00 A3022 RMK AO1 T01440000






000
SXUS55 KMSO 270123
OSOMSO
MONTANA AWOS SUMMARY
NATIONAL WEATHER SERVICE MISSOULA MT
623 PM MST THU MAR 26 2015

Montana AWOS Reports

LAUREL      |K6S8 270115Z AUTO 27011KT 40SM 17/01 A3006 RMK AO1 T01670006
TWIN BRIDGES|K7S1 270115Z AUTO 25008KT 40SM 15/00 A3022 RMK AO1 T01500000
ROUNDUP     |KRPX 270115Z AUTO 00000KT 40SM 13/02 A2996 RMK AO1 T01330022






000
SXUS55 KMSO 270123
OSOMSO
MONTANA AWOS SUMMARY
NATIONAL WEATHER SERVICE MISSOULA MT
623 PM MST THU MAR 26 2015

Montana AWOS Reports

LAUREL      |K6S8 270115Z AUTO 27011KT 40SM 17/01 A3006 RMK AO1 T01670006
TWIN BRIDGES|K7S1 270115Z AUTO 25008KT 40SM 15/00 A3022 RMK AO1 T01500000
ROUNDUP     |KRPX 270115Z AUTO 00000KT 40SM 13/02 A2996 RMK AO1 T01330022






000
SXUS55 KMSO 270103
OSOMSO
MONTANA AWOS SUMMARY
NATIONAL WEATHER SERVICE MISSOULA MT
603 PM MST THU MAR 26 2015

Montana AWOS Reports

LAUREL      |K6S8 270055Z AUTO 00000KT 40SM 17/02 A3006 RMK AO1 T01720017
SCOBEY      |K9S2 270055Z AUTO 11007KT 25SM 02/M03 A3007 RMK AO1 T00221032
EKALAKA     |K97M 270055Z AUTO 04004KT 40SM 08/M03 A3007 RMK AO1 T00781027
TWIN BRIDGES|K7S1 270055Z AUTO 25009G14KT 40SM 15/00 A3022 RMK AO1 T01500000
ROUNDUP     |KRPX 270055Z AUTO 00000KT 40SM 13/02 A2996 RMK AO1 T01330022
MALTA       |KM75 270055Z AUTO 00000KT 40SM 13/01 A2998 RMK AO1 T01280006
PLAINS      |KS34 270055Z AUTO 00000KT 40SM 17/06 A3024 RMK AO1 T01670056






000
SXUS55 KMSO 270103
OSOMSO
MONTANA AWOS SUMMARY
NATIONAL WEATHER SERVICE MISSOULA MT
603 PM MST THU MAR 26 2015

Montana AWOS Reports

LAUREL      |K6S8 270055Z AUTO 00000KT 40SM 17/02 A3006 RMK AO1 T01720017
SCOBEY      |K9S2 270055Z AUTO 11007KT 25SM 02/M03 A3007 RMK AO1 T00221032
EKALAKA     |K97M 270055Z AUTO 04004KT 40SM 08/M03 A3007 RMK AO1 T00781027
TWIN BRIDGES|K7S1 270055Z AUTO 25009G14KT 40SM 15/00 A3022 RMK AO1 T01500000
ROUNDUP     |KRPX 270055Z AUTO 00000KT 40SM 13/02 A2996 RMK AO1 T01330022
MALTA       |KM75 270055Z AUTO 00000KT 40SM 13/01 A2998 RMK AO1 T01280006
PLAINS      |KS34 270055Z AUTO 00000KT 40SM 17/06 A3024 RMK AO1 T01670056






000
SXUS55 KMSO 270044
OSOMSO
MONTANA AWOS SUMMARY
NATIONAL WEATHER SERVICE MISSOULA MT
543 PM MST THU MAR 26 2015

Montana AWOS Reports

LAUREL      |K6S8 270035Z AUTO 27008KT 40SM 18/01 A3006 RMK AO1 T01780011
TWIN BRIDGES|K7S1 270035Z AUTO 24012G17KT 40SM 15/00 A3022 RMK AO1 T01500000
ROUNDUP     |KRPX 270035Z AUTO 00000KT 40SM 14/02 A2996 RMK AO1 T01390022
MALTA       |KM75 270035Z AUTO 00000KT 40SM 13/01 A2998 RMK AO1 T01330006






000
SXUS55 KMSO 270044
OSOMSO
MONTANA AWOS SUMMARY
NATIONAL WEATHER SERVICE MISSOULA MT
543 PM MST THU MAR 26 2015

Montana AWOS Reports

LAUREL      |K6S8 270035Z AUTO 27008KT 40SM 18/01 A3006 RMK AO1 T01780011
TWIN BRIDGES|K7S1 270035Z AUTO 24012G17KT 40SM 15/00 A3022 RMK AO1 T01500000
ROUNDUP     |KRPX 270035Z AUTO 00000KT 40SM 14/02 A2996 RMK AO1 T01390022
MALTA       |KM75 270035Z AUTO 00000KT 40SM 13/01 A2998 RMK AO1 T01330006






000
SXUS55 KMSO 270023
OSOMSO
MONTANA AWOS SUMMARY
NATIONAL WEATHER SERVICE MISSOULA MT
523 PM MST THU MAR 26 2015

Montana AWOS Reports

LAUREL      |K6S8 270015Z AUTO 29012G21KT 40SM 17/01 A3006 RMK AO1 T01720006
TWIN BRIDGES|K7S1 270015Z AUTO 25010G15KT 40SM 15/00 A3022 RMK AO1 T01500000
ROUNDUP     |KRPX 270015Z AUTO 00000KT 40SM 14/03 A2997 RMK AO1 T01440028






000
SXUS55 KMSO 270023
OSOMSO
MONTANA AWOS SUMMARY
NATIONAL WEATHER SERVICE MISSOULA MT
523 PM MST THU MAR 26 2015

Montana AWOS Reports

LAUREL      |K6S8 270015Z AUTO 29012G21KT 40SM 17/01 A3006 RMK AO1 T01720006
TWIN BRIDGES|K7S1 270015Z AUTO 25010G15KT 40SM 15/00 A3022 RMK AO1 T01500000
ROUNDUP     |KRPX 270015Z AUTO 00000KT 40SM 14/03 A2997 RMK AO1 T01440028






000
SXUS55 KMSO 270013
OSOMSO
MONTANA AWOS SUMMARY
NATIONAL WEATHER SERVICE MISSOULA MT
513 PM MST THU MAR 26 2015

Montana AWOS Reports

MALTA       |KM75 262355Z AUTO 06007KT 40SM 14/00 A2998 RMK AO1 T01440000






000
SXUS55 KMSO 270013
OSOMSO
MONTANA AWOS SUMMARY
NATIONAL WEATHER SERVICE MISSOULA MT
513 PM MST THU MAR 26 2015

Montana AWOS Reports

MALTA       |KM75 262355Z AUTO 06007KT 40SM 14/00 A2998 RMK AO1 T01440000






000
SXUS55 KMSO 270003
OSOMSO
MONTANA AWOS SUMMARY
NATIONAL WEATHER SERVICE MISSOULA MT
503 PM MST THU MAR 26 2015

Montana AWOS Reports

LAUREL      |K6S8 262355Z AUTO 26015G24KT 40SM 18/01 A3006 RMK AO1 T01780011
TWIN BRIDGES|K7S1 262355Z AUTO 25013G17KT 40SM 16/01 A3022 RMK AO1 T01560006
ROUNDUP     |KRPX 262355Z AUTO 00000KT 40SM 14/01 A2997 RMK AO1 T01440011
SCOBEY      |K9S2 262355Z AUTO 11007KT 25SM 03/M03 A3009 RMK AO1 T00331027
EKALAKA     |K97M 262355Z AUTO 00000KT 40SM 09/M04 A3007 RMK AO1 T00891038






000
SXUS55 KMSO 270003
OSOMSO
MONTANA AWOS SUMMARY
NATIONAL WEATHER SERVICE MISSOULA MT
503 PM MST THU MAR 26 2015

Montana AWOS Reports

LAUREL      |K6S8 262355Z AUTO 26015G24KT 40SM 18/01 A3006 RMK AO1 T01780011
TWIN BRIDGES|K7S1 262355Z AUTO 25013G17KT 40SM 16/01 A3022 RMK AO1 T01560006
ROUNDUP     |KRPX 262355Z AUTO 00000KT 40SM 14/01 A2997 RMK AO1 T01440011
SCOBEY      |K9S2 262355Z AUTO 11007KT 25SM 03/M03 A3009 RMK AO1 T00331027
EKALAKA     |K97M 262355Z AUTO 00000KT 40SM 09/M04 A3007 RMK AO1 T00891038






000
SXUS55 KMSO 262343
OSOMSO
MONTANA AWOS SUMMARY
NATIONAL WEATHER SERVICE MISSOULA MT
443 PM MST THU MAR 26 2015

Montana AWOS Reports

LAUREL      |K6S8 262335Z AUTO 27011KT 40SM 17/01 A3006 RMK AO1 T01720011
TWIN BRIDGES|K7S1 262335Z AUTO 24010G18KT 40SM 16/01 A3022 RMK AO1 T01560006
ROUNDUP     |KRPX 262335Z AUTO 00000KT 40SM 15/02 A2998 RMK AO1 T01500017






000
SXUS55 KMSO 262343
OSOMSO
MONTANA AWOS SUMMARY
NATIONAL WEATHER SERVICE MISSOULA MT
443 PM MST THU MAR 26 2015

Montana AWOS Reports

LAUREL      |K6S8 262335Z AUTO 27011KT 40SM 17/01 A3006 RMK AO1 T01720011
TWIN BRIDGES|K7S1 262335Z AUTO 24010G18KT 40SM 16/01 A3022 RMK AO1 T01560006
ROUNDUP     |KRPX 262335Z AUTO 00000KT 40SM 15/02 A2998 RMK AO1 T01500017






000
SXUS55 KMSO 262323
OSOMSO
MONTANA AWOS SUMMARY
NATIONAL WEATHER SERVICE MISSOULA MT
422 PM MST THU MAR 26 2015

Montana AWOS Reports

LAUREL      |K6S8 262315Z AUTO 26012G18KT 40SM 17/01 A3006 RMK AO1 T01670006
TWIN BRIDGES|K7S1 262315Z AUTO 27010G19KT 40SM 15/00 A3022 RMK AO1 T01500000
ROUNDUP     |KRPX 262315Z AUTO 00000KT 40SM 15/02 A2998 RMK AO1 T01500022






000
SXUS55 KMSO 262313
OSOMSO
MONTANA AWOS SUMMARY
NATIONAL WEATHER SERVICE MISSOULA MT
413 PM MST THU MAR 26 2015

Montana AWOS Reports

TWIN BRIDGES|K7S1 262255Z AUTO 29010G17KT 40SM 16/M01 A3021 RMK AO1 T01611005
SCOBEY      |K9S2 262255Z AUTO 11009KT 25SM 03/M03 A3009 RMK AO1 T00331027
EKALAKA     |K97M 262255Z AUTO 00000KT 40SM 09/M06 A3006 RMK AO1 T00941055
MALTA       |KM75 262255Z AUTO 06004KT 40SM 16/01 A2998 RMK AO1 T01560006






000
SXUS55 KMSO 262313
OSOMSO
MONTANA AWOS SUMMARY
NATIONAL WEATHER SERVICE MISSOULA MT
413 PM MST THU MAR 26 2015

Montana AWOS Reports

TWIN BRIDGES|K7S1 262255Z AUTO 29010G17KT 40SM 16/M01 A3021 RMK AO1 T01611005
SCOBEY      |K9S2 262255Z AUTO 11009KT 25SM 03/M03 A3009 RMK AO1 T00331027
EKALAKA     |K97M 262255Z AUTO 00000KT 40SM 09/M06 A3006 RMK AO1 T00941055
MALTA       |KM75 262255Z AUTO 06004KT 40SM 16/01 A2998 RMK AO1 T01560006






000
SXUS55 KMSO 262303
OSOMSO
MONTANA AWOS SUMMARY
NATIONAL WEATHER SERVICE MISSOULA MT
403 PM MST THU MAR 26 2015

Montana AWOS Reports

LAUREL      |K6S8 262255Z AUTO 27013G20KT 40SM 17/01 A3006 RMK AO1 T01670006
ROUNDUP     |KRPX 262255Z AUTO 27009G13KT 40SM 15/01 A2998 RMK AO1 T01500011






000
SXUS55 KMSO 262303
OSOMSO
MONTANA AWOS SUMMARY
NATIONAL WEATHER SERVICE MISSOULA MT
403 PM MST THU MAR 26 2015

Montana AWOS Reports

LAUREL      |K6S8 262255Z AUTO 27013G20KT 40SM 17/01 A3006 RMK AO1 T01670006
ROUNDUP     |KRPX 262255Z AUTO 27009G13KT 40SM 15/01 A2998 RMK AO1 T01500011






000
SXUS55 KMSO 262243
OSOMSO
MONTANA AWOS SUMMARY
NATIONAL WEATHER SERVICE MISSOULA MT
343 PM MST THU MAR 26 2015

Montana AWOS Reports

LAUREL      |K6S8 262235Z AUTO 26017G22KT 40SM 17/00 A3006 RMK AO1 T01670000
ROUNDUP     |KRPX 262235Z AUTO 23013G19KT 40SM 15/02 A2998 RMK AO1 T01500017
TWIN BRIDGES|K7S1 262235Z AUTO 29010G17KT 40SM 16/M01 A3021 RMK AO1 T01561005
MALTA       |KM75 262235Z AUTO 00000KT 40SM 15/01 A2999 RMK AO1 T01500006






000
SXUS55 KMSO 262223
OSOMSO
MONTANA AWOS SUMMARY
NATIONAL WEATHER SERVICE MISSOULA MT
323 PM MST THU MAR 26 2015

Montana AWOS Reports

LAUREL      |K6S8 262215Z AUTO 27013G21KT 40SM 17/01 A3006 RMK AO1 T01670006
ROUNDUP     |KRPX 262215Z AUTO 26010G15KT 40SM 16/01 A2998 RMK AO1 T01610006
TWIN BRIDGES|K7S1 262215Z AUTO 27010KT 40SM 15/M01 A3021 RMK AO1 T01501010
MALTA       |KM75 262215Z AUTO 00000KT 40SM 15/00 A3000 RMK AO1 T01500000






000
SXUS55 KMSO 262223
OSOMSO
MONTANA AWOS SUMMARY
NATIONAL WEATHER SERVICE MISSOULA MT
323 PM MST THU MAR 26 2015

Montana AWOS Reports

LAUREL      |K6S8 262215Z AUTO 27013G21KT 40SM 17/01 A3006 RMK AO1 T01670006
ROUNDUP     |KRPX 262215Z AUTO 26010G15KT 40SM 16/01 A2998 RMK AO1 T01610006
TWIN BRIDGES|K7S1 262215Z AUTO 27010KT 40SM 15/M01 A3021 RMK AO1 T01501010
MALTA       |KM75 262215Z AUTO 00000KT 40SM 15/00 A3000 RMK AO1 T01500000






000
SXUS55 KMSO 262203
OSOMSO
MONTANA AWOS SUMMARY
NATIONAL WEATHER SERVICE MISSOULA MT
303 PM MST THU MAR 26 2015

Montana AWOS Reports

LAUREL      |K6S8 262155Z AUTO 25014G24KT 40SM 16/01 A3006 RMK AO1 T01610006
TWIN BRIDGES|K7S1 262155Z AUTO 28008KT 40SM 15/M01 A3021 RMK AO1 T01501010
ROUNDUP     |KRPX 262155Z AUTO 25012G16KT 40SM 16/M01 A2997 RMK AO1 T01611005
MALTA       |KM75 262155Z AUTO 00000KT 40SM 14/00 A3000 RMK AO1 T01440000
SCOBEY      |K9S2 262155Z AUTO 10008KT 25SM 04/M03 A3010 RMK AO1 T00391027
EKALAKA     |K97M 262155Z AUTO 34004KT 40SM 09/M04 A3006 RMK AO1 T00941043






000
SXUS55 KMSO 262203
OSOMSO
MONTANA AWOS SUMMARY
NATIONAL WEATHER SERVICE MISSOULA MT
303 PM MST THU MAR 26 2015

Montana AWOS Reports

LAUREL      |K6S8 262155Z AUTO 25014G24KT 40SM 16/01 A3006 RMK AO1 T01610006
TWIN BRIDGES|K7S1 262155Z AUTO 28008KT 40SM 15/M01 A3021 RMK AO1 T01501010
ROUNDUP     |KRPX 262155Z AUTO 25012G16KT 40SM 16/M01 A2997 RMK AO1 T01611005
MALTA       |KM75 262155Z AUTO 00000KT 40SM 14/00 A3000 RMK AO1 T01440000
SCOBEY      |K9S2 262155Z AUTO 10008KT 25SM 04/M03 A3010 RMK AO1 T00391027
EKALAKA     |K97M 262155Z AUTO 34004KT 40SM 09/M04 A3006 RMK AO1 T00941043






000
SXUS55 KMSO 262143
OSOMSO
MONTANA AWOS SUMMARY
NATIONAL WEATHER SERVICE MISSOULA MT
243 PM MST THU MAR 26 2015

Montana AWOS Reports

LAUREL      |K6S8 262135Z AUTO 40SM 16/01 A3006 RMK AO1 T01610006
ROUNDUP     |KRPX 262135Z AUTO 00000KT 40SM 16/M01 A2997 RMK AO1 T01611005
MALTA       |KM75 262135Z AUTO 00000KT 40SM 14/00 A3000 RMK AO1 T01440000
TWIN BRIDGES|K7S1 262135Z AUTO 28007KT 40SM 15/M01 A3021 RMK AO1 T01501010






000
SXUS55 KMSO 262133
OSOMSO
MONTANA AWOS SUMMARY
NATIONAL WEATHER SERVICE MISSOULA MT
232 PM MST THU MAR 26 2015

Montana AWOS Reports

LAUREL      |K6S8 262115Z AUTO 24015G21KT 40SM 17/00 A3007 RMK AO1 T01670000
TWIN BRIDGES|K7S1 262115Z AUTO 27009G14KT 40SM 15/M01 A3021 RMK AO1 T01501010
ROUNDUP     |KRPX 262115Z AUTO 28006KT 40SM 16/M01 A2997 RMK AO1 T01611005
MALTA       |KM75 262115Z AUTO 00000KT 40SM 14/00 A3001 RMK AO1 T01390000






000
SXUS55 KMSO 262103
OSOMSO
MONTANA AWOS SUMMARY
NATIONAL WEATHER SERVICE MISSOULA MT
203 PM MST THU MAR 26 2015

Montana AWOS Reports

LAUREL      |K6S8 262055Z AUTO 24016G20KT 40SM 17/01 A3007 RMK AO1 T01720006
TWIN BRIDGES|K7S1 262055Z AUTO 29008KT 40SM 15/M01 A3022 RMK AO1 T01501010
ROUNDUP     |KRPX 262055Z AUTO 00000KT 10SM 16/M01 A2997 RMK AO1 T01611010
SCOBEY      |K9S2 262055Z AUTO 12007KT 25SM 03/M03 A3011 RMK AO1 T00331027
EKALAKA     |K97M 262055Z AUTO 31006KT 40SM 09/M04 A3007 RMK AO1 T00891043
MALTA       |KM75 262055Z AUTO 00000KT 40SM 13/00 A3002 RMK AO1 T01330000






000
SXUS55 KMSO 262043
OSOMSO
MONTANA AWOS SUMMARY
NATIONAL WEATHER SERVICE MISSOULA MT
143 PM MST THU MAR 26 2015

Montana AWOS Reports

LAUREL      |K6S8 262035Z AUTO 26014KT 40SM 16/M01 A3008 RMK AO1 T01611005
TWIN BRIDGES|K7S1 262035Z AUTO 00000KT 40SM 15/M01 A3022 RMK AO1 T01501010
ROUNDUP     |KRPX 262035Z AUTO 00000KT 40SM 16/M02 A2998 RMK AO1 T01561016
MALTA       |KM75 262035Z AUTO 00000KT 40SM 13/00 A3002 RMK AO1 T01330000






000
SXUS55 KMSO 262023
OSOMSO
MONTANA AWOS SUMMARY
NATIONAL WEATHER SERVICE MISSOULA MT
123 PM MST THU MAR 26 2015

Montana AWOS Reports

LAUREL      |K6S8 262015Z AUTO 26010KT 40SM 16/M01 A3009 RMK AO1 T01561005
ROUNDUP     |KRPX 262015Z AUTO 24005KT 40SM 16/M01 A2998 RMK AO1 T01611005
MALTA       |KM75 262015Z AUTO 00000KT 40SM 13/M01 A3003 RMK AO1 T01281005
TWIN BRIDGES|K7S1 262015Z AUTO 20007KT 40SM 14/M02 A3022 RMK AO1 T01441016






000
SXUS55 KMSO 262003
OSOMSO
MONTANA AWOS SUMMARY
NATIONAL WEATHER SERVICE MISSOULA MT
103 PM MST THU MAR 26 2015

Montana AWOS Reports

LAUREL      |K6S8 261955Z AUTO 27008KT 40SM 15/M01 A3010 RMK AO1 T01501005
TWIN BRIDGES|K7S1 261955Z AUTO 00000KT 40SM 14/M01 A3023 RMK AO1 T01441010
ROUNDUP     |KRPX 261955Z AUTO 00000KT 40SM 16/M01 A2999 RMK AO1 T01561005
MALTA       |KM75 261955Z AUTO 00000KT 40SM 12/M01 A3003 RMK AO1 T01221005
SCOBEY      |K9S2 261955Z AUTO 12008KT 25SM 03/M02 A3012 RMK AO1 T00331021
EKALAKA     |K97M 261955Z AUTO 30008KT 7SM 08/M04 A3008 RMK AO1 T00831038
MALTA       |KM75 261955Z AUTO 00000KT 40SM 12/M01 A3003 RMK AO1 T01221005






000
SXUS55 KMSO 261953
OSOMSO
MONTANA AWOS SUMMARY
NATIONAL WEATHER SERVICE MISSOULA MT
1252 PM MST THU MAR 26 2015

Montana AWOS Reports

TWIN BRIDGES|K7S1 261935Z AUTO 11004KT 40SM 14/M02 A3023 RMK AO1 T01391016
ROUNDUP     |KRPX 261935Z AUTO 00000KT 40SM 16/M01 A3000 RMK AO1 T01561010
MALTA       |KM75 261935Z AUTO 00000KT 40SM 12/M01 A3004 RMK AO1 T01221005






000
SXUS55 KMSO 261953
OSOMSO
MONTANA AWOS SUMMARY
NATIONAL WEATHER SERVICE MISSOULA MT
1252 PM MST THU MAR 26 2015

Montana AWOS Reports

TWIN BRIDGES|K7S1 261935Z AUTO 11004KT 40SM 14/M02 A3023 RMK AO1 T01391016
ROUNDUP     |KRPX 261935Z AUTO 00000KT 40SM 16/M01 A3000 RMK AO1 T01561010
MALTA       |KM75 261935Z AUTO 00000KT 40SM 12/M01 A3004 RMK AO1 T01221005






000
SXUS55 KMSO 261943
OSOMSO
MONTANA AWOS SUMMARY
NATIONAL WEATHER SERVICE MISSOULA MT
1243 PM MST THU MAR 26 2015

Montana AWOS Reports

LAUREL      |K6S8 261935Z AUTO 24011G19KT 40SM 14/M01 A3010 RMK AO1 T01441005






000
SXUS55 KMSO 261923
OSOMSO
MONTANA AWOS SUMMARY
NATIONAL WEATHER SERVICE MISSOULA MT
1222 PM MST THU MAR 26 2015

Montana AWOS Reports

LAUREL      |K6S8 261915Z AUTO 27007KT 40SM 14/M01 A3011 RMK AO1 T01441005
TWIN BRIDGES|K7S1 261915Z AUTO 00000KT 40SM 14/M01 A3023 RMK AO1 T01391010
ROUNDUP     |KRPX 261915Z AUTO 22012KT 40SM 15/M01 A3000 RMK AO1 T01501010
MALTA       |KM75 261915Z AUTO 00000KT 40SM 12/M01 A3004 RMK AO1 T01171005






000
SXUS55 KMSO 261923
OSOMSO
MONTANA AWOS SUMMARY
NATIONAL WEATHER SERVICE MISSOULA MT
1222 PM MST THU MAR 26 2015

Montana AWOS Reports

LAUREL      |K6S8 261915Z AUTO 27007KT 40SM 14/M01 A3011 RMK AO1 T01441005
TWIN BRIDGES|K7S1 261915Z AUTO 00000KT 40SM 14/M01 A3023 RMK AO1 T01391010
ROUNDUP     |KRPX 261915Z AUTO 22012KT 40SM 15/M01 A3000 RMK AO1 T01501010
MALTA       |KM75 261915Z AUTO 00000KT 40SM 12/M01 A3004 RMK AO1 T01171005






000
SXUS55 KMSO 261903
OSOMSO
MONTANA AWOS SUMMARY
NATIONAL WEATHER SERVICE MISSOULA MT
1203 PM MST THU MAR 26 2015

Montana AWOS Reports

LAUREL      |K6S8 261855Z AUTO 23013G17KT 40SM 14/M02 A3012 RMK AO1 T01391016
MALTA       |KM75 261855Z AUTO 00000KT 40SM 12/M01 A3004 RMK AO1 T01171005
TWIN BRIDGES|K7S1 261855Z AUTO 11005KT 40SM 13/M01 A3023 RMK AO1 T01331010
ROUNDUP     |KRPX 261855Z AUTO 26004KT 40SM 14/M01 A3001 RMK AO1 T01441010
SCOBEY      |K9S2 261855Z AUTO 13007KT 25SM 02/M02 A3013 RMK AO1 T00171021
EKALAKA     |K97M 261855Z AUTO 29005KT 40SM 07/M03 A3009 RMK AO1 T00721032






000
SXUS55 KMSO 261903
OSOMSO
MONTANA AWOS SUMMARY
NATIONAL WEATHER SERVICE MISSOULA MT
1203 PM MST THU MAR 26 2015

Montana AWOS Reports

LAUREL      |K6S8 261855Z AUTO 23013G17KT 40SM 14/M02 A3012 RMK AO1 T01391016
MALTA       |KM75 261855Z AUTO 00000KT 40SM 12/M01 A3004 RMK AO1 T01171005
TWIN BRIDGES|K7S1 261855Z AUTO 11005KT 40SM 13/M01 A3023 RMK AO1 T01331010
ROUNDUP     |KRPX 261855Z AUTO 26004KT 40SM 14/M01 A3001 RMK AO1 T01441010
SCOBEY      |K9S2 261855Z AUTO 13007KT 25SM 02/M02 A3013 RMK AO1 T00171021
EKALAKA     |K97M 261855Z AUTO 29005KT 40SM 07/M03 A3009 RMK AO1 T00721032






000
SXUS55 KMSO 261843
OSOMSO
MONTANA AWOS SUMMARY
NATIONAL WEATHER SERVICE MISSOULA MT
1143 AM MST THU MAR 26 2015

Montana AWOS Reports

LAUREL      |K6S8 261835Z AUTO 26010G16KT 40SM 14/M01 A3012 RMK AO1 T01391005
TWIN BRIDGES|K7S1 261835Z AUTO 09004KT 40SM 13/M02 A3023 RMK AO1 T01331016
ROUNDUP     |KRPX 261835Z AUTO 28006KT 40SM 14/M02 A3002 RMK AO1 T01391021
MALTA       |KM75 261835Z AUTO 00000KT 40SM 12/00 A3005 RMK AO1 T01220000






000
SXUS55 KMSO 261833
OSOMSO
MONTANA AWOS SUMMARY
NATIONAL WEATHER SERVICE MISSOULA MT
1133 AM MST THU MAR 26 2015

Montana AWOS Reports

MALTA       |KM75 261755Z AUTO 00000KT 40SM 11/M01 A3006 RMK AO1 T01061005






000
SXUS55 KMSO 261823
OSOMSO
MONTANA AWOS SUMMARY
NATIONAL WEATHER SERVICE MISSOULA MT
1122 AM MST THU MAR 26 2015

Montana AWOS Reports

LAUREL      |K6S8 261815Z AUTO 25011G19KT 40SM 13/M02 A3012 RMK AO1 T01331016
TWIN BRIDGES|K7S1 261815Z AUTO 17006KT 40SM 13/M01 A3024 RMK AO1 T01281010
ROUNDUP     |KRPX 261815Z AUTO 00000KT 40SM 13/M02 A3002 RMK AO1 T01331016
MALTA       |KM75 261815Z AUTO 00000KT 40SM 15/03 A3005 RMK AO1 T01500033






000
SXUS55 KMSO 261823
OSOMSO
MONTANA AWOS SUMMARY
NATIONAL WEATHER SERVICE MISSOULA MT
1122 AM MST THU MAR 26 2015

Montana AWOS Reports

LAUREL      |K6S8 261815Z AUTO 25011G19KT 40SM 13/M02 A3012 RMK AO1 T01331016
TWIN BRIDGES|K7S1 261815Z AUTO 17006KT 40SM 13/M01 A3024 RMK AO1 T01281010
ROUNDUP     |KRPX 261815Z AUTO 00000KT 40SM 13/M02 A3002 RMK AO1 T01331016
MALTA       |KM75 261815Z AUTO 00000KT 40SM 15/03 A3005 RMK AO1 T01500033






000
SXUS55 KMSO 261813
OSOMSO
MONTANA AWOS SUMMARY
NATIONAL WEATHER SERVICE MISSOULA MT
1113 AM MST THU MAR 26 2015

Montana AWOS Reports

EKALAKA     |K97M 261755Z AUTO 00000KT 40SM 06/M03 A3009 RMK AO1 T00611032






000
SXUS55 KMSO 261813
OSOMSO
MONTANA AWOS SUMMARY
NATIONAL WEATHER SERVICE MISSOULA MT
1113 AM MST THU MAR 26 2015

Montana AWOS Reports

EKALAKA     |K97M 261755Z AUTO 00000KT 40SM 06/M03 A3009 RMK AO1 T00611032






000
SXUS55 KMSO 261803
OSOMSO
MONTANA AWOS SUMMARY
NATIONAL WEATHER SERVICE MISSOULA MT
1103 AM MST THU MAR 26 2015

Montana AWOS Reports

LAUREL      |K6S8 261755Z AUTO 25014G23KT 40SM 13/M02 A3012 RMK AO1 T01331016
TWIN BRIDGES|K7S1 261755Z AUTO 00000KT 40SM 12/M02 A3025 RMK AO1 T01221016
ROUNDUP     |KRPX 261755Z AUTO 25008KT 40SM 13/M02 A3002 RMK AO1 T01331016
SCOBEY      |K9S2 261755Z AUTO 13004KT 15SM 01/M03 A3013 RMK AO1 T00061027






000
SXUS55 KMSO 261803
OSOMSO
MONTANA AWOS SUMMARY
NATIONAL WEATHER SERVICE MISSOULA MT
1103 AM MST THU MAR 26 2015

Montana AWOS Reports

LAUREL      |K6S8 261755Z AUTO 25014G23KT 40SM 13/M02 A3012 RMK AO1 T01331016
TWIN BRIDGES|K7S1 261755Z AUTO 00000KT 40SM 12/M02 A3025 RMK AO1 T01221016
ROUNDUP     |KRPX 261755Z AUTO 25008KT 40SM 13/M02 A3002 RMK AO1 T01331016
SCOBEY      |K9S2 261755Z AUTO 13004KT 15SM 01/M03 A3013 RMK AO1 T00061027






000
SXUS55 KMSO 261744
OSOMSO
MONTANA AWOS SUMMARY
NATIONAL WEATHER SERVICE MISSOULA MT
1043 AM MST THU MAR 26 2015

Montana AWOS Reports

LAUREL      |K6S8 261735Z AUTO 25013G21KT 40SM 13/M01 A3013 RMK AO1 T01331005
TWIN BRIDGES|K7S1 261735Z AUTO 00000KT 40SM 12/M01 A3025 RMK AO1 T01171010
ROUNDUP     |KRPX 261735Z AUTO 30005KT 40SM 13/M02 A3003 RMK AO1 T01331016
MALTA       |KM75 261735Z AUTO 00000KT 40SM 11/00 A3006 RMK AO1 T01060000






000
SXUS55 KMSO 261744
OSOMSO
MONTANA AWOS SUMMARY
NATIONAL WEATHER SERVICE MISSOULA MT
1043 AM MST THU MAR 26 2015

Montana AWOS Reports

LAUREL      |K6S8 261735Z AUTO 25013G21KT 40SM 13/M01 A3013 RMK AO1 T01331005
TWIN BRIDGES|K7S1 261735Z AUTO 00000KT 40SM 12/M01 A3025 RMK AO1 T01171010
ROUNDUP     |KRPX 261735Z AUTO 30005KT 40SM 13/M02 A3003 RMK AO1 T01331016
MALTA       |KM75 261735Z AUTO 00000KT 40SM 11/00 A3006 RMK AO1 T01060000






000
SXUS55 KMSO 261723
OSOMSO
MONTANA AWOS SUMMARY
NATIONAL WEATHER SERVICE MISSOULA MT
1023 AM MST THU MAR 26 2015

Montana AWOS Reports

LAUREL      |K6S8 261715Z AUTO 26016G24KT 40SM 13/M02 A3013 RMK AO1 T01281021
TWIN BRIDGES|K7S1 261715Z AUTO 13004KT 40SM 11/M02 A3025 RMK AO1 T01111016
ROUNDUP     |KRPX 261715Z AUTO 25009G15KT 40SM 13/M01 A3003 RMK AO1 T01281010
MALTA       |KM75 261715Z AUTO 00000KT 40SM 09/M01 A3007 RMK AO1 T00941005






000
SXUS55 KMSO 261723
OSOMSO
MONTANA AWOS SUMMARY
NATIONAL WEATHER SERVICE MISSOULA MT
1023 AM MST THU MAR 26 2015

Montana AWOS Reports

LAUREL      |K6S8 261715Z AUTO 26016G24KT 40SM 13/M02 A3013 RMK AO1 T01281021
TWIN BRIDGES|K7S1 261715Z AUTO 13004KT 40SM 11/M02 A3025 RMK AO1 T01111016
ROUNDUP     |KRPX 261715Z AUTO 25009G15KT 40SM 13/M01 A3003 RMK AO1 T01281010
MALTA       |KM75 261715Z AUTO 00000KT 40SM 09/M01 A3007 RMK AO1 T00941005






000
SXUS55 KMSO 261703
OSOMSO
MONTANA AWOS SUMMARY
NATIONAL WEATHER SERVICE MISSOULA MT
1003 AM MST THU MAR 26 2015

Montana AWOS Reports

LAUREL      |K6S8 261655Z AUTO 26011G17KT 40SM 13/M02 A3013 RMK AO1 T01281016
TWIN BRIDGES|K7S1 261655Z AUTO 00000KT 40SM 11/M02 A3025 RMK AO1 T01111016
ROUNDUP     |KRPX 261655Z AUTO 26004KT 40SM 13/M01 A3003 RMK AO1 T01281010
SCOBEY      |K9S2 261655Z AUTO 00000KT 1/2SM 00/M03 A3013 RMK AO1 T00001032
EKALAKA     |K97M 261655Z AUTO 31005KT 40SM 05/M03 A3009 RMK AO1 T00501032
MALTA       |KM75 261655Z AUTO 00000KT 40SM 08/M01 A3007 RMK AO1 T00831005






000
SXUS55 KMSO 261703
OSOMSO
MONTANA AWOS SUMMARY
NATIONAL WEATHER SERVICE MISSOULA MT
1003 AM MST THU MAR 26 2015

Montana AWOS Reports

LAUREL      |K6S8 261655Z AUTO 26011G17KT 40SM 13/M02 A3013 RMK AO1 T01281016
TWIN BRIDGES|K7S1 261655Z AUTO 00000KT 40SM 11/M02 A3025 RMK AO1 T01111016
ROUNDUP     |KRPX 261655Z AUTO 26004KT 40SM 13/M01 A3003 RMK AO1 T01281010
SCOBEY      |K9S2 261655Z AUTO 00000KT 1/2SM 00/M03 A3013 RMK AO1 T00001032
EKALAKA     |K97M 261655Z AUTO 31005KT 40SM 05/M03 A3009 RMK AO1 T00501032
MALTA       |KM75 261655Z AUTO 00000KT 40SM 08/M01 A3007 RMK AO1 T00831005






000
SXUS55 KMSO 261643
OSOMSO
MONTANA AWOS SUMMARY
NATIONAL WEATHER SERVICE MISSOULA MT
943 AM MST THU MAR 26 2015

Montana AWOS Reports

LAUREL      |K6S8 261635Z AUTO 24011G17KT 40SM 12/M02 A3013 RMK AO1 T01221016
TWIN BRIDGES|K7S1 261635Z AUTO 12004KT 40SM 10/M02 A3025 RMK AO1 T01001016
ROUNDUP     |KRPX 261635Z AUTO 23006KT 40SM 12/M01 A3004 RMK AO1 T01221005
MALTA       |KM75 261635Z AUTO 00000KT 40SM 07/M01 A3008 RMK AO1 T00721010






000
SXUS55 KMSO 261623
OSOMSO
MONTANA AWOS SUMMARY
NATIONAL WEATHER SERVICE MISSOULA MT
922 AM MST THU MAR 26 2015

Montana AWOS Reports

LAUREL      |K6S8 261615Z AUTO 40SM 12/M02 A3013 RMK AO1 T01171016
TWIN BRIDGES|K7S1 261615Z AUTO 13005KT 40SM 09/M02 A3026 RMK AO1 T00941016
ROUNDUP     |KRPX 261615Z AUTO 24009G14KT 40SM 12/M01 A3004 RMK AO1 T01171005
MALTA       |KM75 261615Z AUTO 00000KT 40SM 06/M02 A3008 RMK AO1 T00611016






    US Dept of Commerce
    National Oceanic and Atmospheric Administration
    National Weather Service
    1325 East West Highway
    Silver Spring, MD 20910
    Page Author: NWS Internet Services Team
Disclaimer
Information Quality
Credits
Glossary
Privacy Policy
Freedom of Information Act (FOIA)
About Us
Career Opportunities